<?xml version="1.0" encoding="UTF-8" standalone="no" ?>
<gpx xmlns="http://www.topografix.com/GPX/1/1" xmlns:xsi="http://www.w3.org/2001/XMLSchema-instance" xsi:schemaLocation="http://www.topografix.com/GPX/1/1 http://www.topografix.com/GPX/1/1/gpx.xsd" version="1.1" creator="VisuGPX - https://www.visugpx.com">
  <metadata>
    <name>RANDO ST PIERRE DU CHAMP FORET DE MIAUNE 24 KM</name>
    <desc><![CDATA[RANDO ST PIERRE FORET DE MIAUNE 25 KM. DEPART ARRIVEE SAINT PIERRE DUCHAMP .ROCHE EN REGNIER.LE BOIS.REMEGE.ORCIGNAC.COMBRES POUSSAC.]]></desc>
  </metadata>
  <trk>
    <name><![CDATA[2024-11-24 15:47:40]]></name>
    <desc><![CDATA[





]]></desc>
    <extensions>
      <line xmlns="http://www.topografix.com/GPX/gpx_style/0/2">
        <color>0000FF</color>
        <width>4</width>
      </line>
    </extensions>
    <trkseg>
      <trkpt lat="45.24751" lon="3.89933">
        <ele>972.03</ele>
        <time>2024-11-24T08:03:11Z</time>
      </trkpt>
      <trkpt lat="45.24749" lon="3.89931">
        <ele>970.59</ele>
        <time>2024-11-24T08:03:19Z</time>
      </trkpt>
      <trkpt lat="45.24744" lon="3.89923">
        <ele>969.15</ele>
        <time>2024-11-24T08:03:26Z</time>
      </trkpt>
      <trkpt lat="45.24742" lon="3.89923">
        <ele>968.18</ele>
        <time>2024-11-24T08:03:28Z</time>
      </trkpt>
      <trkpt lat="45.24739" lon="3.8994">
        <ele>967.22</ele>
        <time>2024-11-24T08:03:43Z</time>
      </trkpt>
      <trkpt lat="45.24737" lon="3.89945">
        <ele>967.22</ele>
        <time>2024-11-24T08:03:47Z</time>
      </trkpt>
      <trkpt lat="45.24734" lon="3.89952">
        <ele>966.74</ele>
        <time>2024-11-24T08:03:56Z</time>
      </trkpt>
      <trkpt lat="45.2473" lon="3.89967">
        <ele>964.82</ele>
        <time>2024-11-24T08:04:06Z</time>
      </trkpt>
      <trkpt lat="45.24721" lon="3.89994">
        <ele>964.82</ele>
        <time>2024-11-24T08:04:26Z</time>
      </trkpt>
      <trkpt lat="45.2471" lon="3.90018">
        <ele>963.86</ele>
        <time>2024-11-24T08:04:44Z</time>
      </trkpt>
      <trkpt lat="45.24707" lon="3.90025">
        <ele>964.34</ele>
        <time>2024-11-24T08:04:50Z</time>
      </trkpt>
      <trkpt lat="45.24704" lon="3.90037">
        <ele>963.86</ele>
        <time>2024-11-24T08:04:58Z</time>
      </trkpt>
      <trkpt lat="45.24692" lon="3.90066">
        <ele>962.42</ele>
        <time>2024-11-24T08:05:17Z</time>
      </trkpt>
      <trkpt lat="45.24677" lon="3.90099">
        <ele>958.09</ele>
        <time>2024-11-24T08:05:39Z</time>
      </trkpt>
      <trkpt lat="45.24673" lon="3.90105">
        <ele>957.61</ele>
        <time>2024-11-24T08:05:44Z</time>
      </trkpt>
      <trkpt lat="45.24655" lon="3.90104">
        <ele>957.13</ele>
        <time>2024-11-24T08:06:00Z</time>
      </trkpt>
      <trkpt lat="45.24649" lon="3.90103">
        <ele>957.13</ele>
        <time>2024-11-24T08:06:05Z</time>
      </trkpt>
      <trkpt lat="45.24623" lon="3.90097">
        <ele>958.09</ele>
        <time>2024-11-24T08:06:26Z</time>
      </trkpt>
      <trkpt lat="45.24596" lon="3.90087">
        <ele>956.17</ele>
        <time>2024-11-24T08:06:47Z</time>
      </trkpt>
      <trkpt lat="45.24591" lon="3.90086">
        <ele>955.21</ele>
        <time>2024-11-24T08:06:51Z</time>
      </trkpt>
      <trkpt lat="45.24588" lon="3.90089">
        <ele>954.73</ele>
        <time>2024-11-24T08:06:55Z</time>
      </trkpt>
      <trkpt lat="45.24564" lon="3.90087">
        <ele>952.8</ele>
        <time>2024-11-24T08:07:13Z</time>
      </trkpt>
      <trkpt lat="45.24542" lon="3.9009">
        <ele>951.84</ele>
        <time>2024-11-24T08:07:31Z</time>
      </trkpt>
      <trkpt lat="45.24517" lon="3.90094">
        <ele>950.88</ele>
        <time>2024-11-24T08:07:49Z</time>
      </trkpt>
      <trkpt lat="45.24507" lon="3.90095">
        <ele>951.36</ele>
        <time>2024-11-24T08:07:56Z</time>
      </trkpt>
      <trkpt lat="45.24502" lon="3.90095">
        <ele>950.88</ele>
        <time>2024-11-24T08:08:00Z</time>
      </trkpt>
      <trkpt lat="45.24474" lon="3.9008">
        <ele>950.88</ele>
        <time>2024-11-24T08:08:22Z</time>
      </trkpt>
      <trkpt lat="45.24447" lon="3.90066">
        <ele>950.88</ele>
        <time>2024-11-24T08:08:42Z</time>
      </trkpt>
      <trkpt lat="45.24418" lon="3.90057">
        <ele>950.88</ele>
        <time>2024-11-24T08:09:04Z</time>
      </trkpt>
      <trkpt lat="45.24391" lon="3.90051">
        <ele>950.88</ele>
        <time>2024-11-24T08:09:24Z</time>
      </trkpt>
      <trkpt lat="45.24364" lon="3.90049">
        <ele>949.92</ele>
        <time>2024-11-24T08:09:43Z</time>
      </trkpt>
      <trkpt lat="45.24333" lon="3.90051">
        <ele>948.48</ele>
        <time>2024-11-24T08:10:05Z</time>
      </trkpt>
      <trkpt lat="45.24304" lon="3.90059">
        <ele>947.52</ele>
        <time>2024-11-24T08:10:26Z</time>
      </trkpt>
      <trkpt lat="45.24279" lon="3.90065">
        <ele>946.56</ele>
        <time>2024-11-24T08:10:44Z</time>
      </trkpt>
      <trkpt lat="45.2425" lon="3.90063">
        <ele>947.04</ele>
        <time>2024-11-24T08:11:05Z</time>
      </trkpt>
      <trkpt lat="45.24223" lon="3.90064">
        <ele>948.96</ele>
        <time>2024-11-24T08:11:25Z</time>
      </trkpt>
      <trkpt lat="45.24197" lon="3.90066">
        <ele>949.44</ele>
        <time>2024-11-24T08:11:44Z</time>
      </trkpt>
      <trkpt lat="45.24189" lon="3.90068">
        <ele>949.44</ele>
        <time>2024-11-24T08:11:51Z</time>
      </trkpt>
      <trkpt lat="45.24187" lon="3.9007">
        <ele>949.44</ele>
        <time>2024-11-24T08:11:53Z</time>
      </trkpt>
      <trkpt lat="45.24183" lon="3.90097">
        <ele>949.92</ele>
        <time>2024-11-24T08:12:09Z</time>
      </trkpt>
      <trkpt lat="45.2418" lon="3.90126">
        <ele>949.92</ele>
        <time>2024-11-24T08:12:26Z</time>
      </trkpt>
      <trkpt lat="45.24178" lon="3.9014">
        <ele>950.4</ele>
        <time>2024-11-24T08:12:33Z</time>
      </trkpt>
      <trkpt lat="45.24175" lon="3.9017">
        <ele>950.88</ele>
        <time>2024-11-24T08:12:50Z</time>
      </trkpt>
      <trkpt lat="45.24172" lon="3.90197">
        <ele>951.36</ele>
        <time>2024-11-24T08:13:06Z</time>
      </trkpt>
      <trkpt lat="45.24169" lon="3.9023">
        <ele>952.8</ele>
        <time>2024-11-24T08:13:24Z</time>
      </trkpt>
      <trkpt lat="45.24166" lon="3.90263">
        <ele>954.25</ele>
        <time>2024-11-24T08:13:43Z</time>
      </trkpt>
      <trkpt lat="45.24163" lon="3.90292">
        <ele>955.21</ele>
        <time>2024-11-24T08:13:59Z</time>
      </trkpt>
      <trkpt lat="45.24163" lon="3.90296">
        <ele>955.21</ele>
        <time>2024-11-24T08:14:02Z</time>
      </trkpt>
      <trkpt lat="45.24161" lon="3.90331">
        <ele>955.21</ele>
        <time>2024-11-24T08:14:21Z</time>
      </trkpt>
      <trkpt lat="45.24161" lon="3.90337">
        <ele>955.21</ele>
        <time>2024-11-24T08:14:24Z</time>
      </trkpt>
      <trkpt lat="45.24158" lon="3.90366">
        <ele>952.8</ele>
        <time>2024-11-24T08:14:40Z</time>
      </trkpt>
      <trkpt lat="45.24153" lon="3.90391">
        <ele>950.4</ele>
        <time>2024-11-24T08:14:56Z</time>
      </trkpt>
      <trkpt lat="45.24153" lon="3.90394">
        <ele>950.88</ele>
        <time>2024-11-24T08:14:58Z</time>
      </trkpt>
      <trkpt lat="45.24153" lon="3.90402">
        <ele>951.84</ele>
        <time>2024-11-24T08:15:03Z</time>
      </trkpt>
      <trkpt lat="45.24152" lon="3.90415">
        <ele>952.8</ele>
        <time>2024-11-24T08:15:11Z</time>
      </trkpt>
      <trkpt lat="45.24148" lon="3.90435">
        <ele>954.73</ele>
        <time>2024-11-24T08:15:25Z</time>
      </trkpt>
      <trkpt lat="45.24144" lon="3.90451">
        <ele>958.57</ele>
        <time>2024-11-24T08:15:35Z</time>
      </trkpt>
      <trkpt lat="45.24141" lon="3.90478">
        <ele>962.42</ele>
        <time>2024-11-24T08:15:51Z</time>
      </trkpt>
      <trkpt lat="45.24138" lon="3.90498">
        <ele>963.38</ele>
        <time>2024-11-24T08:16:03Z</time>
      </trkpt>
      <trkpt lat="45.24131" lon="3.90524">
        <ele>965.3</ele>
        <time>2024-11-24T08:16:18Z</time>
      </trkpt>
      <trkpt lat="45.24129" lon="3.90546">
        <ele>966.26</ele>
        <time>2024-11-24T08:16:32Z</time>
      </trkpt>
      <trkpt lat="45.24127" lon="3.90566">
        <ele>969.15</ele>
        <time>2024-11-24T08:16:45Z</time>
      </trkpt>
      <trkpt lat="45.24129" lon="3.90589">
        <ele>975.88</ele>
        <time>2024-11-24T08:17:00Z</time>
      </trkpt>
      <trkpt lat="45.24129" lon="3.90616">
        <ele>985.97</ele>
        <time>2024-11-24T08:17:16Z</time>
      </trkpt>
      <trkpt lat="45.24127" lon="3.9063">
        <ele>990.3</ele>
        <time>2024-11-24T08:17:24Z</time>
      </trkpt>
      <trkpt lat="45.24126" lon="3.90635">
        <ele>991.74</ele>
        <time>2024-11-24T08:17:27Z</time>
      </trkpt>
      <trkpt lat="45.24125" lon="3.90661">
        <ele>999.43</ele>
        <time>2024-11-24T08:17:41Z</time>
      </trkpt>
      <trkpt lat="45.24122" lon="3.90683">
        <ele>1000.39</ele>
        <time>2024-11-24T08:17:55Z</time>
      </trkpt>
      <trkpt lat="45.24121" lon="3.90696">
        <ele>999.43</ele>
        <time>2024-11-24T08:18:02Z</time>
      </trkpt>
      <trkpt lat="45.24118" lon="3.90711">
        <ele>999.91</ele>
        <time>2024-11-24T08:18:10Z</time>
      </trkpt>
      <trkpt lat="45.24116" lon="3.90718">
        <ele>1000.39</ele>
        <time>2024-11-24T08:18:14Z</time>
      </trkpt>
      <trkpt lat="45.24109" lon="3.90745">
        <ele>998.95</ele>
        <time>2024-11-24T08:18:29Z</time>
      </trkpt>
      <trkpt lat="45.24104" lon="3.90777">
        <ele>996.06</ele>
        <time>2024-11-24T08:18:47Z</time>
      </trkpt>
      <trkpt lat="45.24098" lon="3.90802">
        <ele>996.06</ele>
        <time>2024-11-24T08:19:03Z</time>
      </trkpt>
      <trkpt lat="45.24097" lon="3.90822">
        <ele>1000.87</ele>
        <time>2024-11-24T08:19:16Z</time>
      </trkpt>
      <trkpt lat="45.24096" lon="3.90845">
        <ele>1004.23</ele>
        <time>2024-11-24T08:19:28Z</time>
      </trkpt>
      <trkpt lat="45.24091" lon="3.90873">
        <ele>1001.83</ele>
        <time>2024-11-24T08:19:43Z</time>
      </trkpt>
      <trkpt lat="45.2409" lon="3.90879">
        <ele>1002.31</ele>
        <time>2024-11-24T08:19:46Z</time>
      </trkpt>
      <trkpt lat="45.24082" lon="3.90908">
        <ele>994.62</ele>
        <time>2024-11-24T08:20:01Z</time>
      </trkpt>
      <trkpt lat="45.24074" lon="3.90942">
        <ele>989.33</ele>
        <time>2024-11-24T08:20:17Z</time>
      </trkpt>
      <trkpt lat="45.24061" lon="3.9097">
        <ele>979.72</ele>
        <time>2024-11-24T08:20:33Z</time>
      </trkpt>
      <trkpt lat="45.24063" lon="3.90998">
        <ele>970.11</ele>
        <time>2024-11-24T08:20:49Z</time>
      </trkpt>
      <trkpt lat="45.2406" lon="3.91011">
        <ele>967.7</ele>
        <time>2024-11-24T08:20:59Z</time>
      </trkpt>
      <trkpt lat="45.24053" lon="3.91003">
        <ele>966.74</ele>
        <time>2024-11-24T08:21:09Z</time>
      </trkpt>
      <trkpt lat="45.24055" lon="3.91023">
        <ele>964.82</ele>
        <time>2024-11-24T08:21:25Z</time>
      </trkpt>
      <trkpt lat="45.2404" lon="3.9104">
        <ele>964.82</ele>
        <time>2024-11-24T08:21:41Z</time>
      </trkpt>
      <trkpt lat="45.24031" lon="3.91053">
        <ele>964.82</ele>
        <time>2024-11-24T08:21:52Z</time>
      </trkpt>
      <trkpt lat="45.24018" lon="3.91074">
        <ele>964.34</ele>
        <time>2024-11-24T08:22:09Z</time>
      </trkpt>
      <trkpt lat="45.24001" lon="3.91097">
        <ele>963.38</ele>
        <time>2024-11-24T08:22:26Z</time>
      </trkpt>
      <trkpt lat="45.23984" lon="3.91116">
        <ele>961.46</ele>
        <time>2024-11-24T08:22:41Z</time>
      </trkpt>
      <trkpt lat="45.23962" lon="3.9114">
        <ele>959.05</ele>
        <time>2024-11-24T08:23:00Z</time>
      </trkpt>
      <trkpt lat="45.23936" lon="3.91167">
        <ele>956.17</ele>
        <time>2024-11-24T08:23:23Z</time>
      </trkpt>
      <trkpt lat="45.23917" lon="3.9118">
        <ele>954.25</ele>
        <time>2024-11-24T08:23:38Z</time>
      </trkpt>
      <trkpt lat="45.23895" lon="3.91196">
        <ele>952.8</ele>
        <time>2024-11-24T08:23:56Z</time>
      </trkpt>
      <trkpt lat="45.23881" lon="3.91214">
        <ele>948.96</ele>
        <time>2024-11-24T08:24:10Z</time>
      </trkpt>
      <trkpt lat="45.23864" lon="3.91245">
        <ele>944.63</ele>
        <time>2024-11-24T08:24:31Z</time>
      </trkpt>
      <trkpt lat="45.2384" lon="3.91272">
        <ele>944.15</ele>
        <time>2024-11-24T08:24:52Z</time>
      </trkpt>
      <trkpt lat="45.23815" lon="3.91292">
        <ele>944.63</ele>
        <time>2024-11-24T08:25:12Z</time>
      </trkpt>
      <trkpt lat="45.23794" lon="3.91316">
        <ele>942.71</ele>
        <time>2024-11-24T08:25:31Z</time>
      </trkpt>
      <trkpt lat="45.23775" lon="3.91346">
        <ele>940.79</ele>
        <time>2024-11-24T08:25:51Z</time>
      </trkpt>
      <trkpt lat="45.2376" lon="3.91373">
        <ele>939.35</ele>
        <time>2024-11-24T08:26:08Z</time>
      </trkpt>
      <trkpt lat="45.23743" lon="3.91407">
        <ele>938.38</ele>
        <time>2024-11-24T08:26:28Z</time>
      </trkpt>
      <trkpt lat="45.23728" lon="3.91444">
        <ele>937.42</ele>
        <time>2024-11-24T08:26:50Z</time>
      </trkpt>
      <trkpt lat="45.23717" lon="3.91477">
        <ele>936.46</ele>
        <time>2024-11-24T08:27:09Z</time>
      </trkpt>
      <trkpt lat="45.23708" lon="3.91508">
        <ele>934.06</ele>
        <time>2024-11-24T08:27:27Z</time>
      </trkpt>
      <trkpt lat="45.23697" lon="3.91544">
        <ele>933.1</ele>
        <time>2024-11-24T08:27:46Z</time>
      </trkpt>
      <trkpt lat="45.23685" lon="3.91577">
        <ele>932.14</ele>
        <time>2024-11-24T08:28:05Z</time>
      </trkpt>
      <trkpt lat="45.23671" lon="3.91607">
        <ele>932.14</ele>
        <time>2024-11-24T08:28:23Z</time>
      </trkpt>
      <trkpt lat="45.23652" lon="3.91635">
        <ele>932.14</ele>
        <time>2024-11-24T08:28:42Z</time>
      </trkpt>
      <trkpt lat="45.23631" lon="3.91661">
        <ele>933.58</ele>
        <time>2024-11-24T08:29:02Z</time>
      </trkpt>
      <trkpt lat="45.23613" lon="3.91677">
        <ele>935.02</ele>
        <time>2024-11-24T08:29:18Z</time>
      </trkpt>
      <trkpt lat="45.23594" lon="3.91695">
        <ele>938.38</ele>
        <time>2024-11-24T08:29:35Z</time>
      </trkpt>
      <trkpt lat="45.23587" lon="3.91701">
        <ele>939.35</ele>
        <time>2024-11-24T08:29:42Z</time>
      </trkpt>
      <trkpt lat="45.23576" lon="3.9172">
        <ele>943.19</ele>
        <time>2024-11-24T08:29:58Z</time>
      </trkpt>
      <trkpt lat="45.2357" lon="3.91733">
        <ele>947.04</ele>
        <time>2024-11-24T08:30:09Z</time>
      </trkpt>
      <trkpt lat="45.23565" lon="3.91755">
        <ele>950.4</ele>
        <time>2024-11-24T08:30:22Z</time>
      </trkpt>
      <trkpt lat="45.23551" lon="3.91783">
        <ele>953.77</ele>
        <time>2024-11-24T08:30:39Z</time>
      </trkpt>
      <trkpt lat="45.23532" lon="3.91812">
        <ele>952.8</ele>
        <time>2024-11-24T08:30:58Z</time>
      </trkpt>
      <trkpt lat="45.23516" lon="3.91837">
        <ele>951.36</ele>
        <time>2024-11-24T08:31:15Z</time>
      </trkpt>
      <trkpt lat="45.23502" lon="3.91862">
        <ele>951.36</ele>
        <time>2024-11-24T08:31:33Z</time>
      </trkpt>
      <trkpt lat="45.23489" lon="3.91882">
        <ele>949.92</ele>
        <time>2024-11-24T08:31:49Z</time>
      </trkpt>
      <trkpt lat="45.23476" lon="3.91901">
        <ele>951.36</ele>
        <time>2024-11-24T08:32:03Z</time>
      </trkpt>
      <trkpt lat="45.2346" lon="3.91926">
        <ele>953.77</ele>
        <time>2024-11-24T08:32:21Z</time>
      </trkpt>
      <trkpt lat="45.23443" lon="3.91951">
        <ele>956.17</ele>
        <time>2024-11-24T08:32:39Z</time>
      </trkpt>
      <trkpt lat="45.23431" lon="3.91979">
        <ele>959.05</ele>
        <time>2024-11-24T08:32:57Z</time>
      </trkpt>
      <trkpt lat="45.23414" lon="3.92008">
        <ele>959.53</ele>
        <time>2024-11-24T08:33:17Z</time>
      </trkpt>
      <trkpt lat="45.23399" lon="3.92036">
        <ele>960.01</ele>
        <time>2024-11-24T08:33:36Z</time>
      </trkpt>
      <trkpt lat="45.23384" lon="3.92066">
        <ele>959.05</ele>
        <time>2024-11-24T08:33:54Z</time>
      </trkpt>
      <trkpt lat="45.23369" lon="3.92096">
        <ele>958.57</ele>
        <time>2024-11-24T08:34:12Z</time>
      </trkpt>
      <trkpt lat="45.23356" lon="3.92129">
        <ele>959.05</ele>
        <time>2024-11-24T08:34:31Z</time>
      </trkpt>
      <trkpt lat="45.2334" lon="3.92161">
        <ele>959.05</ele>
        <time>2024-11-24T08:34:50Z</time>
      </trkpt>
      <trkpt lat="45.23327" lon="3.92194">
        <ele>957.61</ele>
        <time>2024-11-24T08:35:09Z</time>
      </trkpt>
      <trkpt lat="45.23315" lon="3.92224">
        <ele>956.65</ele>
        <time>2024-11-24T08:35:26Z</time>
      </trkpt>
      <trkpt lat="45.23304" lon="3.92254">
        <ele>955.69</ele>
        <time>2024-11-24T08:35:43Z</time>
      </trkpt>
      <trkpt lat="45.23296" lon="3.92269">
        <ele>954.73</ele>
        <time>2024-11-24T08:35:52Z</time>
      </trkpt>
      <trkpt lat="45.23293" lon="3.92275">
        <ele>953.77</ele>
        <time>2024-11-24T08:35:56Z</time>
      </trkpt>
      <trkpt lat="45.23281" lon="3.92305">
        <ele>952.32</ele>
        <time>2024-11-24T08:36:14Z</time>
      </trkpt>
      <trkpt lat="45.23269" lon="3.92334">
        <ele>952.32</ele>
        <time>2024-11-24T08:36:31Z</time>
      </trkpt>
      <trkpt lat="45.23259" lon="3.92366">
        <ele>951.84</ele>
        <time>2024-11-24T08:36:49Z</time>
      </trkpt>
      <trkpt lat="45.23249" lon="3.92393">
        <ele>951.84</ele>
        <time>2024-11-24T08:37:04Z</time>
      </trkpt>
      <trkpt lat="45.23239" lon="3.92426">
        <ele>950.88</ele>
        <time>2024-11-24T08:37:22Z</time>
      </trkpt>
      <trkpt lat="45.2323" lon="3.92451">
        <ele>950.4</ele>
        <time>2024-11-24T08:37:36Z</time>
      </trkpt>
      <trkpt lat="45.23218" lon="3.92487">
        <ele>948.96</ele>
        <time>2024-11-24T08:37:55Z</time>
      </trkpt>
      <trkpt lat="45.23208" lon="3.92518">
        <ele>948</ele>
        <time>2024-11-24T08:38:12Z</time>
      </trkpt>
      <trkpt lat="45.23198" lon="3.92548">
        <ele>947.52</ele>
        <time>2024-11-24T08:38:28Z</time>
      </trkpt>
      <trkpt lat="45.23189" lon="3.92578">
        <ele>947.52</ele>
        <time>2024-11-24T08:38:44Z</time>
      </trkpt>
      <trkpt lat="45.23178" lon="3.92607">
        <ele>947.52</ele>
        <time>2024-11-24T08:39:01Z</time>
      </trkpt>
      <trkpt lat="45.23169" lon="3.92632">
        <ele>947.52</ele>
        <time>2024-11-24T08:39:15Z</time>
      </trkpt>
      <trkpt lat="45.23155" lon="3.92663">
        <ele>946.07</ele>
        <time>2024-11-24T08:39:33Z</time>
      </trkpt>
      <trkpt lat="45.23148" lon="3.92677">
        <ele>946.07</ele>
        <time>2024-11-24T08:39:43Z</time>
      </trkpt>
      <trkpt lat="45.23143" lon="3.92686">
        <ele>947.52</ele>
        <time>2024-11-24T08:39:49Z</time>
      </trkpt>
      <trkpt lat="45.23134" lon="3.92709">
        <ele>948.96</ele>
        <time>2024-11-24T08:40:04Z</time>
      </trkpt>
      <trkpt lat="45.23122" lon="3.92737">
        <ele>951.84</ele>
        <time>2024-11-24T08:40:21Z</time>
      </trkpt>
      <trkpt lat="45.23114" lon="3.92763">
        <ele>950.88</ele>
        <time>2024-11-24T08:40:35Z</time>
      </trkpt>
      <trkpt lat="45.23101" lon="3.92793">
        <ele>948</ele>
        <time>2024-11-24T08:40:52Z</time>
      </trkpt>
      <trkpt lat="45.23084" lon="3.92831">
        <ele>944.63</ele>
        <time>2024-11-24T08:41:14Z</time>
      </trkpt>
      <trkpt lat="45.23075" lon="3.92848">
        <ele>943.19</ele>
        <time>2024-11-24T08:41:26Z</time>
      </trkpt>
      <trkpt lat="45.23057" lon="3.92872">
        <ele>942.23</ele>
        <time>2024-11-24T08:41:43Z</time>
      </trkpt>
      <trkpt lat="45.23037" lon="3.92899">
        <ele>941.27</ele>
        <time>2024-11-24T08:42:03Z</time>
      </trkpt>
      <trkpt lat="45.23031" lon="3.92913">
        <ele>940.31</ele>
        <time>2024-11-24T08:42:12Z</time>
      </trkpt>
      <trkpt lat="45.23022" lon="3.92946">
        <ele>938.86</ele>
        <time>2024-11-24T08:42:30Z</time>
      </trkpt>
      <trkpt lat="45.23013" lon="3.92973">
        <ele>937.9</ele>
        <time>2024-11-24T08:42:46Z</time>
      </trkpt>
      <trkpt lat="45.22996" lon="3.92996">
        <ele>937.42</ele>
        <time>2024-11-24T08:43:03Z</time>
      </trkpt>
      <trkpt lat="45.22976" lon="3.93023">
        <ele>936.94</ele>
        <time>2024-11-24T08:43:22Z</time>
      </trkpt>
      <trkpt lat="45.22957" lon="3.93054">
        <ele>936.46</ele>
        <time>2024-11-24T08:43:42Z</time>
      </trkpt>
      <trkpt lat="45.22941" lon="3.93082">
        <ele>936.46</ele>
        <time>2024-11-24T08:44:00Z</time>
      </trkpt>
      <trkpt lat="45.22922" lon="3.93106">
        <ele>934.06</ele>
        <time>2024-11-24T08:44:18Z</time>
      </trkpt>
      <trkpt lat="45.229" lon="3.93115">
        <ele>931.17</ele>
        <time>2024-11-24T08:44:35Z</time>
      </trkpt>
      <trkpt lat="45.22886" lon="3.93132">
        <ele>928.77</ele>
        <time>2024-11-24T08:44:50Z</time>
      </trkpt>
      <trkpt lat="45.22873" lon="3.93156">
        <ele>925.89</ele>
        <time>2024-11-24T08:45:07Z</time>
      </trkpt>
      <trkpt lat="45.22858" lon="3.93179">
        <ele>922.52</ele>
        <time>2024-11-24T08:45:23Z</time>
      </trkpt>
      <trkpt lat="45.22846" lon="3.93201">
        <ele>920.6</ele>
        <time>2024-11-24T08:45:38Z</time>
      </trkpt>
      <trkpt lat="45.22836" lon="3.9321">
        <ele>918.2</ele>
        <time>2024-11-24T08:45:50Z</time>
      </trkpt>
      <trkpt lat="45.22833" lon="3.93211">
        <ele>918.2</ele>
        <time>2024-11-24T08:45:56Z</time>
      </trkpt>
      <trkpt lat="45.22819" lon="3.9322">
        <ele>918.2</ele>
        <time>2024-11-24T08:46:08Z</time>
      </trkpt>
      <trkpt lat="45.22806" lon="3.93243">
        <ele>917.24</ele>
        <time>2024-11-24T08:46:26Z</time>
      </trkpt>
      <trkpt lat="45.22805" lon="3.93248">
        <ele>916.75</ele>
        <time>2024-11-24T08:46:30Z</time>
      </trkpt>
      <trkpt lat="45.22796" lon="3.93275">
        <ele>912.43</ele>
        <time>2024-11-24T08:46:47Z</time>
      </trkpt>
      <trkpt lat="45.22788" lon="3.93301">
        <ele>908.1</ele>
        <time>2024-11-24T08:47:02Z</time>
      </trkpt>
      <trkpt lat="45.22785" lon="3.93327">
        <ele>909.06</ele>
        <time>2024-11-24T08:47:19Z</time>
      </trkpt>
      <trkpt lat="45.22785" lon="3.93329">
        <ele>909.06</ele>
        <time>2024-11-24T08:47:20Z</time>
      </trkpt>
      <trkpt lat="45.22781" lon="3.9335">
        <ele>910.99</ele>
        <time>2024-11-24T08:47:35Z</time>
      </trkpt>
      <trkpt lat="45.2278" lon="3.93357">
        <ele>911.47</ele>
        <time>2024-11-24T08:47:39Z</time>
      </trkpt>
      <trkpt lat="45.22776" lon="3.93376">
        <ele>913.87</ele>
        <time>2024-11-24T08:47:51Z</time>
      </trkpt>
      <trkpt lat="45.22775" lon="3.93379">
        <ele>914.35</ele>
        <time>2024-11-24T08:47:53Z</time>
      </trkpt>
      <trkpt lat="45.22773" lon="3.93407">
        <ele>916.27</ele>
        <time>2024-11-24T08:48:10Z</time>
      </trkpt>
      <trkpt lat="45.22769" lon="3.93429">
        <ele>917.24</ele>
        <time>2024-11-24T08:48:24Z</time>
      </trkpt>
      <trkpt lat="45.22767" lon="3.93457">
        <ele>916.75</ele>
        <time>2024-11-24T08:48:39Z</time>
      </trkpt>
      <trkpt lat="45.22764" lon="3.93488">
        <ele>914.83</ele>
        <time>2024-11-24T08:48:55Z</time>
      </trkpt>
      <trkpt lat="45.22766" lon="3.93513">
        <ele>916.75</ele>
        <time>2024-11-24T08:49:11Z</time>
      </trkpt>
      <trkpt lat="45.2277" lon="3.93537">
        <ele>919.64</ele>
        <time>2024-11-24T08:49:27Z</time>
      </trkpt>
      <trkpt lat="45.22776" lon="3.93564">
        <ele>913.87</ele>
        <time>2024-11-24T08:49:42Z</time>
      </trkpt>
      <trkpt lat="45.22778" lon="3.93572">
        <ele>913.39</ele>
        <time>2024-11-24T08:49:47Z</time>
      </trkpt>
      <trkpt lat="45.22778" lon="3.93578">
        <ele>912.43</ele>
        <time>2024-11-24T08:49:50Z</time>
      </trkpt>
      <trkpt lat="45.22779" lon="3.93583">
        <ele>911.95</ele>
        <time>2024-11-24T08:49:53Z</time>
      </trkpt>
      <trkpt lat="45.22789" lon="3.93618">
        <ele>903.3</ele>
        <time>2024-11-24T08:50:10Z</time>
      </trkpt>
      <trkpt lat="45.22793" lon="3.93648">
        <ele>897.05</ele>
        <time>2024-11-24T08:50:27Z</time>
      </trkpt>
      <trkpt lat="45.22793" lon="3.93685">
        <ele>886.95</ele>
        <time>2024-11-24T08:50:45Z</time>
      </trkpt>
      <trkpt lat="45.22795" lon="3.93712">
        <ele>882.15</ele>
        <time>2024-11-24T08:50:59Z</time>
      </trkpt>
      <trkpt lat="45.22797" lon="3.93747">
        <ele>877.82</ele>
        <time>2024-11-24T08:51:16Z</time>
      </trkpt>
      <trkpt lat="45.22801" lon="3.93789">
        <ele>873.5</ele>
        <time>2024-11-24T08:51:35Z</time>
      </trkpt>
      <trkpt lat="45.22809" lon="3.93823">
        <ele>872.53</ele>
        <time>2024-11-24T08:51:52Z</time>
      </trkpt>
      <trkpt lat="45.22818" lon="3.93858">
        <ele>873.01</ele>
        <time>2024-11-24T08:52:11Z</time>
      </trkpt>
      <trkpt lat="45.22824" lon="3.93878">
        <ele>873.98</ele>
        <time>2024-11-24T08:52:22Z</time>
      </trkpt>
      <trkpt lat="45.22832" lon="3.93905">
        <ele>876.86</ele>
        <time>2024-11-24T08:52:39Z</time>
      </trkpt>
      <trkpt lat="45.22841" lon="3.93929">
        <ele>877.34</ele>
        <time>2024-11-24T08:52:54Z</time>
      </trkpt>
      <trkpt lat="45.22852" lon="3.9395">
        <ele>879.26</ele>
        <time>2024-11-24T08:53:09Z</time>
      </trkpt>
      <trkpt lat="45.22868" lon="3.93973">
        <ele>880.71</ele>
        <time>2024-11-24T08:53:26Z</time>
      </trkpt>
      <trkpt lat="45.22882" lon="3.93994">
        <ele>881.67</ele>
        <time>2024-11-24T08:53:42Z</time>
      </trkpt>
      <trkpt lat="45.22901" lon="3.94017">
        <ele>882.15</ele>
        <time>2024-11-24T08:54:01Z</time>
      </trkpt>
      <trkpt lat="45.22921" lon="3.94037">
        <ele>883.59</ele>
        <time>2024-11-24T08:54:20Z</time>
      </trkpt>
      <trkpt lat="45.22938" lon="3.94055">
        <ele>885.03</ele>
        <time>2024-11-24T08:54:37Z</time>
      </trkpt>
      <trkpt lat="45.22943" lon="3.94071">
        <ele>885.51</ele>
        <time>2024-11-24T08:54:50Z</time>
      </trkpt>
      <trkpt lat="45.22946" lon="3.94081">
        <ele>885.51</ele>
        <time>2024-11-24T08:54:59Z</time>
      </trkpt>
      <trkpt lat="45.22938" lon="3.94088">
        <ele>882.15</ele>
        <time>2024-11-24T08:55:12Z</time>
      </trkpt>
      <trkpt lat="45.22935" lon="3.94087">
        <ele>882.15</ele>
        <time>2024-11-24T08:55:15Z</time>
      </trkpt>
      <trkpt lat="45.22928" lon="3.94084">
        <ele>881.67</ele>
        <time>2024-11-24T08:55:22Z</time>
      </trkpt>
      <trkpt lat="45.22907" lon="3.94072">
        <ele>878.78</ele>
        <time>2024-11-24T08:55:40Z</time>
      </trkpt>
      <trkpt lat="45.22884" lon="3.94059">
        <ele>876.38</ele>
        <time>2024-11-24T08:55:59Z</time>
      </trkpt>
      <trkpt lat="45.22862" lon="3.94046">
        <ele>874.46</ele>
        <time>2024-11-24T08:56:17Z</time>
      </trkpt>
      <trkpt lat="45.22844" lon="3.9403">
        <ele>873.98</ele>
        <time>2024-11-24T08:56:34Z</time>
      </trkpt>
      <trkpt lat="45.22838" lon="3.94025">
        <ele>873.98</ele>
        <time>2024-11-24T08:56:39Z</time>
      </trkpt>
      <trkpt lat="45.22833" lon="3.94019">
        <ele>872.53</ele>
        <time>2024-11-24T08:56:44Z</time>
      </trkpt>
      <trkpt lat="45.22813" lon="3.93999">
        <ele>870.61</ele>
        <time>2024-11-24T08:57:02Z</time>
      </trkpt>
      <trkpt lat="45.228" lon="3.93989">
        <ele>870.61</ele>
        <time>2024-11-24T08:57:14Z</time>
      </trkpt>
      <trkpt lat="45.22787" lon="3.93973">
        <ele>869.65</ele>
        <time>2024-11-24T08:57:30Z</time>
      </trkpt>
      <trkpt lat="45.22783" lon="3.93974">
        <ele>868.69</ele>
        <time>2024-11-24T08:57:41Z</time>
      </trkpt>
      <trkpt lat="45.22775" lon="3.93982">
        <ele>866.77</ele>
        <time>2024-11-24T08:57:55Z</time>
      </trkpt>
      <trkpt lat="45.22772" lon="3.93984">
        <ele>866.77</ele>
        <time>2024-11-24T08:57:59Z</time>
      </trkpt>
      <trkpt lat="45.22762" lon="3.93994">
        <ele>865.8</ele>
        <time>2024-11-24T08:58:14Z</time>
      </trkpt>
      <trkpt lat="45.22751" lon="3.94006">
        <ele>862.92</ele>
        <time>2024-11-24T08:58:29Z</time>
      </trkpt>
      <trkpt lat="45.2274" lon="3.94021">
        <ele>860.52</ele>
        <time>2024-11-24T08:58:44Z</time>
      </trkpt>
      <trkpt lat="45.22734" lon="3.94034">
        <ele>859.08</ele>
        <time>2024-11-24T08:58:58Z</time>
      </trkpt>
      <trkpt lat="45.22733" lon="3.94038">
        <ele>859.08</ele>
        <time>2024-11-24T08:59:02Z</time>
      </trkpt>
      <trkpt lat="45.22731" lon="3.94045">
        <ele>859.08</ele>
        <time>2024-11-24T08:59:06Z</time>
      </trkpt>
      <trkpt lat="45.22725" lon="3.9405">
        <ele>859.08</ele>
        <time>2024-11-24T08:59:10Z</time>
      </trkpt>
      <trkpt lat="45.22694" lon="3.94055">
        <ele>857.63</ele>
        <time>2024-11-24T08:59:31Z</time>
      </trkpt>
      <trkpt lat="45.22665" lon="3.94045">
        <ele>855.71</ele>
        <time>2024-11-24T08:59:52Z</time>
      </trkpt>
      <trkpt lat="45.22642" lon="3.94041">
        <ele>856.19</ele>
        <time>2024-11-24T09:00:10Z</time>
      </trkpt>
      <trkpt lat="45.22644" lon="3.94039">
        <ele>855.23</ele>
        <time>2024-11-24T09:00:26Z</time>
      </trkpt>
      <trkpt lat="45.22644" lon="3.94039">
        <ele>855.71</ele>
        <time>2024-11-24T09:00:27Z</time>
      </trkpt>
      <trkpt lat="45.22647" lon="3.94023">
        <ele>856.19</ele>
        <time>2024-11-24T09:00:40Z</time>
      </trkpt>
      <trkpt lat="45.22646" lon="3.94015">
        <ele>856.19</ele>
        <time>2024-11-24T09:00:45Z</time>
      </trkpt>
      <trkpt lat="45.22652" lon="3.93997">
        <ele>857.63</ele>
        <time>2024-11-24T09:01:02Z</time>
      </trkpt>
      <trkpt lat="45.22652" lon="3.93992">
        <ele>857.15</ele>
        <time>2024-11-24T09:01:17Z</time>
      </trkpt>
      <trkpt lat="45.22653" lon="3.93987">
        <ele>856.67</ele>
        <time>2024-11-24T09:01:27Z</time>
      </trkpt>
      <trkpt lat="45.22657" lon="3.93985">
        <ele>856.19</ele>
        <time>2024-11-24T09:01:38Z</time>
      </trkpt>
      <trkpt lat="45.22659" lon="3.93985">
        <ele>854.27</ele>
        <time>2024-11-24T09:01:52Z</time>
      </trkpt>
      <trkpt lat="45.22658" lon="3.93982">
        <ele>852.35</ele>
        <time>2024-11-24T09:02:11Z</time>
      </trkpt>
      <trkpt lat="45.22657" lon="3.93982">
        <ele>851.87</ele>
        <time>2024-11-24T09:02:23Z</time>
      </trkpt>
      <trkpt lat="45.22656" lon="3.93986">
        <ele>851.38</ele>
        <time>2024-11-24T09:02:33Z</time>
      </trkpt>
      <trkpt lat="45.22653" lon="3.93995">
        <ele>851.87</ele>
        <time>2024-11-24T09:02:46Z</time>
      </trkpt>
      <trkpt lat="45.22646" lon="3.94008">
        <ele>851.38</ele>
        <time>2024-11-24T09:02:59Z</time>
      </trkpt>
      <trkpt lat="45.22646" lon="3.94012">
        <ele>851.38</ele>
        <time>2024-11-24T09:03:03Z</time>
      </trkpt>
      <trkpt lat="45.22647" lon="3.94024">
        <ele>851.87</ele>
        <time>2024-11-24T09:03:12Z</time>
      </trkpt>
      <trkpt lat="45.22644" lon="3.94038">
        <ele>851.38</ele>
        <time>2024-11-24T09:03:22Z</time>
      </trkpt>
      <trkpt lat="45.22641" lon="3.9404">
        <ele>850.9</ele>
        <time>2024-11-24T09:03:25Z</time>
      </trkpt>
      <trkpt lat="45.22627" lon="3.9404">
        <ele>851.87</ele>
        <time>2024-11-24T09:03:39Z</time>
      </trkpt>
      <trkpt lat="45.22614" lon="3.94038">
        <ele>850.9</ele>
        <time>2024-11-24T09:03:50Z</time>
      </trkpt>
      <trkpt lat="45.22609" lon="3.94037">
        <ele>851.38</ele>
        <time>2024-11-24T09:03:55Z</time>
      </trkpt>
      <trkpt lat="45.22591" lon="3.94034">
        <ele>851.87</ele>
        <time>2024-11-24T09:04:12Z</time>
      </trkpt>
      <trkpt lat="45.22572" lon="3.94031">
        <ele>853.31</ele>
        <time>2024-11-24T09:04:29Z</time>
      </trkpt>
      <trkpt lat="45.2255" lon="3.94027">
        <ele>853.79</ele>
        <time>2024-11-24T09:04:45Z</time>
      </trkpt>
      <trkpt lat="45.22528" lon="3.94021">
        <ele>855.71</ele>
        <time>2024-11-24T09:05:04Z</time>
      </trkpt>
      <trkpt lat="45.22516" lon="3.94018">
        <ele>857.15</ele>
        <time>2024-11-24T09:05:14Z</time>
      </trkpt>
      <trkpt lat="45.22494" lon="3.9401">
        <ele>860.04</ele>
        <time>2024-11-24T09:05:34Z</time>
      </trkpt>
      <trkpt lat="45.22477" lon="3.94">
        <ele>861</ele>
        <time>2024-11-24T09:05:49Z</time>
      </trkpt>
      <trkpt lat="45.22457" lon="3.9399">
        <ele>863.4</ele>
        <time>2024-11-24T09:06:08Z</time>
      </trkpt>
      <trkpt lat="45.2244" lon="3.93982">
        <ele>865.8</ele>
        <time>2024-11-24T09:06:24Z</time>
      </trkpt>
      <trkpt lat="45.22421" lon="3.93971">
        <ele>867.25</ele>
        <time>2024-11-24T09:06:41Z</time>
      </trkpt>
      <trkpt lat="45.22404" lon="3.93964">
        <ele>868.21</ele>
        <time>2024-11-24T09:06:57Z</time>
      </trkpt>
      <trkpt lat="45.22398" lon="3.9396">
        <ele>869.17</ele>
        <time>2024-11-24T09:07:04Z</time>
      </trkpt>
      <trkpt lat="45.2238" lon="3.93953">
        <ele>871.09</ele>
        <time>2024-11-24T09:07:21Z</time>
      </trkpt>
      <trkpt lat="45.22362" lon="3.93946">
        <ele>873.98</ele>
        <time>2024-11-24T09:07:38Z</time>
      </trkpt>
      <trkpt lat="45.22341" lon="3.93942">
        <ele>875.42</ele>
        <time>2024-11-24T09:07:56Z</time>
      </trkpt>
      <trkpt lat="45.22322" lon="3.93941">
        <ele>878.3</ele>
        <time>2024-11-24T09:08:12Z</time>
      </trkpt>
      <trkpt lat="45.22304" lon="3.93941">
        <ele>880.71</ele>
        <time>2024-11-24T09:08:28Z</time>
      </trkpt>
      <trkpt lat="45.2229" lon="3.93943">
        <ele>882.63</ele>
        <time>2024-11-24T09:08:40Z</time>
      </trkpt>
      <trkpt lat="45.22271" lon="3.93951">
        <ele>884.55</ele>
        <time>2024-11-24T09:08:57Z</time>
      </trkpt>
      <trkpt lat="45.22257" lon="3.93958">
        <ele>886.95</ele>
        <time>2024-11-24T09:09:11Z</time>
      </trkpt>
      <trkpt lat="45.22253" lon="3.93962">
        <ele>886.47</ele>
        <time>2024-11-24T09:09:18Z</time>
      </trkpt>
      <trkpt lat="45.22246" lon="3.93974">
        <ele>886.95</ele>
        <time>2024-11-24T09:09:31Z</time>
      </trkpt>
      <trkpt lat="45.2223" lon="3.93975">
        <ele>886.95</ele>
        <time>2024-11-24T09:09:45Z</time>
      </trkpt>
      <trkpt lat="45.22207" lon="3.93975">
        <ele>888.88</ele>
        <time>2024-11-24T09:10:04Z</time>
      </trkpt>
      <trkpt lat="45.22192" lon="3.93977">
        <ele>890.32</ele>
        <time>2024-11-24T09:10:18Z</time>
      </trkpt>
      <trkpt lat="45.22189" lon="3.93977">
        <ele>891.28</ele>
        <time>2024-11-24T09:10:21Z</time>
      </trkpt>
      <trkpt lat="45.22182" lon="3.93982">
        <ele>891.28</ele>
        <time>2024-11-24T09:10:27Z</time>
      </trkpt>
      <trkpt lat="45.22179" lon="3.93985">
        <ele>891.28</ele>
        <time>2024-11-24T09:10:30Z</time>
      </trkpt>
      <trkpt lat="45.22168" lon="3.94011">
        <ele>895.12</ele>
        <time>2024-11-24T09:10:48Z</time>
      </trkpt>
      <trkpt lat="45.22161" lon="3.94034">
        <ele>896.57</ele>
        <time>2024-11-24T09:11:02Z</time>
      </trkpt>
      <trkpt lat="45.22155" lon="3.94067">
        <ele>895.61</ele>
        <time>2024-11-24T09:11:20Z</time>
      </trkpt>
      <trkpt lat="45.22156" lon="3.94098">
        <ele>895.61</ele>
        <time>2024-11-24T09:11:38Z</time>
      </trkpt>
      <trkpt lat="45.22159" lon="3.94115">
        <ele>897.53</ele>
        <time>2024-11-24T09:11:49Z</time>
      </trkpt>
      <trkpt lat="45.22158" lon="3.9412">
        <ele>897.53</ele>
        <time>2024-11-24T09:11:53Z</time>
      </trkpt>
      <trkpt lat="45.22164" lon="3.94147">
        <ele>898.49</ele>
        <time>2024-11-24T09:12:09Z</time>
      </trkpt>
      <trkpt lat="45.22158" lon="3.94168">
        <ele>903.3</ele>
        <time>2024-11-24T09:12:23Z</time>
      </trkpt>
      <trkpt lat="45.22151" lon="3.94185">
        <ele>903.78</ele>
        <time>2024-11-24T09:12:35Z</time>
      </trkpt>
      <trkpt lat="45.22148" lon="3.94194">
        <ele>904.26</ele>
        <time>2024-11-24T09:12:47Z</time>
      </trkpt>
      <trkpt lat="45.22147" lon="3.94205">
        <ele>905.7</ele>
        <time>2024-11-24T09:12:59Z</time>
      </trkpt>
      <trkpt lat="45.22148" lon="3.9421">
        <ele>906.18</ele>
        <time>2024-11-24T09:13:03Z</time>
      </trkpt>
      <trkpt lat="45.22145" lon="3.94222">
        <ele>907.14</ele>
        <time>2024-11-24T09:13:18Z</time>
      </trkpt>
      <trkpt lat="45.22148" lon="3.94225">
        <ele>907.62</ele>
        <time>2024-11-24T09:13:26Z</time>
      </trkpt>
      <trkpt lat="45.22152" lon="3.94226">
        <ele>908.58</ele>
        <time>2024-11-24T09:13:30Z</time>
      </trkpt>
      <trkpt lat="45.2216" lon="3.94235">
        <ele>912.43</ele>
        <time>2024-11-24T09:13:43Z</time>
      </trkpt>
      <trkpt lat="45.22165" lon="3.94235">
        <ele>915.31</ele>
        <time>2024-11-24T09:13:55Z</time>
      </trkpt>
      <trkpt lat="45.22165" lon="3.94238">
        <ele>916.75</ele>
        <time>2024-11-24T09:14:07Z</time>
      </trkpt>
      <trkpt lat="45.22168" lon="3.94245">
        <ele>918.68</ele>
        <time>2024-11-24T09:14:19Z</time>
      </trkpt>
      <trkpt lat="45.22169" lon="3.94248">
        <ele>921.56</ele>
        <time>2024-11-24T09:14:32Z</time>
      </trkpt>
      <trkpt lat="45.22172" lon="3.94249">
        <ele>923</ele>
        <time>2024-11-24T09:14:48Z</time>
      </trkpt>
      <trkpt lat="45.2217" lon="3.94258">
        <ele>925.41</ele>
        <time>2024-11-24T09:14:59Z</time>
      </trkpt>
      <trkpt lat="45.22173" lon="3.94261">
        <ele>927.81</ele>
        <time>2024-11-24T09:15:11Z</time>
      </trkpt>
      <trkpt lat="45.22175" lon="3.94262">
        <ele>929.25</ele>
        <time>2024-11-24T09:15:21Z</time>
      </trkpt>
      <trkpt lat="45.22178" lon="3.94263">
        <ele>929.25</ele>
        <time>2024-11-24T09:15:33Z</time>
      </trkpt>
      <trkpt lat="45.22183" lon="3.94265">
        <ele>931.17</ele>
        <time>2024-11-24T09:15:46Z</time>
      </trkpt>
      <trkpt lat="45.22186" lon="3.94269">
        <ele>934.06</ele>
        <time>2024-11-24T09:15:59Z</time>
      </trkpt>
      <trkpt lat="45.2219" lon="3.94269">
        <ele>935.98</ele>
        <time>2024-11-24T09:16:11Z</time>
      </trkpt>
      <trkpt lat="45.22191" lon="3.94271">
        <ele>935.02</ele>
        <time>2024-11-24T09:16:29Z</time>
      </trkpt>
      <trkpt lat="45.22193" lon="3.94274">
        <ele>935.5</ele>
        <time>2024-11-24T09:16:33Z</time>
      </trkpt>
      <trkpt lat="45.22195" lon="3.94276">
        <ele>935.02</ele>
        <time>2024-11-24T09:16:44Z</time>
      </trkpt>
      <trkpt lat="45.22198" lon="3.94276">
        <ele>936.94</ele>
        <time>2024-11-24T09:16:57Z</time>
      </trkpt>
      <trkpt lat="45.22198" lon="3.94276">
        <ele>935.98</ele>
        <time>2024-11-24T09:17:10Z</time>
      </trkpt>
      <trkpt lat="45.22197" lon="3.94278">
        <ele>935.98</ele>
        <time>2024-11-24T09:17:25Z</time>
      </trkpt>
      <trkpt lat="45.22198" lon="3.94277">
        <ele>935.98</ele>
        <time>2024-11-24T09:17:38Z</time>
      </trkpt>
      <trkpt lat="45.22197" lon="3.94275">
        <ele>936.94</ele>
        <time>2024-11-24T09:17:58Z</time>
      </trkpt>
      <trkpt lat="45.22196" lon="3.94275">
        <ele>937.42</ele>
        <time>2024-11-24T09:18:13Z</time>
      </trkpt>
      <trkpt lat="45.22194" lon="3.94275">
        <ele>939.83</ele>
        <time>2024-11-24T09:18:33Z</time>
      </trkpt>
      <trkpt lat="45.22195" lon="3.94272">
        <ele>942.71</ele>
        <time>2024-11-24T09:18:59Z</time>
      </trkpt>
      <trkpt lat="45.22196" lon="3.94273">
        <ele>944.15</ele>
        <time>2024-11-24T09:19:14Z</time>
      </trkpt>
      <trkpt lat="45.22196" lon="3.94274">
        <ele>944.63</ele>
        <time>2024-11-24T09:19:31Z</time>
      </trkpt>
      <trkpt lat="45.22197" lon="3.94273">
        <ele>944.15</ele>
        <time>2024-11-24T09:19:47Z</time>
      </trkpt>
      <trkpt lat="45.22194" lon="3.94276">
        <ele>943.19</ele>
        <time>2024-11-24T09:20:00Z</time>
      </trkpt>
      <trkpt lat="45.22192" lon="3.94272">
        <ele>943.67</ele>
        <time>2024-11-24T09:20:13Z</time>
      </trkpt>
      <trkpt lat="45.2219" lon="3.94268">
        <ele>941.75</ele>
        <time>2024-11-24T09:20:22Z</time>
      </trkpt>
      <trkpt lat="45.22184" lon="3.94269">
        <ele>940.31</ele>
        <time>2024-11-24T09:20:35Z</time>
      </trkpt>
      <trkpt lat="45.2218" lon="3.94277">
        <ele>937.9</ele>
        <time>2024-11-24T09:20:47Z</time>
      </trkpt>
      <trkpt lat="45.2218" lon="3.94283">
        <ele>936.46</ele>
        <time>2024-11-24T09:20:54Z</time>
      </trkpt>
      <trkpt lat="45.22181" lon="3.9429">
        <ele>937.9</ele>
        <time>2024-11-24T09:21:05Z</time>
      </trkpt>
      <trkpt lat="45.2218" lon="3.94291">
        <ele>938.38</ele>
        <time>2024-11-24T09:21:06Z</time>
      </trkpt>
      <trkpt lat="45.22179" lon="3.94293">
        <ele>938.38</ele>
        <time>2024-11-24T09:21:08Z</time>
      </trkpt>
      <trkpt lat="45.22179" lon="3.94296">
        <ele>938.38</ele>
        <time>2024-11-24T09:21:10Z</time>
      </trkpt>
      <trkpt lat="45.22186" lon="3.94307">
        <ele>939.35</ele>
        <time>2024-11-24T09:21:25Z</time>
      </trkpt>
      <trkpt lat="45.22187" lon="3.94313">
        <ele>941.75</ele>
        <time>2024-11-24T09:21:35Z</time>
      </trkpt>
      <trkpt lat="45.22187" lon="3.94314">
        <ele>941.27</ele>
        <time>2024-11-24T09:21:49Z</time>
      </trkpt>
      <trkpt lat="45.22188" lon="3.94315">
        <ele>940.31</ele>
        <time>2024-11-24T09:22:03Z</time>
      </trkpt>
      <trkpt lat="45.22187" lon="3.94315">
        <ele>939.83</ele>
        <time>2024-11-24T09:22:23Z</time>
      </trkpt>
      <trkpt lat="45.22187" lon="3.94314">
        <ele>938.38</ele>
        <time>2024-11-24T09:22:40Z</time>
      </trkpt>
      <trkpt lat="45.22187" lon="3.94315">
        <ele>938.86</ele>
        <time>2024-11-24T09:22:50Z</time>
      </trkpt>
      <trkpt lat="45.22187" lon="3.94315">
        <ele>938.86</ele>
        <time>2024-11-24T09:23:00Z</time>
      </trkpt>
      <trkpt lat="45.22186" lon="3.94315">
        <ele>936.94</ele>
        <time>2024-11-24T09:23:30Z</time>
      </trkpt>
      <trkpt lat="45.22186" lon="3.94316">
        <ele>936.46</ele>
        <time>2024-11-24T09:23:53Z</time>
      </trkpt>
      <trkpt lat="45.22186" lon="3.94315">
        <ele>935.5</ele>
        <time>2024-11-24T09:24:14Z</time>
      </trkpt>
      <trkpt lat="45.22185" lon="3.94316">
        <ele>932.14</ele>
        <time>2024-11-24T09:24:37Z</time>
      </trkpt>
      <trkpt lat="45.22185" lon="3.94317">
        <ele>931.65</ele>
        <time>2024-11-24T09:25:01Z</time>
      </trkpt>
      <trkpt lat="45.22186" lon="3.94316">
        <ele>931.65</ele>
        <time>2024-11-24T09:25:19Z</time>
      </trkpt>
      <trkpt lat="45.22187" lon="3.94315">
        <ele>932.62</ele>
        <time>2024-11-24T09:25:35Z</time>
      </trkpt>
      <trkpt lat="45.22186" lon="3.94315">
        <ele>932.14</ele>
        <time>2024-11-24T09:25:51Z</time>
      </trkpt>
      <trkpt lat="45.22187" lon="3.94314">
        <ele>933.1</ele>
        <time>2024-11-24T09:26:05Z</time>
      </trkpt>
      <trkpt lat="45.22187" lon="3.94315">
        <ele>933.1</ele>
        <time>2024-11-24T09:26:21Z</time>
      </trkpt>
      <trkpt lat="45.22188" lon="3.94315">
        <ele>934.06</ele>
        <time>2024-11-24T09:26:40Z</time>
      </trkpt>
      <trkpt lat="45.2219" lon="3.9431">
        <ele>932.14</ele>
        <time>2024-11-24T09:26:48Z</time>
      </trkpt>
      <trkpt lat="45.22187" lon="3.94308">
        <ele>932.62</ele>
        <time>2024-11-24T09:26:52Z</time>
      </trkpt>
      <trkpt lat="45.22183" lon="3.9431">
        <ele>932.14</ele>
        <time>2024-11-24T09:26:57Z</time>
      </trkpt>
      <trkpt lat="45.2218" lon="3.94311">
        <ele>932.14</ele>
        <time>2024-11-24T09:27:02Z</time>
      </trkpt>
      <trkpt lat="45.22179" lon="3.94307">
        <ele>932.62</ele>
        <time>2024-11-24T09:27:05Z</time>
      </trkpt>
      <trkpt lat="45.2218" lon="3.94293">
        <ele>932.14</ele>
        <time>2024-11-24T09:27:17Z</time>
      </trkpt>
      <trkpt lat="45.22177" lon="3.94288">
        <ele>932.14</ele>
        <time>2024-11-24T09:27:28Z</time>
      </trkpt>
      <trkpt lat="45.22174" lon="3.94285">
        <ele>930.21</ele>
        <time>2024-11-24T09:27:39Z</time>
      </trkpt>
      <trkpt lat="45.22169" lon="3.94282">
        <ele>928.29</ele>
        <time>2024-11-24T09:27:50Z</time>
      </trkpt>
      <trkpt lat="45.22167" lon="3.94277">
        <ele>927.81</ele>
        <time>2024-11-24T09:27:55Z</time>
      </trkpt>
      <trkpt lat="45.22165" lon="3.94261">
        <ele>927.33</ele>
        <time>2024-11-24T09:28:09Z</time>
      </trkpt>
      <trkpt lat="45.22168" lon="3.94251">
        <ele>925.41</ele>
        <time>2024-11-24T09:28:20Z</time>
      </trkpt>
      <trkpt lat="45.2217" lon="3.94246">
        <ele>925.41</ele>
        <time>2024-11-24T09:28:32Z</time>
      </trkpt>
      <trkpt lat="45.22168" lon="3.94242">
        <ele>924.45</ele>
        <time>2024-11-24T09:28:44Z</time>
      </trkpt>
      <trkpt lat="45.22164" lon="3.94236">
        <ele>920.6</ele>
        <time>2024-11-24T09:28:54Z</time>
      </trkpt>
      <trkpt lat="45.22157" lon="3.94232">
        <ele>920.12</ele>
        <time>2024-11-24T09:29:07Z</time>
      </trkpt>
      <trkpt lat="45.22156" lon="3.94231">
        <ele>919.64</ele>
        <time>2024-11-24T09:29:09Z</time>
      </trkpt>
      <trkpt lat="45.22147" lon="3.94228">
        <ele>917.72</ele>
        <time>2024-11-24T09:29:22Z</time>
      </trkpt>
      <trkpt lat="45.22146" lon="3.94227">
        <ele>917.72</ele>
        <time>2024-11-24T09:29:24Z</time>
      </trkpt>
      <trkpt lat="45.22144" lon="3.94224">
        <ele>914.83</ele>
        <time>2024-11-24T09:29:35Z</time>
      </trkpt>
      <trkpt lat="45.22143" lon="3.94225">
        <ele>914.83</ele>
        <time>2024-11-24T09:29:38Z</time>
      </trkpt>
      <trkpt lat="45.22142" lon="3.94227">
        <ele>914.83</ele>
        <time>2024-11-24T09:29:43Z</time>
      </trkpt>
      <trkpt lat="45.22144" lon="3.94221">
        <ele>915.31</ele>
        <time>2024-11-24T09:29:48Z</time>
      </trkpt>
      <trkpt lat="45.2214" lon="3.94207">
        <ele>915.79</ele>
        <time>2024-11-24T09:30:06Z</time>
      </trkpt>
      <trkpt lat="45.22139" lon="3.94207">
        <ele>915.79</ele>
        <time>2024-11-24T09:30:09Z</time>
      </trkpt>
      <trkpt lat="45.22131" lon="3.9421">
        <ele>911.95</ele>
        <time>2024-11-24T09:30:23Z</time>
      </trkpt>
      <trkpt lat="45.22129" lon="3.94214">
        <ele>910.51</ele>
        <time>2024-11-24T09:30:35Z</time>
      </trkpt>
      <trkpt lat="45.22125" lon="3.94224">
        <ele>910.03</ele>
        <time>2024-11-24T09:30:44Z</time>
      </trkpt>
      <trkpt lat="45.22122" lon="3.9423">
        <ele>909.06</ele>
        <time>2024-11-24T09:30:48Z</time>
      </trkpt>
      <trkpt lat="45.22119" lon="3.94255">
        <ele>908.1</ele>
        <time>2024-11-24T09:31:04Z</time>
      </trkpt>
      <trkpt lat="45.22123" lon="3.94275">
        <ele>906.66</ele>
        <time>2024-11-24T09:31:19Z</time>
      </trkpt>
      <trkpt lat="45.22127" lon="3.943">
        <ele>910.51</ele>
        <time>2024-11-24T09:31:34Z</time>
      </trkpt>
      <trkpt lat="45.2213" lon="3.94316">
        <ele>910.51</ele>
        <time>2024-11-24T09:31:46Z</time>
      </trkpt>
      <trkpt lat="45.2213" lon="3.9432">
        <ele>910.51</ele>
        <time>2024-11-24T09:31:48Z</time>
      </trkpt>
      <trkpt lat="45.22134" lon="3.94353">
        <ele>910.03</ele>
        <time>2024-11-24T09:32:12Z</time>
      </trkpt>
      <trkpt lat="45.22136" lon="3.94356">
        <ele>909.54</ele>
        <time>2024-11-24T09:32:15Z</time>
      </trkpt>
      <trkpt lat="45.22146" lon="3.94372">
        <ele>905.7</ele>
        <time>2024-11-24T09:32:30Z</time>
      </trkpt>
      <trkpt lat="45.2215" lon="3.94376">
        <ele>904.26</ele>
        <time>2024-11-24T09:32:34Z</time>
      </trkpt>
      <trkpt lat="45.22153" lon="3.94382">
        <ele>902.82</ele>
        <time>2024-11-24T09:32:40Z</time>
      </trkpt>
      <trkpt lat="45.22164" lon="3.9439">
        <ele>900.41</ele>
        <time>2024-11-24T09:32:52Z</time>
      </trkpt>
      <trkpt lat="45.22169" lon="3.94392">
        <ele>901.37</ele>
        <time>2024-11-24T09:32:59Z</time>
      </trkpt>
      <trkpt lat="45.2218" lon="3.94398">
        <ele>904.74</ele>
        <time>2024-11-24T09:33:12Z</time>
      </trkpt>
      <trkpt lat="45.22189" lon="3.94403">
        <ele>908.1</ele>
        <time>2024-11-24T09:33:22Z</time>
      </trkpt>
      <trkpt lat="45.22194" lon="3.94411">
        <ele>908.58</ele>
        <time>2024-11-24T09:33:32Z</time>
      </trkpt>
      <trkpt lat="45.22199" lon="3.94411">
        <ele>906.66</ele>
        <time>2024-11-24T09:33:37Z</time>
      </trkpt>
      <trkpt lat="45.22207" lon="3.94412">
        <ele>906.18</ele>
        <time>2024-11-24T09:33:44Z</time>
      </trkpt>
      <trkpt lat="45.22208" lon="3.94415">
        <ele>905.7</ele>
        <time>2024-11-24T09:33:47Z</time>
      </trkpt>
      <trkpt lat="45.22215" lon="3.94433">
        <ele>892.72</ele>
        <time>2024-11-24T09:34:03Z</time>
      </trkpt>
      <trkpt lat="45.22217" lon="3.94433">
        <ele>889.36</ele>
        <time>2024-11-24T09:34:15Z</time>
      </trkpt>
      <trkpt lat="45.22216" lon="3.94433">
        <ele>888.4</ele>
        <time>2024-11-24T09:34:29Z</time>
      </trkpt>
      <trkpt lat="45.22214" lon="3.94432">
        <ele>888.4</ele>
        <time>2024-11-24T09:34:48Z</time>
      </trkpt>
      <trkpt lat="45.22216" lon="3.94431">
        <ele>886.95</ele>
        <time>2024-11-24T09:35:00Z</time>
      </trkpt>
      <trkpt lat="45.22216" lon="3.94432">
        <ele>884.55</ele>
        <time>2024-11-24T09:35:10Z</time>
      </trkpt>
      <trkpt lat="45.22218" lon="3.94435">
        <ele>881.67</ele>
        <time>2024-11-24T09:35:20Z</time>
      </trkpt>
      <trkpt lat="45.22216" lon="3.94435">
        <ele>879.74</ele>
        <time>2024-11-24T09:35:34Z</time>
      </trkpt>
      <trkpt lat="45.22213" lon="3.94441">
        <ele>880.22</ele>
        <time>2024-11-24T09:35:44Z</time>
      </trkpt>
      <trkpt lat="45.22207" lon="3.94456">
        <ele>880.71</ele>
        <time>2024-11-24T09:35:58Z</time>
      </trkpt>
      <trkpt lat="45.22205" lon="3.94473">
        <ele>881.19</ele>
        <time>2024-11-24T09:36:12Z</time>
      </trkpt>
      <trkpt lat="45.22201" lon="3.94483">
        <ele>882.63</ele>
        <time>2024-11-24T09:36:18Z</time>
      </trkpt>
      <trkpt lat="45.22188" lon="3.94487">
        <ele>881.67</ele>
        <time>2024-11-24T09:36:28Z</time>
      </trkpt>
      <trkpt lat="45.22183" lon="3.94501">
        <ele>878.3</ele>
        <time>2024-11-24T09:36:38Z</time>
      </trkpt>
      <trkpt lat="45.22183" lon="3.94526">
        <ele>875.42</ele>
        <time>2024-11-24T09:36:53Z</time>
      </trkpt>
      <trkpt lat="45.22182" lon="3.94543">
        <ele>872.53</ele>
        <time>2024-11-24T09:37:08Z</time>
      </trkpt>
      <trkpt lat="45.22182" lon="3.94546">
        <ele>872.05</ele>
        <time>2024-11-24T09:37:10Z</time>
      </trkpt>
      <trkpt lat="45.22185" lon="3.94557">
        <ele>867.73</ele>
        <time>2024-11-24T09:37:26Z</time>
      </trkpt>
      <trkpt lat="45.22191" lon="3.94568">
        <ele>863.88</ele>
        <time>2024-11-24T09:37:40Z</time>
      </trkpt>
      <trkpt lat="45.22193" lon="3.9458">
        <ele>861.96</ele>
        <time>2024-11-24T09:37:50Z</time>
      </trkpt>
      <trkpt lat="45.22197" lon="3.94596">
        <ele>860.52</ele>
        <time>2024-11-24T09:38:04Z</time>
      </trkpt>
      <trkpt lat="45.22199" lon="3.946">
        <ele>860.04</ele>
        <time>2024-11-24T09:38:07Z</time>
      </trkpt>
      <trkpt lat="45.22204" lon="3.94612">
        <ele>860.04</ele>
        <time>2024-11-24T09:38:15Z</time>
      </trkpt>
      <trkpt lat="45.22211" lon="3.94629">
        <ele>856.67</ele>
        <time>2024-11-24T09:38:29Z</time>
      </trkpt>
      <trkpt lat="45.22215" lon="3.94644">
        <ele>855.23</ele>
        <time>2024-11-24T09:38:41Z</time>
      </trkpt>
      <trkpt lat="45.22219" lon="3.94654">
        <ele>854.75</ele>
        <time>2024-11-24T09:38:49Z</time>
      </trkpt>
      <trkpt lat="45.22232" lon="3.94669">
        <ele>854.75</ele>
        <time>2024-11-24T09:39:05Z</time>
      </trkpt>
      <trkpt lat="45.22243" lon="3.94684">
        <ele>854.75</ele>
        <time>2024-11-24T09:39:19Z</time>
      </trkpt>
      <trkpt lat="45.22254" lon="3.94693">
        <ele>854.27</ele>
        <time>2024-11-24T09:39:33Z</time>
      </trkpt>
      <trkpt lat="45.22261" lon="3.94699">
        <ele>854.75</ele>
        <time>2024-11-24T09:39:40Z</time>
      </trkpt>
      <trkpt lat="45.22282" lon="3.94714">
        <ele>854.27</ele>
        <time>2024-11-24T09:39:58Z</time>
      </trkpt>
      <trkpt lat="45.22294" lon="3.94724">
        <ele>852.83</ele>
        <time>2024-11-24T09:40:11Z</time>
      </trkpt>
      <trkpt lat="45.22308" lon="3.94735">
        <ele>850.42</ele>
        <time>2024-11-24T09:40:25Z</time>
      </trkpt>
      <trkpt lat="45.22327" lon="3.94741">
        <ele>848.98</ele>
        <time>2024-11-24T09:40:41Z</time>
      </trkpt>
      <trkpt lat="45.22346" lon="3.94749">
        <ele>846.58</ele>
        <time>2024-11-24T09:40:59Z</time>
      </trkpt>
      <trkpt lat="45.22362" lon="3.9476">
        <ele>845.14</ele>
        <time>2024-11-24T09:41:14Z</time>
      </trkpt>
      <trkpt lat="45.22374" lon="3.94773">
        <ele>845.14</ele>
        <time>2024-11-24T09:41:26Z</time>
      </trkpt>
      <trkpt lat="45.22376" lon="3.94773">
        <ele>845.14</ele>
        <time>2024-11-24T09:41:28Z</time>
      </trkpt>
      <trkpt lat="45.22393" lon="3.94772">
        <ele>845.62</ele>
        <time>2024-11-24T09:41:42Z</time>
      </trkpt>
      <trkpt lat="45.22415" lon="3.94772">
        <ele>844.66</ele>
        <time>2024-11-24T09:42:00Z</time>
      </trkpt>
      <trkpt lat="45.22436" lon="3.9478">
        <ele>842.25</ele>
        <time>2024-11-24T09:42:18Z</time>
      </trkpt>
      <trkpt lat="45.22451" lon="3.94797">
        <ele>841.29</ele>
        <time>2024-11-24T09:42:34Z</time>
      </trkpt>
      <trkpt lat="45.22468" lon="3.94821">
        <ele>840.81</ele>
        <time>2024-11-24T09:42:52Z</time>
      </trkpt>
      <trkpt lat="45.22485" lon="3.94843">
        <ele>840.33</ele>
        <time>2024-11-24T09:43:08Z</time>
      </trkpt>
      <trkpt lat="45.22499" lon="3.94861">
        <ele>841.29</ele>
        <time>2024-11-24T09:43:29Z</time>
      </trkpt>
      <trkpt lat="45.22501" lon="3.94867">
        <ele>838.89</ele>
        <time>2024-11-24T09:43:32Z</time>
      </trkpt>
      <trkpt lat="45.22504" lon="3.94879">
        <ele>836.96</ele>
        <time>2024-11-24T09:43:41Z</time>
      </trkpt>
      <trkpt lat="45.22524" lon="3.94896">
        <ele>839.37</ele>
        <time>2024-11-24T09:44:00Z</time>
      </trkpt>
      <trkpt lat="45.22525" lon="3.94903">
        <ele>841.29</ele>
        <time>2024-11-24T09:44:08Z</time>
      </trkpt>
      <trkpt lat="45.22518" lon="3.94918">
        <ele>844.18</ele>
        <time>2024-11-24T09:44:21Z</time>
      </trkpt>
      <trkpt lat="45.22512" lon="3.94927">
        <ele>846.58</ele>
        <time>2024-11-24T09:44:34Z</time>
      </trkpt>
      <trkpt lat="45.22505" lon="3.94935">
        <ele>844.66</ele>
        <time>2024-11-24T09:44:50Z</time>
      </trkpt>
      <trkpt lat="45.22501" lon="3.94938">
        <ele>842.73</ele>
        <time>2024-11-24T09:45:00Z</time>
      </trkpt>
      <trkpt lat="45.22496" lon="3.9494">
        <ele>842.73</ele>
        <time>2024-11-24T09:45:04Z</time>
      </trkpt>
      <trkpt lat="45.22481" lon="3.94943">
        <ele>844.18</ele>
        <time>2024-11-24T09:45:19Z</time>
      </trkpt>
      <trkpt lat="45.22467" lon="3.94949">
        <ele>845.62</ele>
        <time>2024-11-24T09:45:35Z</time>
      </trkpt>
      <trkpt lat="45.22463" lon="3.9495">
        <ele>843.21</ele>
        <time>2024-11-24T09:45:47Z</time>
      </trkpt>
      <trkpt lat="45.22462" lon="3.9495">
        <ele>843.21</ele>
        <time>2024-11-24T09:45:50Z</time>
      </trkpt>
      <trkpt lat="45.22447" lon="3.94956">
        <ele>845.62</ele>
        <time>2024-11-24T09:46:06Z</time>
      </trkpt>
      <trkpt lat="45.22429" lon="3.94961">
        <ele>846.1</ele>
        <time>2024-11-24T09:46:21Z</time>
      </trkpt>
      <trkpt lat="45.22406" lon="3.94974">
        <ele>847.06</ele>
        <time>2024-11-24T09:46:40Z</time>
      </trkpt>
      <trkpt lat="45.22386" lon="3.9499">
        <ele>848.5</ele>
        <time>2024-11-24T09:46:57Z</time>
      </trkpt>
      <trkpt lat="45.22368" lon="3.95008">
        <ele>849.94</ele>
        <time>2024-11-24T09:47:14Z</time>
      </trkpt>
      <trkpt lat="45.22349" lon="3.95024">
        <ele>848.5</ele>
        <time>2024-11-24T09:47:32Z</time>
      </trkpt>
      <trkpt lat="45.22331" lon="3.95036">
        <ele>847.06</ele>
        <time>2024-11-24T09:47:48Z</time>
      </trkpt>
      <trkpt lat="45.22312" lon="3.95044">
        <ele>848.5</ele>
        <time>2024-11-24T09:48:04Z</time>
      </trkpt>
      <trkpt lat="45.223" lon="3.95048">
        <ele>846.58</ele>
        <time>2024-11-24T09:48:18Z</time>
      </trkpt>
      <trkpt lat="45.22307" lon="3.95057">
        <ele>847.54</ele>
        <time>2024-11-24T09:48:35Z</time>
      </trkpt>
      <trkpt lat="45.2231" lon="3.9506">
        <ele>848.02</ele>
        <time>2024-11-24T09:48:40Z</time>
      </trkpt>
      <trkpt lat="45.22325" lon="3.95074">
        <ele>851.87</ele>
        <time>2024-11-24T09:48:58Z</time>
      </trkpt>
      <trkpt lat="45.22338" lon="3.95081">
        <ele>853.79</ele>
        <time>2024-11-24T09:49:12Z</time>
      </trkpt>
      <trkpt lat="45.22351" lon="3.95088">
        <ele>856.19</ele>
        <time>2024-11-24T09:49:26Z</time>
      </trkpt>
      <trkpt lat="45.22364" lon="3.95098">
        <ele>860.04</ele>
        <time>2024-11-24T09:49:39Z</time>
      </trkpt>
      <trkpt lat="45.22378" lon="3.95107">
        <ele>861.48</ele>
        <time>2024-11-24T09:49:53Z</time>
      </trkpt>
      <trkpt lat="45.22395" lon="3.95119">
        <ele>862.92</ele>
        <time>2024-11-24T09:50:08Z</time>
      </trkpt>
      <trkpt lat="45.22412" lon="3.95123">
        <ele>861.48</ele>
        <time>2024-11-24T09:50:22Z</time>
      </trkpt>
      <trkpt lat="45.22424" lon="3.95135">
        <ele>861.48</ele>
        <time>2024-11-24T09:50:37Z</time>
      </trkpt>
      <trkpt lat="45.22438" lon="3.95144">
        <ele>860.04</ele>
        <time>2024-11-24T09:50:50Z</time>
      </trkpt>
      <trkpt lat="45.22452" lon="3.95166">
        <ele>859.56</ele>
        <time>2024-11-24T09:51:08Z</time>
      </trkpt>
      <trkpt lat="45.22462" lon="3.95188">
        <ele>858.59</ele>
        <time>2024-11-24T09:51:23Z</time>
      </trkpt>
      <trkpt lat="45.22474" lon="3.95211">
        <ele>859.08</ele>
        <time>2024-11-24T09:51:40Z</time>
      </trkpt>
      <trkpt lat="45.22486" lon="3.95232">
        <ele>861</ele>
        <time>2024-11-24T09:51:54Z</time>
      </trkpt>
      <trkpt lat="45.22497" lon="3.95248">
        <ele>862.44</ele>
        <time>2024-11-24T09:52:08Z</time>
      </trkpt>
      <trkpt lat="45.22514" lon="3.95269">
        <ele>863.4</ele>
        <time>2024-11-24T09:52:25Z</time>
      </trkpt>
      <trkpt lat="45.22527" lon="3.95287">
        <ele>866.29</ele>
        <time>2024-11-24T09:52:40Z</time>
      </trkpt>
      <trkpt lat="45.22539" lon="3.95302">
        <ele>865.8</ele>
        <time>2024-11-24T09:52:55Z</time>
      </trkpt>
      <trkpt lat="45.22551" lon="3.95322">
        <ele>864.84</ele>
        <time>2024-11-24T09:53:11Z</time>
      </trkpt>
      <trkpt lat="45.22559" lon="3.95335">
        <ele>864.36</ele>
        <time>2024-11-24T09:53:21Z</time>
      </trkpt>
      <trkpt lat="45.22572" lon="3.95364">
        <ele>867.25</ele>
        <time>2024-11-24T09:53:40Z</time>
      </trkpt>
      <trkpt lat="45.22579" lon="3.9539">
        <ele>867.73</ele>
        <time>2024-11-24T09:53:55Z</time>
      </trkpt>
      <trkpt lat="45.22583" lon="3.95411">
        <ele>871.09</ele>
        <time>2024-11-24T09:54:09Z</time>
      </trkpt>
      <trkpt lat="45.22586" lon="3.9543">
        <ele>872.53</ele>
        <time>2024-11-24T09:54:22Z</time>
      </trkpt>
      <trkpt lat="45.22583" lon="3.95461">
        <ele>874.94</ele>
        <time>2024-11-24T09:54:38Z</time>
      </trkpt>
      <trkpt lat="45.2258" lon="3.95466">
        <ele>874.94</ele>
        <time>2024-11-24T09:54:42Z</time>
      </trkpt>
      <trkpt lat="45.22572" lon="3.95485">
        <ele>878.78</ele>
        <time>2024-11-24T09:54:59Z</time>
      </trkpt>
      <trkpt lat="45.22566" lon="3.9551">
        <ele>880.22</ele>
        <time>2024-11-24T09:55:15Z</time>
      </trkpt>
      <trkpt lat="45.22561" lon="3.95535">
        <ele>881.19</ele>
        <time>2024-11-24T09:55:30Z</time>
      </trkpt>
      <trkpt lat="45.22558" lon="3.95557">
        <ele>881.19</ele>
        <time>2024-11-24T09:55:44Z</time>
      </trkpt>
      <trkpt lat="45.22557" lon="3.95573">
        <ele>881.67</ele>
        <time>2024-11-24T09:55:54Z</time>
      </trkpt>
      <trkpt lat="45.22557" lon="3.95579">
        <ele>881.19</ele>
        <time>2024-11-24T09:55:58Z</time>
      </trkpt>
      <trkpt lat="45.22559" lon="3.95588">
        <ele>881.19</ele>
        <time>2024-11-24T09:56:04Z</time>
      </trkpt>
      <trkpt lat="45.22571" lon="3.95611">
        <ele>881.19</ele>
        <time>2024-11-24T09:56:22Z</time>
      </trkpt>
      <trkpt lat="45.22579" lon="3.95626">
        <ele>879.74</ele>
        <time>2024-11-24T09:56:34Z</time>
      </trkpt>
      <trkpt lat="45.22583" lon="3.95642">
        <ele>880.71</ele>
        <time>2024-11-24T09:56:43Z</time>
      </trkpt>
      <trkpt lat="45.22594" lon="3.95671">
        <ele>882.15</ele>
        <time>2024-11-24T09:57:00Z</time>
      </trkpt>
      <trkpt lat="45.22603" lon="3.95694">
        <ele>882.15</ele>
        <time>2024-11-24T09:57:15Z</time>
      </trkpt>
      <trkpt lat="45.22613" lon="3.95719">
        <ele>883.11</ele>
        <time>2024-11-24T09:57:30Z</time>
      </trkpt>
      <trkpt lat="45.22616" lon="3.95728">
        <ele>883.11</ele>
        <time>2024-11-24T09:57:36Z</time>
      </trkpt>
      <trkpt lat="45.2262" lon="3.95736">
        <ele>883.59</ele>
        <time>2024-11-24T09:57:46Z</time>
      </trkpt>
      <trkpt lat="45.22621" lon="3.95745">
        <ele>884.07</ele>
        <time>2024-11-24T09:57:56Z</time>
      </trkpt>
      <trkpt lat="45.22626" lon="3.95751">
        <ele>885.03</ele>
        <time>2024-11-24T09:58:02Z</time>
      </trkpt>
      <trkpt lat="45.22645" lon="3.95767">
        <ele>886.47</ele>
        <time>2024-11-24T09:58:20Z</time>
      </trkpt>
      <trkpt lat="45.22657" lon="3.95778">
        <ele>886.47</ele>
        <time>2024-11-24T09:58:35Z</time>
      </trkpt>
      <trkpt lat="45.2266" lon="3.9578">
        <ele>885.99</ele>
        <time>2024-11-24T09:58:46Z</time>
      </trkpt>
      <trkpt lat="45.22664" lon="3.95791">
        <ele>885.99</ele>
        <time>2024-11-24T09:58:59Z</time>
      </trkpt>
      <trkpt lat="45.22667" lon="3.95795">
        <ele>886.95</ele>
        <time>2024-11-24T09:59:10Z</time>
      </trkpt>
      <trkpt lat="45.22668" lon="3.95797">
        <ele>885.03</ele>
        <time>2024-11-24T09:59:23Z</time>
      </trkpt>
      <trkpt lat="45.22668" lon="3.95798">
        <ele>883.59</ele>
        <time>2024-11-24T09:59:37Z</time>
      </trkpt>
      <trkpt lat="45.22668" lon="3.95798">
        <ele>883.11</ele>
        <time>2024-11-24T09:59:53Z</time>
      </trkpt>
      <trkpt lat="45.22677" lon="3.95806">
        <ele>881.67</ele>
        <time>2024-11-24T10:00:07Z</time>
      </trkpt>
      <trkpt lat="45.2267" lon="3.9582">
        <ele>883.59</ele>
        <time>2024-11-24T10:00:22Z</time>
      </trkpt>
      <trkpt lat="45.22662" lon="3.95825">
        <ele>883.59</ele>
        <time>2024-11-24T10:00:36Z</time>
      </trkpt>
      <trkpt lat="45.2266" lon="3.95824">
        <ele>884.07</ele>
        <time>2024-11-24T10:00:49Z</time>
      </trkpt>
      <trkpt lat="45.22659" lon="3.95823">
        <ele>883.59</ele>
        <time>2024-11-24T10:01:03Z</time>
      </trkpt>
      <trkpt lat="45.22652" lon="3.95824">
        <ele>885.03</ele>
        <time>2024-11-24T10:01:11Z</time>
      </trkpt>
      <trkpt lat="45.22646" lon="3.9583">
        <ele>885.99</ele>
        <time>2024-11-24T10:01:19Z</time>
      </trkpt>
      <trkpt lat="45.22643" lon="3.95834">
        <ele>886.95</ele>
        <time>2024-11-24T10:01:31Z</time>
      </trkpt>
      <trkpt lat="45.22644" lon="3.95834">
        <ele>886.95</ele>
        <time>2024-11-24T10:01:35Z</time>
      </trkpt>
      <trkpt lat="45.2264" lon="3.95846">
        <ele>887.43</ele>
        <time>2024-11-24T10:01:43Z</time>
      </trkpt>
      <trkpt lat="45.22638" lon="3.9585">
        <ele>888.4</ele>
        <time>2024-11-24T10:01:46Z</time>
      </trkpt>
      <trkpt lat="45.22634" lon="3.95858">
        <ele>889.36</ele>
        <time>2024-11-24T10:01:52Z</time>
      </trkpt>
      <trkpt lat="45.22629" lon="3.95874">
        <ele>891.76</ele>
        <time>2024-11-24T10:02:06Z</time>
      </trkpt>
      <trkpt lat="45.2262" lon="3.95891">
        <ele>894.64</ele>
        <time>2024-11-24T10:02:22Z</time>
      </trkpt>
      <trkpt lat="45.22613" lon="3.95904">
        <ele>898.01</ele>
        <time>2024-11-24T10:02:34Z</time>
      </trkpt>
      <trkpt lat="45.22611" lon="3.95906">
        <ele>898.49</ele>
        <time>2024-11-24T10:02:36Z</time>
      </trkpt>
      <trkpt lat="45.22602" lon="3.95925">
        <ele>902.82</ele>
        <time>2024-11-24T10:02:52Z</time>
      </trkpt>
      <trkpt lat="45.22597" lon="3.95942">
        <ele>909.06</ele>
        <time>2024-11-24T10:03:05Z</time>
      </trkpt>
      <trkpt lat="45.22594" lon="3.95957">
        <ele>911.95</ele>
        <time>2024-11-24T10:03:14Z</time>
      </trkpt>
      <trkpt lat="45.22589" lon="3.95978">
        <ele>914.83</ele>
        <time>2024-11-24T10:03:28Z</time>
      </trkpt>
      <trkpt lat="45.22587" lon="3.95983">
        <ele>915.31</ele>
        <time>2024-11-24T10:03:32Z</time>
      </trkpt>
      <trkpt lat="45.22585" lon="3.95988">
        <ele>915.79</ele>
        <time>2024-11-24T10:03:36Z</time>
      </trkpt>
      <trkpt lat="45.22574" lon="3.96004">
        <ele>918.2</ele>
        <time>2024-11-24T10:03:52Z</time>
      </trkpt>
      <trkpt lat="45.22565" lon="3.96017">
        <ele>923.96</ele>
        <time>2024-11-24T10:04:08Z</time>
      </trkpt>
      <trkpt lat="45.22556" lon="3.96022">
        <ele>927.33</ele>
        <time>2024-11-24T10:04:19Z</time>
      </trkpt>
      <trkpt lat="45.22544" lon="3.96028">
        <ele>930.21</ele>
        <time>2024-11-24T10:04:34Z</time>
      </trkpt>
      <trkpt lat="45.22537" lon="3.96027">
        <ele>931.17</ele>
        <time>2024-11-24T10:04:49Z</time>
      </trkpt>
      <trkpt lat="45.22535" lon="3.96024">
        <ele>931.65</ele>
        <time>2024-11-24T10:05:06Z</time>
      </trkpt>
      <trkpt lat="45.22532" lon="3.96025">
        <ele>932.62</ele>
        <time>2024-11-24T10:05:21Z</time>
      </trkpt>
      <trkpt lat="45.22521" lon="3.96034">
        <ele>935.5</ele>
        <time>2024-11-24T10:05:36Z</time>
      </trkpt>
      <trkpt lat="45.22508" lon="3.9604">
        <ele>939.35</ele>
        <time>2024-11-24T10:05:52Z</time>
      </trkpt>
      <trkpt lat="45.22496" lon="3.96045">
        <ele>941.75</ele>
        <time>2024-11-24T10:06:05Z</time>
      </trkpt>
      <trkpt lat="45.2248" lon="3.96052">
        <ele>944.63</ele>
        <time>2024-11-24T10:06:19Z</time>
      </trkpt>
      <trkpt lat="45.22465" lon="3.96058">
        <ele>948.48</ele>
        <time>2024-11-24T10:06:34Z</time>
      </trkpt>
      <trkpt lat="45.22448" lon="3.9606">
        <ele>952.32</ele>
        <time>2024-11-24T10:06:47Z</time>
      </trkpt>
      <trkpt lat="45.22424" lon="3.96064">
        <ele>954.25</ele>
        <time>2024-11-24T10:07:05Z</time>
      </trkpt>
      <trkpt lat="45.22416" lon="3.96074">
        <ele>952.8</ele>
        <time>2024-11-24T10:07:16Z</time>
      </trkpt>
      <trkpt lat="45.22406" lon="3.96092">
        <ele>950.88</ele>
        <time>2024-11-24T10:07:31Z</time>
      </trkpt>
      <trkpt lat="45.22403" lon="3.961">
        <ele>948.96</ele>
        <time>2024-11-24T10:07:45Z</time>
      </trkpt>
      <trkpt lat="45.224" lon="3.96116">
        <ele>950.88</ele>
        <time>2024-11-24T10:08:00Z</time>
      </trkpt>
      <trkpt lat="45.22398" lon="3.96134">
        <ele>952.8</ele>
        <time>2024-11-24T10:08:13Z</time>
      </trkpt>
      <trkpt lat="45.22398" lon="3.96154">
        <ele>955.21</ele>
        <time>2024-11-24T10:08:27Z</time>
      </trkpt>
      <trkpt lat="45.22396" lon="3.96177">
        <ele>958.09</ele>
        <time>2024-11-24T10:08:44Z</time>
      </trkpt>
      <trkpt lat="45.22397" lon="3.96194">
        <ele>960.49</ele>
        <time>2024-11-24T10:08:58Z</time>
      </trkpt>
      <trkpt lat="45.22396" lon="3.96197">
        <ele>960.49</ele>
        <time>2024-11-24T10:09:14Z</time>
      </trkpt>
      <trkpt lat="45.22401" lon="3.96206">
        <ele>960.49</ele>
        <time>2024-11-24T10:09:31Z</time>
      </trkpt>
      <trkpt lat="45.22411" lon="3.96216">
        <ele>962.42</ele>
        <time>2024-11-24T10:09:46Z</time>
      </trkpt>
      <trkpt lat="45.22423" lon="3.96225">
        <ele>965.3</ele>
        <time>2024-11-24T10:10:03Z</time>
      </trkpt>
      <trkpt lat="45.22434" lon="3.96234">
        <ele>967.22</ele>
        <time>2024-11-24T10:10:17Z</time>
      </trkpt>
      <trkpt lat="45.2244" lon="3.96245">
        <ele>968.67</ele>
        <time>2024-11-24T10:10:34Z</time>
      </trkpt>
      <trkpt lat="45.22445" lon="3.96263">
        <ele>971.07</ele>
        <time>2024-11-24T10:10:48Z</time>
      </trkpt>
      <trkpt lat="45.22448" lon="3.96276">
        <ele>972.99</ele>
        <time>2024-11-24T10:11:01Z</time>
      </trkpt>
      <trkpt lat="45.2245" lon="3.96294">
        <ele>975.39</ele>
        <time>2024-11-24T10:11:16Z</time>
      </trkpt>
      <trkpt lat="45.22456" lon="3.96315">
        <ele>977.8</ele>
        <time>2024-11-24T10:11:32Z</time>
      </trkpt>
      <trkpt lat="45.22456" lon="3.96335">
        <ele>979.24</ele>
        <time>2024-11-24T10:11:46Z</time>
      </trkpt>
      <trkpt lat="45.22451" lon="3.96355">
        <ele>982.6</ele>
        <time>2024-11-24T10:12:02Z</time>
      </trkpt>
      <trkpt lat="45.22445" lon="3.96372">
        <ele>983.09</ele>
        <time>2024-11-24T10:12:16Z</time>
      </trkpt>
      <trkpt lat="45.22435" lon="3.96388">
        <ele>984.53</ele>
        <time>2024-11-24T10:12:31Z</time>
      </trkpt>
      <trkpt lat="45.22431" lon="3.96403">
        <ele>988.37</ele>
        <time>2024-11-24T10:12:44Z</time>
      </trkpt>
      <trkpt lat="45.22434" lon="3.96416">
        <ele>989.81</ele>
        <time>2024-11-24T10:12:59Z</time>
      </trkpt>
      <trkpt lat="45.22436" lon="3.96433">
        <ele>994.62</ele>
        <time>2024-11-24T10:13:16Z</time>
      </trkpt>
      <trkpt lat="45.22434" lon="3.96452">
        <ele>997.99</ele>
        <time>2024-11-24T10:13:32Z</time>
      </trkpt>
      <trkpt lat="45.22434" lon="3.96454">
        <ele>997.99</ele>
        <time>2024-11-24T10:13:33Z</time>
      </trkpt>
      <trkpt lat="45.22426" lon="3.96468">
        <ele>999.91</ele>
        <time>2024-11-24T10:13:51Z</time>
      </trkpt>
      <trkpt lat="45.22423" lon="3.96468">
        <ele>999.91</ele>
        <time>2024-11-24T10:14:04Z</time>
      </trkpt>
      <trkpt lat="45.22423" lon="3.96469">
        <ele>997.99</ele>
        <time>2024-11-24T10:14:19Z</time>
      </trkpt>
      <trkpt lat="45.22423" lon="3.96475">
        <ele>995.58</ele>
        <time>2024-11-24T10:14:39Z</time>
      </trkpt>
      <trkpt lat="45.22422" lon="3.96474">
        <ele>995.1</ele>
        <time>2024-11-24T10:14:50Z</time>
      </trkpt>
      <trkpt lat="45.22422" lon="3.96473">
        <ele>997.02</ele>
        <time>2024-11-24T10:15:02Z</time>
      </trkpt>
      <trkpt lat="45.22424" lon="3.96475">
        <ele>997.02</ele>
        <time>2024-11-24T10:15:15Z</time>
      </trkpt>
      <trkpt lat="45.22425" lon="3.96475">
        <ele>999.43</ele>
        <time>2024-11-24T10:15:30Z</time>
      </trkpt>
      <trkpt lat="45.22426" lon="3.96474">
        <ele>998.95</ele>
        <time>2024-11-24T10:15:44Z</time>
      </trkpt>
      <trkpt lat="45.22426" lon="3.96474">
        <ele>999.43</ele>
        <time>2024-11-24T10:16:00Z</time>
      </trkpt>
      <trkpt lat="45.22425" lon="3.96478">
        <ele>998.95</ele>
        <time>2024-11-24T10:16:12Z</time>
      </trkpt>
      <trkpt lat="45.2243" lon="3.96491">
        <ele>999.91</ele>
        <time>2024-11-24T10:16:26Z</time>
      </trkpt>
      <trkpt lat="45.2244" lon="3.965">
        <ele>1002.79</ele>
        <time>2024-11-24T10:16:40Z</time>
      </trkpt>
      <trkpt lat="45.22443" lon="3.96503">
        <ele>1003.75</ele>
        <time>2024-11-24T10:16:43Z</time>
      </trkpt>
      <trkpt lat="45.2245" lon="3.96509">
        <ele>1006.64</ele>
        <time>2024-11-24T10:16:56Z</time>
      </trkpt>
      <trkpt lat="45.2245" lon="3.96511">
        <ele>1006.64</ele>
        <time>2024-11-24T10:17:09Z</time>
      </trkpt>
      <trkpt lat="45.22446" lon="3.9651">
        <ele>1007.12</ele>
        <time>2024-11-24T10:17:25Z</time>
      </trkpt>
      <trkpt lat="45.22444" lon="3.96505">
        <ele>1005.68</ele>
        <time>2024-11-24T10:17:42Z</time>
      </trkpt>
      <trkpt lat="45.22443" lon="3.96504">
        <ele>1003.75</ele>
        <time>2024-11-24T10:18:00Z</time>
      </trkpt>
      <trkpt lat="45.22441" lon="3.96504">
        <ele>1002.79</ele>
        <time>2024-11-24T10:18:16Z</time>
      </trkpt>
      <trkpt lat="45.22442" lon="3.96506">
        <ele>1001.35</ele>
        <time>2024-11-24T10:18:38Z</time>
      </trkpt>
      <trkpt lat="45.22439" lon="3.96505">
        <ele>1002.31</ele>
        <time>2024-11-24T10:18:50Z</time>
      </trkpt>
      <trkpt lat="45.22438" lon="3.96502">
        <ele>1001.35</ele>
        <time>2024-11-24T10:19:21Z</time>
      </trkpt>
      <trkpt lat="45.22439" lon="3.96502">
        <ele>1002.31</ele>
        <time>2024-11-24T10:19:43Z</time>
      </trkpt>
      <trkpt lat="45.2244" lon="3.96503">
        <ele>997.02</ele>
        <time>2024-11-24T10:20:15Z</time>
      </trkpt>
      <trkpt lat="45.2244" lon="3.96503">
        <ele>996.54</ele>
        <time>2024-11-24T10:20:42Z</time>
      </trkpt>
      <trkpt lat="45.22439" lon="3.96498">
        <ele>996.06</ele>
        <time>2024-11-24T10:21:14Z</time>
      </trkpt>
      <trkpt lat="45.22443" lon="3.96505">
        <ele>998.47</ele>
        <time>2024-11-24T10:21:29Z</time>
      </trkpt>
      <trkpt lat="45.22455" lon="3.96513">
        <ele>1003.75</ele>
        <time>2024-11-24T10:21:45Z</time>
      </trkpt>
      <trkpt lat="45.22464" lon="3.96522">
        <ele>1009.04</ele>
        <time>2024-11-24T10:22:01Z</time>
      </trkpt>
      <trkpt lat="45.2247" lon="3.9653">
        <ele>1012.89</ele>
        <time>2024-11-24T10:22:15Z</time>
      </trkpt>
      <trkpt lat="45.22474" lon="3.96545">
        <ele>1014.81</ele>
        <time>2024-11-24T10:22:32Z</time>
      </trkpt>
      <trkpt lat="45.22479" lon="3.96553">
        <ele>1017.69</ele>
        <time>2024-11-24T10:22:47Z</time>
      </trkpt>
      <trkpt lat="45.22485" lon="3.96563">
        <ele>1020.1</ele>
        <time>2024-11-24T10:23:02Z</time>
      </trkpt>
      <trkpt lat="45.22491" lon="3.96574">
        <ele>1022.02</ele>
        <time>2024-11-24T10:23:15Z</time>
      </trkpt>
      <trkpt lat="45.22495" lon="3.96586">
        <ele>1022.5</ele>
        <time>2024-11-24T10:23:28Z</time>
      </trkpt>
      <trkpt lat="45.22495" lon="3.96599">
        <ele>1024.42</ele>
        <time>2024-11-24T10:23:41Z</time>
      </trkpt>
      <trkpt lat="45.22489" lon="3.96611">
        <ele>1028.27</ele>
        <time>2024-11-24T10:23:55Z</time>
      </trkpt>
      <trkpt lat="45.2248" lon="3.96623">
        <ele>1029.71</ele>
        <time>2024-11-24T10:24:09Z</time>
      </trkpt>
      <trkpt lat="45.22471" lon="3.96639">
        <ele>1033.07</ele>
        <time>2024-11-24T10:24:26Z</time>
      </trkpt>
      <trkpt lat="45.22471" lon="3.9664">
        <ele>1033.55</ele>
        <time>2024-11-24T10:24:27Z</time>
      </trkpt>
      <trkpt lat="45.22464" lon="3.96656">
        <ele>1036.44</ele>
        <time>2024-11-24T10:24:42Z</time>
      </trkpt>
      <trkpt lat="45.2246" lon="3.96673">
        <ele>1038.84</ele>
        <time>2024-11-24T10:24:56Z</time>
      </trkpt>
      <trkpt lat="45.22456" lon="3.96691">
        <ele>1040.76</ele>
        <time>2024-11-24T10:25:10Z</time>
      </trkpt>
      <trkpt lat="45.22456" lon="3.96693">
        <ele>1040.76</ele>
        <time>2024-11-24T10:25:12Z</time>
      </trkpt>
      <trkpt lat="45.22457" lon="3.96712">
        <ele>1041.25</ele>
        <time>2024-11-24T10:25:26Z</time>
      </trkpt>
      <trkpt lat="45.22457" lon="3.96713">
        <ele>1041.73</ele>
        <time>2024-11-24T10:25:28Z</time>
      </trkpt>
      <trkpt lat="45.22463" lon="3.96718">
        <ele>1043.65</ele>
        <time>2024-11-24T10:25:39Z</time>
      </trkpt>
      <trkpt lat="45.22469" lon="3.96721">
        <ele>1047.49</ele>
        <time>2024-11-24T10:25:52Z</time>
      </trkpt>
      <trkpt lat="45.22475" lon="3.96726">
        <ele>1048.45</ele>
        <time>2024-11-24T10:26:08Z</time>
      </trkpt>
      <trkpt lat="45.22474" lon="3.96737">
        <ele>1049.42</ele>
        <time>2024-11-24T10:26:17Z</time>
      </trkpt>
      <trkpt lat="45.22468" lon="3.96748">
        <ele>1051.34</ele>
        <time>2024-11-24T10:26:31Z</time>
      </trkpt>
      <trkpt lat="45.22465" lon="3.9675">
        <ele>1051.34</ele>
        <time>2024-11-24T10:26:47Z</time>
      </trkpt>
      <trkpt lat="45.22465" lon="3.96753">
        <ele>1051.82</ele>
        <time>2024-11-24T10:26:56Z</time>
      </trkpt>
      <trkpt lat="45.22463" lon="3.96753">
        <ele>1051.34</ele>
        <time>2024-11-24T10:27:08Z</time>
      </trkpt>
      <trkpt lat="45.22463" lon="3.96753">
        <ele>1049.42</ele>
        <time>2024-11-24T10:27:31Z</time>
      </trkpt>
      <trkpt lat="45.22461" lon="3.96754">
        <ele>1048.45</ele>
        <time>2024-11-24T10:27:44Z</time>
      </trkpt>
      <trkpt lat="45.22458" lon="3.96758">
        <ele>1048.94</ele>
        <time>2024-11-24T10:27:56Z</time>
      </trkpt>
      <trkpt lat="45.22454" lon="3.96762">
        <ele>1047.97</ele>
        <time>2024-11-24T10:28:11Z</time>
      </trkpt>
      <trkpt lat="45.22451" lon="3.96768">
        <ele>1048.94</ele>
        <time>2024-11-24T10:28:23Z</time>
      </trkpt>
      <trkpt lat="45.22447" lon="3.96769">
        <ele>1048.45</ele>
        <time>2024-11-24T10:28:38Z</time>
      </trkpt>
      <trkpt lat="45.22446" lon="3.96775">
        <ele>1048.94</ele>
        <time>2024-11-24T10:28:53Z</time>
      </trkpt>
      <trkpt lat="45.22439" lon="3.96781">
        <ele>1049.9</ele>
        <time>2024-11-24T10:29:08Z</time>
      </trkpt>
      <trkpt lat="45.22431" lon="3.96794">
        <ele>1050.38</ele>
        <time>2024-11-24T10:29:19Z</time>
      </trkpt>
      <trkpt lat="45.22428" lon="3.96809">
        <ele>1050.86</ele>
        <time>2024-11-24T10:29:30Z</time>
      </trkpt>
      <trkpt lat="45.22431" lon="3.96823">
        <ele>1051.34</ele>
        <time>2024-11-24T10:29:44Z</time>
      </trkpt>
      <trkpt lat="45.22439" lon="3.96834">
        <ele>1054.22</ele>
        <time>2024-11-24T10:29:58Z</time>
      </trkpt>
      <trkpt lat="45.22442" lon="3.96853">
        <ele>1056.15</ele>
        <time>2024-11-24T10:30:11Z</time>
      </trkpt>
      <trkpt lat="45.22445" lon="3.9687">
        <ele>1059.03</ele>
        <time>2024-11-24T10:30:25Z</time>
      </trkpt>
      <trkpt lat="45.22447" lon="3.96878">
        <ele>1060.47</ele>
        <time>2024-11-24T10:30:32Z</time>
      </trkpt>
      <trkpt lat="45.22455" lon="3.96892">
        <ele>1064.8</ele>
        <time>2024-11-24T10:30:47Z</time>
      </trkpt>
      <trkpt lat="45.22458" lon="3.96899">
        <ele>1063.84</ele>
        <time>2024-11-24T10:31:03Z</time>
      </trkpt>
      <trkpt lat="45.2246" lon="3.969">
        <ele>1062.39</ele>
        <time>2024-11-24T10:31:25Z</time>
      </trkpt>
      <trkpt lat="45.22458" lon="3.96901">
        <ele>1065.28</ele>
        <time>2024-11-24T10:31:40Z</time>
      </trkpt>
      <trkpt lat="45.22457" lon="3.96902">
        <ele>1063.84</ele>
        <time>2024-11-24T10:31:56Z</time>
      </trkpt>
      <trkpt lat="45.22465" lon="3.96904">
        <ele>1066.72</ele>
        <time>2024-11-24T10:32:10Z</time>
      </trkpt>
      <trkpt lat="45.22468" lon="3.96914">
        <ele>1068.16</ele>
        <time>2024-11-24T10:32:23Z</time>
      </trkpt>
      <trkpt lat="45.22472" lon="3.96931">
        <ele>1069.6</ele>
        <time>2024-11-24T10:32:36Z</time>
      </trkpt>
      <trkpt lat="45.22474" lon="3.96935">
        <ele>1070.57</ele>
        <time>2024-11-24T10:32:40Z</time>
      </trkpt>
      <trkpt lat="45.22481" lon="3.96947">
        <ele>1072.97</ele>
        <time>2024-11-24T10:32:54Z</time>
      </trkpt>
      <trkpt lat="45.2248" lon="3.96954">
        <ele>1072.97</ele>
        <time>2024-11-24T10:33:04Z</time>
      </trkpt>
      <trkpt lat="45.22475" lon="3.9696">
        <ele>1073.45</ele>
        <time>2024-11-24T10:33:10Z</time>
      </trkpt>
      <trkpt lat="45.22462" lon="3.96974">
        <ele>1075.37</ele>
        <time>2024-11-24T10:33:25Z</time>
      </trkpt>
      <trkpt lat="45.2245" lon="3.96983">
        <ele>1074.89</ele>
        <time>2024-11-24T10:33:38Z</time>
      </trkpt>
      <trkpt lat="45.22435" lon="3.96988">
        <ele>1072.49</ele>
        <time>2024-11-24T10:33:54Z</time>
      </trkpt>
      <trkpt lat="45.22432" lon="3.96987">
        <ele>1072.01</ele>
        <time>2024-11-24T10:33:58Z</time>
      </trkpt>
      <trkpt lat="45.22422" lon="3.96989">
        <ele>1070.57</ele>
        <time>2024-11-24T10:34:12Z</time>
      </trkpt>
      <trkpt lat="45.2242" lon="3.96993">
        <ele>1066.72</ele>
        <time>2024-11-24T10:34:31Z</time>
      </trkpt>
      <trkpt lat="45.22417" lon="3.9699">
        <ele>1064.32</ele>
        <time>2024-11-24T10:34:41Z</time>
      </trkpt>
      <trkpt lat="45.2242" lon="3.9699">
        <ele>1061.43</ele>
        <time>2024-11-24T10:34:53Z</time>
      </trkpt>
      <trkpt lat="45.22419" lon="3.96989">
        <ele>1061.43</ele>
        <time>2024-11-24T10:35:07Z</time>
      </trkpt>
      <trkpt lat="45.22419" lon="3.9699">
        <ele>1060.47</ele>
        <time>2024-11-24T10:35:21Z</time>
      </trkpt>
      <trkpt lat="45.22421" lon="3.96988">
        <ele>1059.51</ele>
        <time>2024-11-24T10:35:34Z</time>
      </trkpt>
      <trkpt lat="45.22423" lon="3.96987">
        <ele>1059.51</ele>
        <time>2024-11-24T10:35:46Z</time>
      </trkpt>
      <trkpt lat="45.22424" lon="3.96986">
        <ele>1059.51</ele>
        <time>2024-11-24T10:35:58Z</time>
      </trkpt>
      <trkpt lat="45.22425" lon="3.96989">
        <ele>1059.03</ele>
        <time>2024-11-24T10:36:10Z</time>
      </trkpt>
      <trkpt lat="45.22424" lon="3.96991">
        <ele>1059.03</ele>
        <time>2024-11-24T10:36:26Z</time>
      </trkpt>
      <trkpt lat="45.2242" lon="3.96991">
        <ele>1060.95</ele>
        <time>2024-11-24T10:36:38Z</time>
      </trkpt>
      <trkpt lat="45.22428" lon="3.96988">
        <ele>1061.91</ele>
        <time>2024-11-24T10:36:51Z</time>
      </trkpt>
      <trkpt lat="45.22434" lon="3.96988">
        <ele>1062.39</ele>
        <time>2024-11-24T10:37:02Z</time>
      </trkpt>
      <trkpt lat="45.22436" lon="3.96988">
        <ele>1062.87</ele>
        <time>2024-11-24T10:37:10Z</time>
      </trkpt>
      <trkpt lat="45.22438" lon="3.96987">
        <ele>1063.36</ele>
        <time>2024-11-24T10:37:23Z</time>
      </trkpt>
      <trkpt lat="45.22438" lon="3.96987">
        <ele>1062.87</ele>
        <time>2024-11-24T10:37:35Z</time>
      </trkpt>
      <trkpt lat="45.22438" lon="3.96987">
        <ele>1060.95</ele>
        <time>2024-11-24T10:37:55Z</time>
      </trkpt>
      <trkpt lat="45.22437" lon="3.96988">
        <ele>1060.95</ele>
        <time>2024-11-24T10:38:00Z</time>
      </trkpt>
      <trkpt lat="45.22442" lon="3.96986">
        <ele>1061.91</ele>
        <time>2024-11-24T10:38:05Z</time>
      </trkpt>
      <trkpt lat="45.22449" lon="3.96984">
        <ele>1063.36</ele>
        <time>2024-11-24T10:38:11Z</time>
      </trkpt>
      <trkpt lat="45.22453" lon="3.96981">
        <ele>1063.84</ele>
        <time>2024-11-24T10:38:15Z</time>
      </trkpt>
      <trkpt lat="45.22463" lon="3.96972">
        <ele>1062.87</ele>
        <time>2024-11-24T10:38:28Z</time>
      </trkpt>
      <trkpt lat="45.22468" lon="3.96972">
        <ele>1066.24</ele>
        <time>2024-11-24T10:38:44Z</time>
      </trkpt>
      <trkpt lat="45.22474" lon="3.96967">
        <ele>1065.28</ele>
        <time>2024-11-24T10:38:54Z</time>
      </trkpt>
      <trkpt lat="45.22482" lon="3.9696">
        <ele>1062.87</ele>
        <time>2024-11-24T10:39:07Z</time>
      </trkpt>
      <trkpt lat="45.22489" lon="3.96957">
        <ele>1065.76</ele>
        <time>2024-11-24T10:39:20Z</time>
      </trkpt>
      <trkpt lat="45.22492" lon="3.96958">
        <ele>1065.76</ele>
        <time>2024-11-24T10:39:33Z</time>
      </trkpt>
      <trkpt lat="45.22499" lon="3.9695">
        <ele>1068.64</ele>
        <time>2024-11-24T10:39:48Z</time>
      </trkpt>
      <trkpt lat="45.22505" lon="3.96939">
        <ele>1070.08</ele>
        <time>2024-11-24T10:40:02Z</time>
      </trkpt>
      <trkpt lat="45.22516" lon="3.96927">
        <ele>1072.01</ele>
        <time>2024-11-24T10:40:17Z</time>
      </trkpt>
      <trkpt lat="45.22526" lon="3.96916">
        <ele>1079.7</ele>
        <time>2024-11-24T10:40:32Z</time>
      </trkpt>
      <trkpt lat="45.22536" lon="3.96902">
        <ele>1079.7</ele>
        <time>2024-11-24T10:40:46Z</time>
      </trkpt>
      <trkpt lat="45.22538" lon="3.96899">
        <ele>1079.7</ele>
        <time>2024-11-24T10:40:49Z</time>
      </trkpt>
      <trkpt lat="45.22547" lon="3.96885">
        <ele>1080.66</ele>
        <time>2024-11-24T10:40:59Z</time>
      </trkpt>
      <trkpt lat="45.22555" lon="3.96874">
        <ele>1082.1</ele>
        <time>2024-11-24T10:41:09Z</time>
      </trkpt>
      <trkpt lat="45.2257" lon="3.96859">
        <ele>1077.29</ele>
        <time>2024-11-24T10:41:25Z</time>
      </trkpt>
      <trkpt lat="45.22569" lon="3.9686">
        <ele>1074.41</ele>
        <time>2024-11-24T10:41:36Z</time>
      </trkpt>
      <trkpt lat="45.22562" lon="3.96867">
        <ele>1073.45</ele>
        <time>2024-11-24T10:41:52Z</time>
      </trkpt>
      <trkpt lat="45.22563" lon="3.96877">
        <ele>1072.97</ele>
        <time>2024-11-24T10:42:05Z</time>
      </trkpt>
      <trkpt lat="45.22566" lon="3.96894">
        <ele>1071.53</ele>
        <time>2024-11-24T10:42:18Z</time>
      </trkpt>
      <trkpt lat="45.22569" lon="3.96907">
        <ele>1072.01</ele>
        <time>2024-11-24T10:42:31Z</time>
      </trkpt>
      <trkpt lat="45.22579" lon="3.9691">
        <ele>1072.01</ele>
        <time>2024-11-24T10:42:46Z</time>
      </trkpt>
      <trkpt lat="45.22591" lon="3.96912">
        <ele>1074.89</ele>
        <time>2024-11-24T10:43:01Z</time>
      </trkpt>
      <trkpt lat="45.22605" lon="3.9692">
        <ele>1073.93</ele>
        <time>2024-11-24T10:43:16Z</time>
      </trkpt>
      <trkpt lat="45.22614" lon="3.96921">
        <ele>1073.45</ele>
        <time>2024-11-24T10:43:29Z</time>
      </trkpt>
      <trkpt lat="45.22619" lon="3.9691">
        <ele>1075.37</ele>
        <time>2024-11-24T10:43:42Z</time>
      </trkpt>
      <trkpt lat="45.22629" lon="3.96901">
        <ele>1077.29</ele>
        <time>2024-11-24T10:43:57Z</time>
      </trkpt>
      <trkpt lat="45.2264" lon="3.96891">
        <ele>1076.81</ele>
        <time>2024-11-24T10:44:12Z</time>
      </trkpt>
      <trkpt lat="45.22649" lon="3.96882">
        <ele>1077.78</ele>
        <time>2024-11-24T10:44:25Z</time>
      </trkpt>
      <trkpt lat="45.2266" lon="3.96879">
        <ele>1079.22</ele>
        <time>2024-11-24T10:44:38Z</time>
      </trkpt>
      <trkpt lat="45.22671" lon="3.96878">
        <ele>1079.7</ele>
        <time>2024-11-24T10:44:50Z</time>
      </trkpt>
      <trkpt lat="45.22683" lon="3.96877">
        <ele>1075.85</ele>
        <time>2024-11-24T10:45:00Z</time>
      </trkpt>
      <trkpt lat="45.22699" lon="3.96878">
        <ele>1073.93</ele>
        <time>2024-11-24T10:45:16Z</time>
      </trkpt>
      <trkpt lat="45.22709" lon="3.96873">
        <ele>1078.26</ele>
        <time>2024-11-24T10:45:30Z</time>
      </trkpt>
      <trkpt lat="45.22723" lon="3.96867">
        <ele>1078.26</ele>
        <time>2024-11-24T10:45:44Z</time>
      </trkpt>
      <trkpt lat="45.22735" lon="3.9687">
        <ele>1079.22</ele>
        <time>2024-11-24T10:45:59Z</time>
      </trkpt>
      <trkpt lat="45.22745" lon="3.96871">
        <ele>1077.78</ele>
        <time>2024-11-24T10:46:11Z</time>
      </trkpt>
      <trkpt lat="45.22757" lon="3.96876">
        <ele>1068.64</ele>
        <time>2024-11-24T10:46:24Z</time>
      </trkpt>
      <trkpt lat="45.22764" lon="3.96888">
        <ele>1063.36</ele>
        <time>2024-11-24T10:46:37Z</time>
      </trkpt>
      <trkpt lat="45.22773" lon="3.96903">
        <ele>1057.11</ele>
        <time>2024-11-24T10:46:49Z</time>
      </trkpt>
      <trkpt lat="45.2278" lon="3.96912">
        <ele>1050.38</ele>
        <time>2024-11-24T10:47:02Z</time>
      </trkpt>
      <trkpt lat="45.22785" lon="3.96916">
        <ele>1048.45</ele>
        <time>2024-11-24T10:47:13Z</time>
      </trkpt>
      <trkpt lat="45.22791" lon="3.96926">
        <ele>1041.73</ele>
        <time>2024-11-24T10:47:25Z</time>
      </trkpt>
      <trkpt lat="45.22796" lon="3.96936">
        <ele>1038.36</ele>
        <time>2024-11-24T10:47:36Z</time>
      </trkpt>
      <trkpt lat="45.22802" lon="3.96944">
        <ele>1037.88</ele>
        <time>2024-11-24T10:47:48Z</time>
      </trkpt>
      <trkpt lat="45.22811" lon="3.96947">
        <ele>1037.88</ele>
        <time>2024-11-24T10:47:59Z</time>
      </trkpt>
      <trkpt lat="45.22819" lon="3.96951">
        <ele>1034.04</ele>
        <time>2024-11-24T10:48:14Z</time>
      </trkpt>
      <trkpt lat="45.22824" lon="3.96952">
        <ele>1032.11</ele>
        <time>2024-11-24T10:48:28Z</time>
      </trkpt>
      <trkpt lat="45.22824" lon="3.96955">
        <ele>1031.63</ele>
        <time>2024-11-24T10:48:43Z</time>
      </trkpt>
      <trkpt lat="45.22826" lon="3.96955">
        <ele>1028.27</ele>
        <time>2024-11-24T10:48:58Z</time>
      </trkpt>
      <trkpt lat="45.22827" lon="3.96958">
        <ele>1025.86</ele>
        <time>2024-11-24T10:49:12Z</time>
      </trkpt>
      <trkpt lat="45.22833" lon="3.96963">
        <ele>1022.5</ele>
        <time>2024-11-24T10:49:31Z</time>
      </trkpt>
      <trkpt lat="45.22834" lon="3.96965">
        <ele>1013.85</ele>
        <time>2024-11-24T10:49:55Z</time>
      </trkpt>
      <trkpt lat="45.22832" lon="3.96966">
        <ele>1014.33</ele>
        <time>2024-11-24T10:50:09Z</time>
      </trkpt>
      <trkpt lat="45.22841" lon="3.96974">
        <ele>1020.1</ele>
        <time>2024-11-24T10:50:24Z</time>
      </trkpt>
      <trkpt lat="45.22854" lon="3.96978">
        <ele>1026.83</ele>
        <time>2024-11-24T10:50:40Z</time>
      </trkpt>
      <trkpt lat="45.22869" lon="3.96983">
        <ele>1028.75</ele>
        <time>2024-11-24T10:50:54Z</time>
      </trkpt>
      <trkpt lat="45.22882" lon="3.96991">
        <ele>1032.59</ele>
        <time>2024-11-24T10:51:09Z</time>
      </trkpt>
      <trkpt lat="45.22896" lon="3.96998">
        <ele>1035</ele>
        <time>2024-11-24T10:51:23Z</time>
      </trkpt>
      <trkpt lat="45.22907" lon="3.96998">
        <ele>997.6</ele>
      </trkpt>
      <trkpt lat="45.22905" lon="3.97005">
        <ele>997.8</ele>
      </trkpt>
      <trkpt lat="45.22902" lon="3.97014">
        <ele>997.8</ele>
      </trkpt>
      <trkpt lat="45.22858" lon="3.97073">
        <ele>1000</ele>
      </trkpt>
      <trkpt lat="45.22852" lon="3.97093">
        <ele>999.9</ele>
      </trkpt>
      <trkpt lat="45.22821" lon="3.97112">
        <ele>998.5</ele>
      </trkpt>
      <trkpt lat="45.22805" lon="3.9713">
        <ele>995.9</ele>
      </trkpt>
      <trkpt lat="45.22791" lon="3.97145">
        <ele>993.7</ele>
      </trkpt>
      <trkpt lat="45.22786" lon="3.97147">
        <ele>993.1</ele>
      </trkpt>
      <trkpt lat="45.22752" lon="3.97151">
        <ele>991.9</ele>
      </trkpt>
      <trkpt lat="45.22745" lon="3.97175">
        <ele>985.8</ele>
      </trkpt>
      <trkpt lat="45.22732" lon="3.97186">
        <ele>983.5</ele>
      </trkpt>
      <trkpt lat="45.22716" lon="3.97214">
        <ele>978.6</ele>
      </trkpt>
      <trkpt lat="45.22706" lon="3.97253">
        <ele>972.3</ele>
      </trkpt>
      <trkpt lat="45.22708" lon="3.97275">
        <ele>968.5</ele>
      </trkpt>
      <trkpt lat="45.22709" lon="3.97296">
        <ele>964</ele>
      </trkpt>
      <trkpt lat="45.2272" lon="3.9733">
        <ele>954.9</ele>
      </trkpt>
      <trkpt lat="45.2271" lon="3.97404">
        <ele>934.9</ele>
      </trkpt>
      <trkpt lat="45.22731" lon="3.97445">
        <ele>927.2</ele>
      </trkpt>
      <trkpt lat="45.22732" lon="3.97454">
        <ele>926.2</ele>
      </trkpt>
      <trkpt lat="45.22733" lon="3.97462">
        <ele>970.59</ele>
        <time>2024-11-24T11:16:38Z</time>
      </trkpt>
      <trkpt lat="45.22738" lon="3.97479">
        <ele>972.99</ele>
        <time>2024-11-24T11:16:53Z</time>
      </trkpt>
      <trkpt lat="45.22748" lon="3.97498">
        <ele>966.74</ele>
        <time>2024-11-24T11:17:08Z</time>
      </trkpt>
      <trkpt lat="45.22749" lon="3.975">
        <ele>966.74</ele>
        <time>2024-11-24T11:17:11Z</time>
      </trkpt>
      <trkpt lat="45.22753" lon="3.97507">
        <ele>965.3</ele>
        <time>2024-11-24T11:17:17Z</time>
      </trkpt>
      <trkpt lat="45.22761" lon="3.97518">
        <ele>963.38</ele>
        <time>2024-11-24T11:17:27Z</time>
      </trkpt>
      <trkpt lat="45.22771" lon="3.9753">
        <ele>960.49</ele>
        <time>2024-11-24T11:17:41Z</time>
      </trkpt>
      <trkpt lat="45.22782" lon="3.9754">
        <ele>956.17</ele>
        <time>2024-11-24T11:17:55Z</time>
      </trkpt>
      <trkpt lat="45.22794" lon="3.97555">
        <ele>952.8</ele>
        <time>2024-11-24T11:18:10Z</time>
      </trkpt>
      <trkpt lat="45.22796" lon="3.97567">
        <ele>953.77</ele>
        <time>2024-11-24T11:18:22Z</time>
      </trkpt>
      <trkpt lat="45.22796" lon="3.97572">
        <ele>949.92</ele>
        <time>2024-11-24T11:18:40Z</time>
      </trkpt>
      <trkpt lat="45.22799" lon="3.97576">
        <ele>946.07</ele>
        <time>2024-11-24T11:18:56Z</time>
      </trkpt>
      <trkpt lat="45.22799" lon="3.9758">
        <ele>943.19</ele>
        <time>2024-11-24T11:19:08Z</time>
      </trkpt>
      <trkpt lat="45.22804" lon="3.97585">
        <ele>940.79</ele>
        <time>2024-11-24T11:19:18Z</time>
      </trkpt>
      <trkpt lat="45.22809" lon="3.97589">
        <ele>939.83</ele>
        <time>2024-11-24T11:19:25Z</time>
      </trkpt>
      <trkpt lat="45.22821" lon="3.976">
        <ele>940.79</ele>
        <time>2024-11-24T11:19:39Z</time>
      </trkpt>
      <trkpt lat="45.22831" lon="3.97607">
        <ele>942.23</ele>
        <time>2024-11-24T11:19:52Z</time>
      </trkpt>
      <trkpt lat="45.22841" lon="3.97617">
        <ele>945.59</ele>
        <time>2024-11-24T11:20:05Z</time>
      </trkpt>
      <trkpt lat="45.22851" lon="3.97623">
        <ele>948.96</ele>
        <time>2024-11-24T11:20:17Z</time>
      </trkpt>
      <trkpt lat="45.22862" lon="3.97628">
        <ele>951.36</ele>
        <time>2024-11-24T11:20:29Z</time>
      </trkpt>
      <trkpt lat="45.22876" lon="3.97637">
        <ele>952.8</ele>
        <time>2024-11-24T11:20:43Z</time>
      </trkpt>
      <trkpt lat="45.22885" lon="3.97636">
        <ele>955.21</ele>
        <time>2024-11-24T11:20:56Z</time>
      </trkpt>
      <trkpt lat="45.22891" lon="3.97637">
        <ele>948.96</ele>
        <time>2024-11-24T11:21:10Z</time>
      </trkpt>
      <trkpt lat="45.22893" lon="3.97643">
        <ele>941.75</ele>
        <time>2024-11-24T11:21:25Z</time>
      </trkpt>
      <trkpt lat="45.22898" lon="3.97648">
        <ele>942.23</ele>
        <time>2024-11-24T11:21:35Z</time>
      </trkpt>
      <trkpt lat="45.22909" lon="3.97653">
        <ele>938.38</ele>
        <time>2024-11-24T11:21:48Z</time>
      </trkpt>
      <trkpt lat="45.22915" lon="3.97659">
        <ele>935.5</ele>
        <time>2024-11-24T11:22:00Z</time>
      </trkpt>
      <trkpt lat="45.22926" lon="3.97663">
        <ele>935.5</ele>
        <time>2024-11-24T11:22:13Z</time>
      </trkpt>
      <trkpt lat="45.22933" lon="3.97669">
        <ele>933.1</ele>
        <time>2024-11-24T11:22:27Z</time>
      </trkpt>
      <trkpt lat="45.22942" lon="3.97679">
        <ele>930.21</ele>
        <time>2024-11-24T11:22:39Z</time>
      </trkpt>
      <trkpt lat="45.22948" lon="3.97683">
        <ele>931.17</ele>
        <time>2024-11-24T11:22:46Z</time>
      </trkpt>
      <trkpt lat="45.22953" lon="3.97685">
        <ele>932.62</ele>
        <time>2024-11-24T11:22:51Z</time>
      </trkpt>
      <trkpt lat="45.2297" lon="3.97691">
        <ele>936.46</ele>
        <time>2024-11-24T11:23:05Z</time>
      </trkpt>
      <trkpt lat="45.22977" lon="3.97694">
        <ele>941.27</ele>
        <time>2024-11-24T11:23:20Z</time>
      </trkpt>
      <trkpt lat="45.22981" lon="3.97694">
        <ele>941.75</ele>
        <time>2024-11-24T11:23:28Z</time>
      </trkpt>
      <trkpt lat="45.22989" lon="3.97693">
        <ele>944.63</ele>
        <time>2024-11-24T11:23:38Z</time>
      </trkpt>
      <trkpt lat="45.23003" lon="3.97688">
        <ele>947.04</ele>
        <time>2024-11-24T11:23:52Z</time>
      </trkpt>
      <trkpt lat="45.23019" lon="3.97679">
        <ele>948.96</ele>
        <time>2024-11-24T11:24:07Z</time>
      </trkpt>
      <trkpt lat="45.2302" lon="3.97678">
        <ele>948.96</ele>
        <time>2024-11-24T11:24:08Z</time>
      </trkpt>
      <trkpt lat="45.23022" lon="3.97675">
        <ele>948.48</ele>
        <time>2024-11-24T11:24:10Z</time>
      </trkpt>
      <trkpt lat="45.23036" lon="3.97667">
        <ele>945.59</ele>
        <time>2024-11-24T11:24:23Z</time>
      </trkpt>
      <trkpt lat="45.23051" lon="3.97651">
        <ele>941.27</ele>
        <time>2024-11-24T11:24:37Z</time>
      </trkpt>
      <trkpt lat="45.2306" lon="3.97639">
        <ele>939.83</ele>
        <time>2024-11-24T11:24:49Z</time>
      </trkpt>
      <trkpt lat="45.23074" lon="3.97631">
        <ele>938.86</ele>
        <time>2024-11-24T11:25:04Z</time>
      </trkpt>
      <trkpt lat="45.23084" lon="3.97625">
        <ele>938.38</ele>
        <time>2024-11-24T11:25:12Z</time>
      </trkpt>
      <trkpt lat="45.23099" lon="3.97618">
        <ele>935.02</ele>
        <time>2024-11-24T11:25:27Z</time>
      </trkpt>
      <trkpt lat="45.23103" lon="3.97619">
        <ele>933.58</ele>
        <time>2024-11-24T11:25:30Z</time>
      </trkpt>
      <trkpt lat="45.23113" lon="3.97612">
        <ele>930.21</ele>
        <time>2024-11-24T11:25:38Z</time>
      </trkpt>
      <trkpt lat="45.23123" lon="3.97602">
        <ele>926.85</ele>
        <time>2024-11-24T11:25:52Z</time>
      </trkpt>
      <trkpt lat="45.23129" lon="3.97593">
        <ele>924.93</ele>
        <time>2024-11-24T11:25:59Z</time>
      </trkpt>
      <trkpt lat="45.23132" lon="3.97587">
        <ele>923.48</ele>
        <time>2024-11-24T11:26:02Z</time>
      </trkpt>
      <trkpt lat="45.23144" lon="3.97571">
        <ele>920.6</ele>
        <time>2024-11-24T11:26:16Z</time>
      </trkpt>
      <trkpt lat="45.23151" lon="3.9756">
        <ele>918.2</ele>
        <time>2024-11-24T11:26:26Z</time>
      </trkpt>
      <trkpt lat="45.23155" lon="3.97553">
        <ele>915.79</ele>
        <time>2024-11-24T11:26:32Z</time>
      </trkpt>
      <trkpt lat="45.23165" lon="3.97531">
        <ele>911.95</ele>
        <time>2024-11-24T11:26:47Z</time>
      </trkpt>
      <trkpt lat="45.23174" lon="3.97511">
        <ele>910.51</ele>
        <time>2024-11-24T11:27:00Z</time>
      </trkpt>
      <trkpt lat="45.23183" lon="3.97489">
        <ele>909.06</ele>
        <time>2024-11-24T11:27:14Z</time>
      </trkpt>
      <trkpt lat="45.23197" lon="3.97464">
        <ele>909.06</ele>
        <time>2024-11-24T11:27:30Z</time>
      </trkpt>
      <trkpt lat="45.23208" lon="3.97439">
        <ele>908.58</ele>
        <time>2024-11-24T11:27:45Z</time>
      </trkpt>
      <trkpt lat="45.2322" lon="3.9742">
        <ele>907.14</ele>
        <time>2024-11-24T11:27:58Z</time>
      </trkpt>
      <trkpt lat="45.23221" lon="3.97419">
        <ele>907.14</ele>
        <time>2024-11-24T11:27:59Z</time>
      </trkpt>
      <trkpt lat="45.23232" lon="3.97407">
        <ele>906.18</ele>
        <time>2024-11-24T11:28:07Z</time>
      </trkpt>
      <trkpt lat="45.23249" lon="3.97386">
        <ele>898.49</ele>
        <time>2024-11-24T11:28:24Z</time>
      </trkpt>
      <trkpt lat="45.23254" lon="3.97366">
        <ele>893.68</ele>
        <time>2024-11-24T11:28:39Z</time>
      </trkpt>
      <trkpt lat="45.23268" lon="3.97341">
        <ele>892.72</ele>
        <time>2024-11-24T11:28:55Z</time>
      </trkpt>
      <trkpt lat="45.23277" lon="3.97334">
        <ele>891.28</ele>
        <time>2024-11-24T11:29:03Z</time>
      </trkpt>
      <trkpt lat="45.23291" lon="3.97316">
        <ele>892.72</ele>
        <time>2024-11-24T11:29:18Z</time>
      </trkpt>
      <trkpt lat="45.23296" lon="3.9731">
        <ele>892.72</ele>
        <time>2024-11-24T11:29:24Z</time>
      </trkpt>
      <trkpt lat="45.23298" lon="3.97305">
        <ele>892.72</ele>
        <time>2024-11-24T11:29:28Z</time>
      </trkpt>
      <trkpt lat="45.23318" lon="3.97283">
        <ele>897.53</ele>
        <time>2024-11-24T11:29:45Z</time>
      </trkpt>
      <trkpt lat="45.23332" lon="3.97271">
        <ele>894.64</ele>
        <time>2024-11-24T11:30:00Z</time>
      </trkpt>
      <trkpt lat="45.23338" lon="3.97264">
        <ele>891.28</ele>
        <time>2024-11-24T11:30:09Z</time>
      </trkpt>
      <trkpt lat="45.23343" lon="3.97259">
        <ele>890.32</ele>
        <time>2024-11-24T11:30:13Z</time>
      </trkpt>
      <trkpt lat="45.23348" lon="3.97251">
        <ele>889.84</ele>
        <time>2024-11-24T11:30:18Z</time>
      </trkpt>
      <trkpt lat="45.23364" lon="3.97225">
        <ele>888.4</ele>
        <time>2024-11-24T11:30:36Z</time>
      </trkpt>
      <trkpt lat="45.23372" lon="3.97212">
        <ele>887.43</ele>
        <time>2024-11-24T11:30:49Z</time>
      </trkpt>
      <trkpt lat="45.23375" lon="3.97206">
        <ele>887.43</ele>
        <time>2024-11-24T11:30:53Z</time>
      </trkpt>
      <trkpt lat="45.23393" lon="3.97186">
        <ele>885.51</ele>
        <time>2024-11-24T11:31:10Z</time>
      </trkpt>
      <trkpt lat="45.23398" lon="3.97181">
        <ele>885.51</ele>
        <time>2024-11-24T11:31:16Z</time>
      </trkpt>
      <trkpt lat="45.23402" lon="3.97177">
        <ele>885.51</ele>
        <time>2024-11-24T11:31:20Z</time>
      </trkpt>
      <trkpt lat="45.23424" lon="3.97156">
        <ele>887.91</ele>
        <time>2024-11-24T11:31:38Z</time>
      </trkpt>
      <trkpt lat="45.23438" lon="3.97149">
        <ele>891.76</ele>
        <time>2024-11-24T11:31:52Z</time>
      </trkpt>
      <trkpt lat="45.2345" lon="3.97143">
        <ele>894.16</ele>
        <time>2024-11-24T11:32:03Z</time>
      </trkpt>
      <trkpt lat="45.23468" lon="3.97131">
        <ele>895.12</ele>
        <time>2024-11-24T11:32:19Z</time>
      </trkpt>
      <trkpt lat="45.23477" lon="3.9712">
        <ele>898.49</ele>
        <time>2024-11-24T11:32:31Z</time>
      </trkpt>
      <trkpt lat="45.23486" lon="3.97104">
        <ele>900.41</ele>
        <time>2024-11-24T11:32:46Z</time>
      </trkpt>
      <trkpt lat="45.23497" lon="3.97087">
        <ele>898.97</ele>
        <time>2024-11-24T11:33:01Z</time>
      </trkpt>
      <trkpt lat="45.23509" lon="3.97067">
        <ele>898.49</ele>
        <time>2024-11-24T11:33:18Z</time>
      </trkpt>
      <trkpt lat="45.23512" lon="3.97063">
        <ele>898.49</ele>
        <time>2024-11-24T11:33:21Z</time>
      </trkpt>
      <trkpt lat="45.23514" lon="3.97059">
        <ele>898.49</ele>
        <time>2024-11-24T11:33:24Z</time>
      </trkpt>
      <trkpt lat="45.23515" lon="3.97057">
        <ele>898.97</ele>
        <time>2024-11-24T11:33:26Z</time>
      </trkpt>
      <trkpt lat="45.2352" lon="3.97039">
        <ele>899.45</ele>
        <time>2024-11-24T11:33:39Z</time>
      </trkpt>
      <trkpt lat="45.2352" lon="3.9702">
        <ele>899.93</ele>
        <time>2024-11-24T11:33:53Z</time>
      </trkpt>
      <trkpt lat="45.23519" lon="3.97005">
        <ele>899.93</ele>
        <time>2024-11-24T11:34:06Z</time>
      </trkpt>
      <trkpt lat="45.23516" lon="3.96977">
        <ele>902.82</ele>
        <time>2024-11-24T11:34:22Z</time>
      </trkpt>
      <trkpt lat="45.23515" lon="3.96946">
        <ele>906.66</ele>
        <time>2024-11-24T11:34:38Z</time>
      </trkpt>
      <trkpt lat="45.23515" lon="3.96912">
        <ele>909.54</ele>
        <time>2024-11-24T11:34:56Z</time>
      </trkpt>
      <trkpt lat="45.23513" lon="3.969">
        <ele>909.06</ele>
        <time>2024-11-24T11:35:10Z</time>
      </trkpt>
      <trkpt lat="45.23515" lon="3.96896">
        <ele>909.54</ele>
        <time>2024-11-24T11:35:27Z</time>
      </trkpt>
      <trkpt lat="45.23514" lon="3.96892">
        <ele>909.54</ele>
        <time>2024-11-24T11:35:46Z</time>
      </trkpt>
      <trkpt lat="45.2352" lon="3.96889">
        <ele>910.51</ele>
        <time>2024-11-24T11:35:58Z</time>
      </trkpt>
      <trkpt lat="45.2352" lon="3.9689">
        <ele>911.47</ele>
        <time>2024-11-24T11:36:13Z</time>
      </trkpt>
      <trkpt lat="45.23519" lon="3.96891">
        <ele>910.99</ele>
        <time>2024-11-24T11:36:27Z</time>
      </trkpt>
      <trkpt lat="45.23516" lon="3.9689">
        <ele>910.51</ele>
        <time>2024-11-24T11:36:40Z</time>
      </trkpt>
      <trkpt lat="45.23513" lon="3.9689">
        <ele>910.03</ele>
        <time>2024-11-24T11:36:46Z</time>
      </trkpt>
      <trkpt lat="45.2351" lon="3.96884">
        <ele>908.1</ele>
        <time>2024-11-24T11:36:51Z</time>
      </trkpt>
      <trkpt lat="45.23502" lon="3.96858">
        <ele>910.03</ele>
        <time>2024-11-24T11:37:10Z</time>
      </trkpt>
      <trkpt lat="45.23498" lon="3.96841">
        <ele>910.03</ele>
        <time>2024-11-24T11:37:25Z</time>
      </trkpt>
      <trkpt lat="45.23497" lon="3.96831">
        <ele>909.06</ele>
        <time>2024-11-24T11:37:32Z</time>
      </trkpt>
      <trkpt lat="45.23499" lon="3.96805">
        <ele>909.54</ele>
        <time>2024-11-24T11:37:48Z</time>
      </trkpt>
      <trkpt lat="45.23502" lon="3.96777">
        <ele>910.99</ele>
        <time>2024-11-24T11:38:06Z</time>
      </trkpt>
      <trkpt lat="45.23507" lon="3.96752">
        <ele>911.47</ele>
        <time>2024-11-24T11:38:22Z</time>
      </trkpt>
      <trkpt lat="45.23508" lon="3.96746">
        <ele>911.47</ele>
        <time>2024-11-24T11:38:26Z</time>
      </trkpt>
      <trkpt lat="45.23505" lon="3.96717">
        <ele>909.06</ele>
        <time>2024-11-24T11:38:44Z</time>
      </trkpt>
      <trkpt lat="45.23502" lon="3.96698">
        <ele>908.1</ele>
        <time>2024-11-24T11:38:55Z</time>
      </trkpt>
      <trkpt lat="45.23503" lon="3.96673">
        <ele>908.1</ele>
        <time>2024-11-24T11:39:10Z</time>
      </trkpt>
      <trkpt lat="45.23503" lon="3.96672">
        <ele>908.1</ele>
        <time>2024-11-24T11:39:11Z</time>
      </trkpt>
      <trkpt lat="45.23514" lon="3.96645">
        <ele>906.66</ele>
        <time>2024-11-24T11:39:28Z</time>
      </trkpt>
      <trkpt lat="45.23521" lon="3.96623">
        <ele>904.26</ele>
        <time>2024-11-24T11:39:43Z</time>
      </trkpt>
      <trkpt lat="45.23523" lon="3.96617">
        <ele>904.26</ele>
        <time>2024-11-24T11:39:47Z</time>
      </trkpt>
      <trkpt lat="45.23525" lon="3.96611">
        <ele>903.78</ele>
        <time>2024-11-24T11:39:51Z</time>
      </trkpt>
      <trkpt lat="45.23533" lon="3.96585">
        <ele>901.37</ele>
        <time>2024-11-24T11:40:07Z</time>
      </trkpt>
      <trkpt lat="45.23539" lon="3.96563">
        <ele>899.93</ele>
        <time>2024-11-24T11:40:20Z</time>
      </trkpt>
      <trkpt lat="45.23547" lon="3.96536">
        <ele>896.57</ele>
        <time>2024-11-24T11:40:37Z</time>
      </trkpt>
      <trkpt lat="45.23552" lon="3.96514">
        <ele>893.68</ele>
        <time>2024-11-24T11:40:52Z</time>
      </trkpt>
      <trkpt lat="45.2356" lon="3.96487">
        <ele>895.12</ele>
        <time>2024-11-24T11:41:10Z</time>
      </trkpt>
      <trkpt lat="45.23569" lon="3.96458">
        <ele>894.64</ele>
        <time>2024-11-24T11:41:28Z</time>
      </trkpt>
      <trkpt lat="45.23578" lon="3.96432">
        <ele>893.68</ele>
        <time>2024-11-24T11:41:45Z</time>
      </trkpt>
      <trkpt lat="45.23588" lon="3.96409">
        <ele>891.76</ele>
        <time>2024-11-24T11:42:00Z</time>
      </trkpt>
      <trkpt lat="45.23597" lon="3.96382">
        <ele>890.32</ele>
        <time>2024-11-24T11:42:18Z</time>
      </trkpt>
      <trkpt lat="45.23597" lon="3.96381">
        <ele>890.32</ele>
        <time>2024-11-24T11:42:19Z</time>
      </trkpt>
      <trkpt lat="45.23602" lon="3.96349">
        <ele>890.8</ele>
        <time>2024-11-24T11:42:40Z</time>
      </trkpt>
      <trkpt lat="45.23603" lon="3.96344">
        <ele>890.32</ele>
        <time>2024-11-24T11:42:45Z</time>
      </trkpt>
      <trkpt lat="45.23608" lon="3.96337">
        <ele>889.36</ele>
        <time>2024-11-24T11:42:58Z</time>
      </trkpt>
      <trkpt lat="45.23611" lon="3.96335">
        <ele>888.4</ele>
        <time>2024-11-24T11:43:11Z</time>
      </trkpt>
      <trkpt lat="45.23612" lon="3.96337">
        <ele>886.95</ele>
        <time>2024-11-24T11:43:24Z</time>
      </trkpt>
      <trkpt lat="45.23614" lon="3.96339">
        <ele>886.95</ele>
        <time>2024-11-24T11:43:27Z</time>
      </trkpt>
      <trkpt lat="45.23631" lon="3.96353">
        <ele>883.11</ele>
        <time>2024-11-24T11:43:47Z</time>
      </trkpt>
      <trkpt lat="45.23639" lon="3.96359">
        <ele>882.15</ele>
        <time>2024-11-24T11:43:55Z</time>
      </trkpt>
      <trkpt lat="45.23655" lon="3.96378">
        <ele>882.63</ele>
        <time>2024-11-24T11:44:12Z</time>
      </trkpt>
      <trkpt lat="45.23664" lon="3.96394">
        <ele>882.63</ele>
        <time>2024-11-24T11:44:26Z</time>
      </trkpt>
      <trkpt lat="45.23685" lon="3.96417">
        <ele>882.63</ele>
        <time>2024-11-24T11:44:47Z</time>
      </trkpt>
      <trkpt lat="45.23709" lon="3.96436">
        <ele>882.63</ele>
        <time>2024-11-24T11:45:08Z</time>
      </trkpt>
      <trkpt lat="45.23728" lon="3.96443">
        <ele>882.63</ele>
        <time>2024-11-24T11:45:23Z</time>
      </trkpt>
      <trkpt lat="45.23752" lon="3.96453">
        <ele>883.59</ele>
        <time>2024-11-24T11:45:42Z</time>
      </trkpt>
      <trkpt lat="45.23771" lon="3.96468">
        <ele>886.47</ele>
        <time>2024-11-24T11:45:59Z</time>
      </trkpt>
      <trkpt lat="45.23788" lon="3.96485">
        <ele>889.36</ele>
        <time>2024-11-24T11:46:16Z</time>
      </trkpt>
      <trkpt lat="45.23805" lon="3.96502">
        <ele>891.76</ele>
        <time>2024-11-24T11:46:33Z</time>
      </trkpt>
      <trkpt lat="45.2382" lon="3.96518">
        <ele>893.2</ele>
        <time>2024-11-24T11:46:49Z</time>
      </trkpt>
      <trkpt lat="45.23835" lon="3.96531">
        <ele>894.64</ele>
        <time>2024-11-24T11:47:04Z</time>
      </trkpt>
      <trkpt lat="45.23851" lon="3.96549">
        <ele>896.09</ele>
        <time>2024-11-24T11:47:21Z</time>
      </trkpt>
      <trkpt lat="45.23871" lon="3.96576">
        <ele>896.09</ele>
        <time>2024-11-24T11:47:43Z</time>
      </trkpt>
      <trkpt lat="45.23874" lon="3.9658">
        <ele>896.09</ele>
        <time>2024-11-24T11:47:46Z</time>
      </trkpt>
      <trkpt lat="45.23895" lon="3.96588">
        <ele>895.12</ele>
        <time>2024-11-24T11:48:04Z</time>
      </trkpt>
      <trkpt lat="45.23897" lon="3.96588">
        <ele>895.12</ele>
        <time>2024-11-24T11:48:07Z</time>
      </trkpt>
      <trkpt lat="45.23915" lon="3.96587">
        <ele>893.68</ele>
        <time>2024-11-24T11:48:24Z</time>
      </trkpt>
      <trkpt lat="45.23924" lon="3.96585">
        <ele>893.2</ele>
        <time>2024-11-24T11:48:33Z</time>
      </trkpt>
      <trkpt lat="45.23929" lon="3.96583">
        <ele>893.68</ele>
        <time>2024-11-24T11:48:38Z</time>
      </trkpt>
      <trkpt lat="45.23935" lon="3.96581">
        <ele>892.72</ele>
        <time>2024-11-24T11:48:54Z</time>
      </trkpt>
      <trkpt lat="45.23938" lon="3.96582">
        <ele>891.76</ele>
        <time>2024-11-24T11:49:06Z</time>
      </trkpt>
      <trkpt lat="45.23939" lon="3.96583">
        <ele>891.76</ele>
        <time>2024-11-24T11:49:30Z</time>
      </trkpt>
      <trkpt lat="45.23941" lon="3.96583">
        <ele>891.28</ele>
        <time>2024-11-24T11:49:45Z</time>
      </trkpt>
      <trkpt lat="45.23945" lon="3.96578">
        <ele>891.28</ele>
        <time>2024-11-24T11:49:52Z</time>
      </trkpt>
      <trkpt lat="45.23967" lon="3.96574">
        <ele>890.32</ele>
        <time>2024-11-24T11:50:11Z</time>
      </trkpt>
      <trkpt lat="45.23986" lon="3.96572">
        <ele>888.4</ele>
        <time>2024-11-24T11:50:27Z</time>
      </trkpt>
      <trkpt lat="45.24006" lon="3.96575">
        <ele>888.4</ele>
        <time>2024-11-24T11:50:44Z</time>
      </trkpt>
      <trkpt lat="45.24012" lon="3.9657">
        <ele>888.4</ele>
        <time>2024-11-24T11:50:58Z</time>
      </trkpt>
      <trkpt lat="45.24013" lon="3.96571">
        <ele>887.91</ele>
        <time>2024-11-24T11:51:12Z</time>
      </trkpt>
      <trkpt lat="45.24014" lon="3.96572">
        <ele>887.91</ele>
        <time>2024-11-24T11:51:25Z</time>
      </trkpt>
      <trkpt lat="45.24015" lon="3.96574">
        <ele>887.43</ele>
        <time>2024-11-24T11:51:32Z</time>
      </trkpt>
      <trkpt lat="45.2402" lon="3.96579">
        <ele>886.95</ele>
        <time>2024-11-24T11:51:37Z</time>
      </trkpt>
      <trkpt lat="45.24031" lon="3.96602">
        <ele>884.07</ele>
        <time>2024-11-24T11:51:55Z</time>
      </trkpt>
      <trkpt lat="45.2404" lon="3.96612">
        <ele>882.15</ele>
        <time>2024-11-24T11:52:09Z</time>
      </trkpt>
      <trkpt lat="45.24053" lon="3.96613">
        <ele>880.71</ele>
        <time>2024-11-24T11:52:20Z</time>
      </trkpt>
      <trkpt lat="45.24073" lon="3.96626">
        <ele>882.15</ele>
        <time>2024-11-24T11:52:37Z</time>
      </trkpt>
      <trkpt lat="45.24092" lon="3.96637">
        <ele>881.67</ele>
        <time>2024-11-24T11:52:53Z</time>
      </trkpt>
      <trkpt lat="45.24118" lon="3.96641">
        <ele>880.71</ele>
        <time>2024-11-24T11:53:12Z</time>
      </trkpt>
      <trkpt lat="45.24132" lon="3.9664">
        <ele>881.19</ele>
        <time>2024-11-24T11:53:24Z</time>
      </trkpt>
      <trkpt lat="45.24145" lon="3.96638">
        <ele>881.19</ele>
        <time>2024-11-24T11:53:40Z</time>
      </trkpt>
      <trkpt lat="45.24152" lon="3.96638">
        <ele>881.67</ele>
        <time>2024-11-24T11:53:53Z</time>
      </trkpt>
      <trkpt lat="45.24156" lon="3.96637">
        <ele>882.15</ele>
        <time>2024-11-24T11:54:17Z</time>
      </trkpt>
      <trkpt lat="45.24155" lon="3.96639">
        <ele>883.59</ele>
        <time>2024-11-24T11:54:38Z</time>
      </trkpt>
      <trkpt lat="45.24151" lon="3.96648">
        <ele>886.47</ele>
        <time>2024-11-24T11:55:16Z</time>
      </trkpt>
      <trkpt lat="45.2415" lon="3.96647">
        <ele>889.84</ele>
        <time>2024-11-24T11:55:52Z</time>
      </trkpt>
      <trkpt lat="45.24151" lon="3.96644">
        <ele>891.28</ele>
        <time>2024-11-24T11:56:27Z</time>
      </trkpt>
      <trkpt lat="45.24152" lon="3.96642">
        <ele>890.32</ele>
        <time>2024-11-24T11:56:53Z</time>
      </trkpt>
      <trkpt lat="45.24152" lon="3.96643">
        <ele>886.95</ele>
        <time>2024-11-24T11:57:24Z</time>
      </trkpt>
      <trkpt lat="45.24155" lon="3.9665">
        <ele>887.43</ele>
        <time>2024-11-24T11:57:55Z</time>
      </trkpt>
      <trkpt lat="45.24152" lon="3.96653">
        <ele>886.47</ele>
        <time>2024-11-24T11:58:24Z</time>
      </trkpt>
      <trkpt lat="45.24153" lon="3.96655">
        <ele>888.4</ele>
        <time>2024-11-24T11:58:54Z</time>
      </trkpt>
      <trkpt lat="45.24153" lon="3.96651">
        <ele>887.43</ele>
        <time>2024-11-24T11:59:23Z</time>
      </trkpt>
      <trkpt lat="45.24154" lon="3.96647">
        <ele>888.4</ele>
        <time>2024-11-24T11:59:55Z</time>
      </trkpt>
      <trkpt lat="45.24156" lon="3.96649">
        <ele>887.43</ele>
        <time>2024-11-24T12:00:35Z</time>
      </trkpt>
      <trkpt lat="45.24157" lon="3.9665">
        <ele>887.91</ele>
        <time>2024-11-24T12:01:06Z</time>
      </trkpt>
      <trkpt lat="45.24156" lon="3.96651">
        <ele>888.4</ele>
        <time>2024-11-24T12:01:39Z</time>
      </trkpt>
      <trkpt lat="45.24156" lon="3.96652">
        <ele>888.88</ele>
        <time>2024-11-24T12:02:10Z</time>
      </trkpt>
      <trkpt lat="45.24157" lon="3.96651">
        <ele>888.88</ele>
        <time>2024-11-24T12:02:47Z</time>
      </trkpt>
      <trkpt lat="45.24158" lon="3.96652">
        <ele>887.91</ele>
        <time>2024-11-24T12:03:23Z</time>
      </trkpt>
      <trkpt lat="45.24157" lon="3.96652">
        <ele>887.91</ele>
        <time>2024-11-24T12:04:00Z</time>
      </trkpt>
      <trkpt lat="45.24158" lon="3.96653">
        <ele>888.88</ele>
        <time>2024-11-24T12:04:32Z</time>
      </trkpt>
      <trkpt lat="45.24157" lon="3.96651">
        <ele>889.84</ele>
        <time>2024-11-24T12:05:07Z</time>
      </trkpt>
      <trkpt lat="45.24155" lon="3.96652">
        <ele>890.32</ele>
        <time>2024-11-24T12:05:35Z</time>
      </trkpt>
      <trkpt lat="45.24153" lon="3.96651">
        <ele>890.8</ele>
        <time>2024-11-24T12:06:11Z</time>
      </trkpt>
      <trkpt lat="45.24154" lon="3.96653">
        <ele>891.76</ele>
        <time>2024-11-24T12:06:47Z</time>
      </trkpt>
      <trkpt lat="45.24154" lon="3.96656">
        <ele>887.43</ele>
        <time>2024-11-24T12:07:27Z</time>
      </trkpt>
      <trkpt lat="45.24154" lon="3.96652">
        <ele>885.99</ele>
        <time>2024-11-24T12:08:04Z</time>
      </trkpt>
      <trkpt lat="45.24154" lon="3.96654">
        <ele>887.43</ele>
        <time>2024-11-24T12:08:35Z</time>
      </trkpt>
      <trkpt lat="45.24153" lon="3.96655">
        <ele>888.4</ele>
        <time>2024-11-24T12:09:05Z</time>
      </trkpt>
      <trkpt lat="45.24153" lon="3.96656">
        <ele>886.95</ele>
        <time>2024-11-24T12:09:47Z</time>
      </trkpt>
      <trkpt lat="45.24153" lon="3.96657">
        <ele>885.99</ele>
        <time>2024-11-24T12:10:26Z</time>
      </trkpt>
      <trkpt lat="45.24153" lon="3.96655">
        <ele>887.43</ele>
        <time>2024-11-24T12:10:55Z</time>
      </trkpt>
      <trkpt lat="45.24155" lon="3.96652">
        <ele>888.4</ele>
        <time>2024-11-24T12:11:31Z</time>
      </trkpt>
      <trkpt lat="45.24153" lon="3.96653">
        <ele>891.76</ele>
        <time>2024-11-24T12:12:12Z</time>
      </trkpt>
      <trkpt lat="45.24155" lon="3.96654">
        <ele>892.72</ele>
        <time>2024-11-24T12:12:45Z</time>
      </trkpt>
      <trkpt lat="45.24154" lon="3.96654">
        <ele>890.8</ele>
        <time>2024-11-24T12:13:17Z</time>
      </trkpt>
      <trkpt lat="45.24155" lon="3.96653">
        <ele>893.2</ele>
        <time>2024-11-24T12:13:43Z</time>
      </trkpt>
      <trkpt lat="45.24153" lon="3.96653">
        <ele>892.72</ele>
        <time>2024-11-24T12:14:14Z</time>
      </trkpt>
      <trkpt lat="45.24153" lon="3.96651">
        <ele>892.24</ele>
        <time>2024-11-24T12:14:41Z</time>
      </trkpt>
      <trkpt lat="45.24152" lon="3.96647">
        <ele>888.4</ele>
        <time>2024-11-24T12:15:10Z</time>
      </trkpt>
      <trkpt lat="45.24151" lon="3.96651">
        <ele>891.28</ele>
        <time>2024-11-24T12:15:47Z</time>
      </trkpt>
      <trkpt lat="45.24154" lon="3.96648">
        <ele>889.36</ele>
        <time>2024-11-24T12:16:19Z</time>
      </trkpt>
      <trkpt lat="45.24153" lon="3.96647">
        <ele>888.88</ele>
        <time>2024-11-24T12:16:52Z</time>
      </trkpt>
      <trkpt lat="45.24154" lon="3.96646">
        <ele>886.47</ele>
        <time>2024-11-24T12:17:31Z</time>
      </trkpt>
      <trkpt lat="45.24156" lon="3.96648">
        <ele>886.95</ele>
        <time>2024-11-24T12:18:07Z</time>
      </trkpt>
      <trkpt lat="45.24153" lon="3.96645">
        <ele>886.95</ele>
        <time>2024-11-24T12:18:44Z</time>
      </trkpt>
      <trkpt lat="45.24152" lon="3.96643">
        <ele>887.43</ele>
        <time>2024-11-24T12:19:25Z</time>
      </trkpt>
      <trkpt lat="45.24154" lon="3.96642">
        <ele>883.11</ele>
        <time>2024-11-24T12:20:04Z</time>
      </trkpt>
      <trkpt lat="45.24156" lon="3.96639">
        <ele>884.07</ele>
        <time>2024-11-24T12:20:30Z</time>
      </trkpt>
      <trkpt lat="45.24157" lon="3.96641">
        <ele>884.55</ele>
        <time>2024-11-24T12:20:40Z</time>
      </trkpt>
      <trkpt lat="45.24156" lon="3.9664">
        <ele>885.99</ele>
        <time>2024-11-24T12:20:57Z</time>
      </trkpt>
      <trkpt lat="45.24156" lon="3.96637">
        <ele>888.88</ele>
        <time>2024-11-24T12:21:12Z</time>
      </trkpt>
      <trkpt lat="45.24156" lon="3.96629">
        <ele>888.4</ele>
        <time>2024-11-24T12:21:24Z</time>
      </trkpt>
      <trkpt lat="45.24158" lon="3.96627">
        <ele>888.88</ele>
        <time>2024-11-24T12:21:38Z</time>
      </trkpt>
      <trkpt lat="45.24162" lon="3.96625">
        <ele>887.43</ele>
        <time>2024-11-24T12:21:50Z</time>
      </trkpt>
      <trkpt lat="45.24167" lon="3.96622">
        <ele>887.43</ele>
        <time>2024-11-24T12:22:03Z</time>
      </trkpt>
      <trkpt lat="45.24174" lon="3.96618">
        <ele>886.95</ele>
        <time>2024-11-24T12:22:15Z</time>
      </trkpt>
      <trkpt lat="45.24188" lon="3.96616">
        <ele>885.51</ele>
        <time>2024-11-24T12:22:31Z</time>
      </trkpt>
      <trkpt lat="45.24195" lon="3.96614">
        <ele>884.07</ele>
        <time>2024-11-24T12:22:42Z</time>
      </trkpt>
      <trkpt lat="45.24205" lon="3.96609">
        <ele>883.11</ele>
        <time>2024-11-24T12:22:54Z</time>
      </trkpt>
      <trkpt lat="45.24219" lon="3.96605">
        <ele>883.59</ele>
        <time>2024-11-24T12:23:09Z</time>
      </trkpt>
      <trkpt lat="45.24237" lon="3.96603">
        <ele>883.11</ele>
        <time>2024-11-24T12:23:27Z</time>
      </trkpt>
      <trkpt lat="45.24252" lon="3.9661">
        <ele>881.67</ele>
        <time>2024-11-24T12:23:42Z</time>
      </trkpt>
      <trkpt lat="45.24264" lon="3.96618">
        <ele>881.19</ele>
        <time>2024-11-24T12:23:56Z</time>
      </trkpt>
      <trkpt lat="45.24274" lon="3.96626">
        <ele>881.19</ele>
        <time>2024-11-24T12:24:07Z</time>
      </trkpt>
      <trkpt lat="45.24276" lon="3.96626">
        <ele>880.71</ele>
        <time>2024-11-24T12:24:09Z</time>
      </trkpt>
      <trkpt lat="45.24294" lon="3.96639">
        <ele>880.22</ele>
        <time>2024-11-24T12:24:26Z</time>
      </trkpt>
      <trkpt lat="45.24311" lon="3.96656">
        <ele>880.71</ele>
        <time>2024-11-24T12:24:43Z</time>
      </trkpt>
      <trkpt lat="45.24326" lon="3.96672">
        <ele>880.22</ele>
        <time>2024-11-24T12:24:59Z</time>
      </trkpt>
      <trkpt lat="45.24343" lon="3.96688">
        <ele>880.71</ele>
        <time>2024-11-24T12:25:15Z</time>
      </trkpt>
      <trkpt lat="45.2436" lon="3.96705">
        <ele>882.63</ele>
        <time>2024-11-24T12:25:34Z</time>
      </trkpt>
      <trkpt lat="45.24371" lon="3.96714">
        <ele>885.99</ele>
        <time>2024-11-24T12:25:49Z</time>
      </trkpt>
      <trkpt lat="45.24381" lon="3.96725">
        <ele>887.43</ele>
        <time>2024-11-24T12:26:03Z</time>
      </trkpt>
      <trkpt lat="45.24396" lon="3.96741">
        <ele>889.84</ele>
        <time>2024-11-24T12:26:20Z</time>
      </trkpt>
      <trkpt lat="45.24408" lon="3.96754">
        <ele>888.88</ele>
        <time>2024-11-24T12:26:34Z</time>
      </trkpt>
      <trkpt lat="45.24416" lon="3.96759">
        <ele>889.84</ele>
        <time>2024-11-24T12:26:49Z</time>
      </trkpt>
      <trkpt lat="45.2442" lon="3.96768">
        <ele>889.84</ele>
        <time>2024-11-24T12:27:00Z</time>
      </trkpt>
      <trkpt lat="45.24432" lon="3.96786">
        <ele>888.88</ele>
        <time>2024-11-24T12:27:15Z</time>
      </trkpt>
      <trkpt lat="45.24446" lon="3.96807">
        <ele>889.36</ele>
        <time>2024-11-24T12:27:31Z</time>
      </trkpt>
      <trkpt lat="45.24461" lon="3.96828">
        <ele>886.95</ele>
        <time>2024-11-24T12:27:48Z</time>
      </trkpt>
      <trkpt lat="45.24475" lon="3.9685">
        <ele>882.63</ele>
        <time>2024-11-24T12:28:04Z</time>
      </trkpt>
      <trkpt lat="45.24489" lon="3.96873">
        <ele>880.22</ele>
        <time>2024-11-24T12:28:21Z</time>
      </trkpt>
      <trkpt lat="45.24502" lon="3.96894">
        <ele>881.67</ele>
        <time>2024-11-24T12:28:38Z</time>
      </trkpt>
      <trkpt lat="45.24514" lon="3.96919">
        <ele>881.67</ele>
        <time>2024-11-24T12:28:55Z</time>
      </trkpt>
      <trkpt lat="45.24525" lon="3.96943">
        <ele>880.71</ele>
        <time>2024-11-24T12:29:11Z</time>
      </trkpt>
      <trkpt lat="45.24533" lon="3.9697">
        <ele>880.22</ele>
        <time>2024-11-24T12:29:28Z</time>
      </trkpt>
      <trkpt lat="45.24538" lon="3.96997">
        <ele>876.86</ele>
        <time>2024-11-24T12:29:44Z</time>
      </trkpt>
      <trkpt lat="45.24542" lon="3.97021">
        <ele>876.38</ele>
        <time>2024-11-24T12:29:58Z</time>
      </trkpt>
      <trkpt lat="45.24548" lon="3.97045">
        <ele>874.94</ele>
        <time>2024-11-24T12:30:14Z</time>
      </trkpt>
      <trkpt lat="45.24557" lon="3.97066">
        <ele>873.01</ele>
        <time>2024-11-24T12:30:30Z</time>
      </trkpt>
      <trkpt lat="45.24557" lon="3.97068">
        <ele>873.01</ele>
        <time>2024-11-24T12:30:31Z</time>
      </trkpt>
      <trkpt lat="45.24561" lon="3.97082">
        <ele>870.61</ele>
        <time>2024-11-24T12:30:41Z</time>
      </trkpt>
      <trkpt lat="45.24563" lon="3.97086">
        <ele>869.65</ele>
        <time>2024-11-24T12:30:44Z</time>
      </trkpt>
      <trkpt lat="45.24571" lon="3.97116">
        <ele>867.73</ele>
        <time>2024-11-24T12:31:02Z</time>
      </trkpt>
      <trkpt lat="45.24577" lon="3.97138">
        <ele>864.84</ele>
        <time>2024-11-24T12:31:17Z</time>
      </trkpt>
      <trkpt lat="45.24586" lon="3.97169">
        <ele>862.44</ele>
        <time>2024-11-24T12:31:35Z</time>
      </trkpt>
      <trkpt lat="45.24596" lon="3.97198">
        <ele>861.48</ele>
        <time>2024-11-24T12:31:52Z</time>
      </trkpt>
      <trkpt lat="45.24606" lon="3.97227">
        <ele>859.56</ele>
        <time>2024-11-24T12:32:08Z</time>
      </trkpt>
      <trkpt lat="45.24612" lon="3.97264">
        <ele>858.11</ele>
        <time>2024-11-24T12:32:27Z</time>
      </trkpt>
      <trkpt lat="45.24619" lon="3.97302">
        <ele>857.15</ele>
        <time>2024-11-24T12:32:48Z</time>
      </trkpt>
      <trkpt lat="45.24627" lon="3.97332">
        <ele>857.63</ele>
        <time>2024-11-24T12:33:05Z</time>
      </trkpt>
      <trkpt lat="45.2464" lon="3.97363">
        <ele>857.63</ele>
        <time>2024-11-24T12:33:24Z</time>
      </trkpt>
      <trkpt lat="45.2465" lon="3.97386">
        <ele>857.15</ele>
        <time>2024-11-24T12:33:40Z</time>
      </trkpt>
      <trkpt lat="45.2466" lon="3.9741">
        <ele>856.67</ele>
        <time>2024-11-24T12:33:56Z</time>
      </trkpt>
      <trkpt lat="45.24664" lon="3.97438">
        <ele>858.11</ele>
        <time>2024-11-24T12:34:12Z</time>
      </trkpt>
      <trkpt lat="45.24679" lon="3.97462">
        <ele>857.15</ele>
        <time>2024-11-24T12:34:29Z</time>
      </trkpt>
      <trkpt lat="45.24702" lon="3.97478">
        <ele>856.67</ele>
        <time>2024-11-24T12:34:48Z</time>
      </trkpt>
      <trkpt lat="45.24721" lon="3.9749">
        <ele>860.52</ele>
        <time>2024-11-24T12:35:05Z</time>
      </trkpt>
      <trkpt lat="45.24736" lon="3.97495">
        <ele>866.29</ele>
        <time>2024-11-24T12:35:19Z</time>
      </trkpt>
      <trkpt lat="45.24741" lon="3.97499">
        <ele>868.69</ele>
        <time>2024-11-24T12:35:24Z</time>
      </trkpt>
      <trkpt lat="45.24751" lon="3.97506">
        <ele>871.57</ele>
        <time>2024-11-24T12:35:34Z</time>
      </trkpt>
      <trkpt lat="45.2476" lon="3.97514">
        <ele>873.5</ele>
        <time>2024-11-24T12:35:42Z</time>
      </trkpt>
      <trkpt lat="45.24778" lon="3.97535">
        <ele>875.42</ele>
        <time>2024-11-24T12:35:59Z</time>
      </trkpt>
      <trkpt lat="45.24795" lon="3.97549">
        <ele>874.94</ele>
        <time>2024-11-24T12:36:14Z</time>
      </trkpt>
      <trkpt lat="45.24815" lon="3.97557">
        <ele>873.98</ele>
        <time>2024-11-24T12:36:31Z</time>
      </trkpt>
      <trkpt lat="45.24827" lon="3.97564">
        <ele>875.9</ele>
        <time>2024-11-24T12:36:41Z</time>
      </trkpt>
      <trkpt lat="45.24841" lon="3.97571">
        <ele>876.38</ele>
        <time>2024-11-24T12:36:59Z</time>
      </trkpt>
      <trkpt lat="45.2485" lon="3.97576">
        <ele>875.9</ele>
        <time>2024-11-24T12:37:08Z</time>
      </trkpt>
      <trkpt lat="45.24859" lon="3.97581">
        <ele>875.42</ele>
        <time>2024-11-24T12:37:15Z</time>
      </trkpt>
      <trkpt lat="45.2486" lon="3.97583">
        <ele>875.42</ele>
        <time>2024-11-24T12:37:18Z</time>
      </trkpt>
      <trkpt lat="45.24882" lon="3.976">
        <ele>873.98</ele>
        <time>2024-11-24T12:37:36Z</time>
      </trkpt>
      <trkpt lat="45.24902" lon="3.97621">
        <ele>872.05</ele>
        <time>2024-11-24T12:37:54Z</time>
      </trkpt>
      <trkpt lat="45.24909" lon="3.97626">
        <ele>871.57</ele>
        <time>2024-11-24T12:38:00Z</time>
      </trkpt>
      <trkpt lat="45.2493" lon="3.97644">
        <ele>870.13</ele>
        <time>2024-11-24T12:38:18Z</time>
      </trkpt>
      <trkpt lat="45.24953" lon="3.97658">
        <ele>868.69</ele>
        <time>2024-11-24T12:38:35Z</time>
      </trkpt>
      <trkpt lat="45.24974" lon="3.97668">
        <ele>868.69</ele>
        <time>2024-11-24T12:38:51Z</time>
      </trkpt>
      <trkpt lat="45.24996" lon="3.97672">
        <ele>868.21</ele>
        <time>2024-11-24T12:39:08Z</time>
      </trkpt>
      <trkpt lat="45.25013" lon="3.97674">
        <ele>868.21</ele>
        <time>2024-11-24T12:39:23Z</time>
      </trkpt>
      <trkpt lat="45.25015" lon="3.97673">
        <ele>868.21</ele>
        <time>2024-11-24T12:39:25Z</time>
      </trkpt>
      <trkpt lat="45.25034" lon="3.97677">
        <ele>868.21</ele>
        <time>2024-11-24T12:39:40Z</time>
      </trkpt>
      <trkpt lat="45.25055" lon="3.9768">
        <ele>867.73</ele>
        <time>2024-11-24T12:39:56Z</time>
      </trkpt>
      <trkpt lat="45.25075" lon="3.97683">
        <ele>867.25</ele>
        <time>2024-11-24T12:40:12Z</time>
      </trkpt>
      <trkpt lat="45.25077" lon="3.97684">
        <ele>866.77</ele>
        <time>2024-11-24T12:40:14Z</time>
      </trkpt>
      <trkpt lat="45.25097" lon="3.97688">
        <ele>866.77</ele>
        <time>2024-11-24T12:40:30Z</time>
      </trkpt>
      <trkpt lat="45.25104" lon="3.97691">
        <ele>865.8</ele>
        <time>2024-11-24T12:40:36Z</time>
      </trkpt>
      <trkpt lat="45.25123" lon="3.97706">
        <ele>861.48</ele>
        <time>2024-11-24T12:40:53Z</time>
      </trkpt>
      <trkpt lat="45.2513" lon="3.97712">
        <ele>859.56</ele>
        <time>2024-11-24T12:40:59Z</time>
      </trkpt>
      <trkpt lat="45.25142" lon="3.97718">
        <ele>858.11</ele>
        <time>2024-11-24T12:41:14Z</time>
      </trkpt>
      <trkpt lat="45.25159" lon="3.97713">
        <ele>858.11</ele>
        <time>2024-11-24T12:41:30Z</time>
      </trkpt>
      <trkpt lat="45.25178" lon="3.97712">
        <ele>857.63</ele>
        <time>2024-11-24T12:41:45Z</time>
      </trkpt>
      <trkpt lat="45.25181" lon="3.97713">
        <ele>857.63</ele>
        <time>2024-11-24T12:41:47Z</time>
      </trkpt>
      <trkpt lat="45.25193" lon="3.97711">
        <ele>857.63</ele>
        <time>2024-11-24T12:41:58Z</time>
      </trkpt>
      <trkpt lat="45.25217" lon="3.9771">
        <ele>859.08</ele>
        <time>2024-11-24T12:42:17Z</time>
      </trkpt>
      <trkpt lat="45.25238" lon="3.97713">
        <ele>860.52</ele>
        <time>2024-11-24T12:42:33Z</time>
      </trkpt>
      <trkpt lat="45.25261" lon="3.97723">
        <ele>859.08</ele>
        <time>2024-11-24T12:42:49Z</time>
      </trkpt>
      <trkpt lat="45.25288" lon="3.97746">
        <ele>856.19</ele>
        <time>2024-11-24T12:43:10Z</time>
      </trkpt>
      <trkpt lat="45.2531" lon="3.9776">
        <ele>854.27</ele>
        <time>2024-11-24T12:43:27Z</time>
      </trkpt>
      <trkpt lat="45.25333" lon="3.97774">
        <ele>851.38</ele>
        <time>2024-11-24T12:43:45Z</time>
      </trkpt>
      <trkpt lat="45.25358" lon="3.97788">
        <ele>849.46</ele>
        <time>2024-11-24T12:44:04Z</time>
      </trkpt>
      <trkpt lat="45.25381" lon="3.97801">
        <ele>849.46</ele>
        <time>2024-11-24T12:44:23Z</time>
      </trkpt>
      <trkpt lat="45.25399" lon="3.97813">
        <ele>849.46</ele>
        <time>2024-11-24T12:44:39Z</time>
      </trkpt>
      <trkpt lat="45.25414" lon="3.97825">
        <ele>848.5</ele>
        <time>2024-11-24T12:44:55Z</time>
      </trkpt>
      <trkpt lat="45.25429" lon="3.97841">
        <ele>848.5</ele>
        <time>2024-11-24T12:45:12Z</time>
      </trkpt>
      <trkpt lat="45.25433" lon="3.9784">
        <ele>849.46</ele>
        <time>2024-11-24T12:45:23Z</time>
      </trkpt>
      <trkpt lat="45.25433" lon="3.9784">
        <ele>848.98</ele>
        <time>2024-11-24T12:45:34Z</time>
      </trkpt>
      <trkpt lat="45.25432" lon="3.97841">
        <ele>847.06</ele>
        <time>2024-11-24T12:45:54Z</time>
      </trkpt>
      <trkpt lat="45.25432" lon="3.97838">
        <ele>847.06</ele>
        <time>2024-11-24T12:45:57Z</time>
      </trkpt>
      <trkpt lat="45.2543" lon="3.97822">
        <ele>846.58</ele>
        <time>2024-11-24T12:46:11Z</time>
      </trkpt>
      <trkpt lat="45.25431" lon="3.97819">
        <ele>847.54</ele>
        <time>2024-11-24T12:46:22Z</time>
      </trkpt>
      <trkpt lat="45.25429" lon="3.97818">
        <ele>848.5</ele>
        <time>2024-11-24T12:46:36Z</time>
      </trkpt>
      <trkpt lat="45.25428" lon="3.9781">
        <ele>847.06</ele>
        <time>2024-11-24T12:46:43Z</time>
      </trkpt>
      <trkpt lat="45.25422" lon="3.9778">
        <ele>845.62</ele>
        <time>2024-11-24T12:47:02Z</time>
      </trkpt>
      <trkpt lat="45.25417" lon="3.97745">
        <ele>844.18</ele>
        <time>2024-11-24T12:47:22Z</time>
      </trkpt>
      <trkpt lat="45.25412" lon="3.97709">
        <ele>842.25</ele>
        <time>2024-11-24T12:47:42Z</time>
      </trkpt>
      <trkpt lat="45.25408" lon="3.97677">
        <ele>843.21</ele>
        <time>2024-11-24T12:48:00Z</time>
      </trkpt>
      <trkpt lat="45.25411" lon="3.97644">
        <ele>841.77</ele>
        <time>2024-11-24T12:48:19Z</time>
      </trkpt>
      <trkpt lat="45.25418" lon="3.97616">
        <ele>840.81</ele>
        <time>2024-11-24T12:48:36Z</time>
      </trkpt>
      <trkpt lat="45.25428" lon="3.9759">
        <ele>838.41</ele>
        <time>2024-11-24T12:48:52Z</time>
      </trkpt>
      <trkpt lat="45.25438" lon="3.97562">
        <ele>835.52</ele>
        <time>2024-11-24T12:49:09Z</time>
      </trkpt>
      <trkpt lat="45.25441" lon="3.97545">
        <ele>834.56</ele>
        <time>2024-11-24T12:49:19Z</time>
      </trkpt>
      <trkpt lat="45.25442" lon="3.97542">
        <ele>834.56</ele>
        <time>2024-11-24T12:49:21Z</time>
      </trkpt>
      <trkpt lat="45.25443" lon="3.97513">
        <ele>832.16</ele>
        <time>2024-11-24T12:49:38Z</time>
      </trkpt>
      <trkpt lat="45.25443" lon="3.97508">
        <ele>832.16</ele>
        <time>2024-11-24T12:49:41Z</time>
      </trkpt>
      <trkpt lat="45.25446" lon="3.97481">
        <ele>831.2</ele>
        <time>2024-11-24T12:49:57Z</time>
      </trkpt>
      <trkpt lat="45.25447" lon="3.97467">
        <ele>831.68</ele>
        <time>2024-11-24T12:50:11Z</time>
      </trkpt>
      <trkpt lat="45.25445" lon="3.97456">
        <ele>830.72</ele>
        <time>2024-11-24T12:50:22Z</time>
      </trkpt>
      <trkpt lat="45.25423" lon="3.97439">
        <ele>830.72</ele>
        <time>2024-11-24T12:50:41Z</time>
      </trkpt>
      <trkpt lat="45.25409" lon="3.97429">
        <ele>830.72</ele>
        <time>2024-11-24T12:50:53Z</time>
      </trkpt>
      <trkpt lat="45.25404" lon="3.97423">
        <ele>831.68</ele>
        <time>2024-11-24T12:50:59Z</time>
      </trkpt>
      <trkpt lat="45.25401" lon="3.97415">
        <ele>833.6</ele>
        <time>2024-11-24T12:51:05Z</time>
      </trkpt>
      <trkpt lat="45.25403" lon="3.97384">
        <ele>835.04</ele>
        <time>2024-11-24T12:51:24Z</time>
      </trkpt>
      <trkpt lat="45.25409" lon="3.97351">
        <ele>836</ele>
        <time>2024-11-24T12:51:42Z</time>
      </trkpt>
      <trkpt lat="45.25414" lon="3.97325">
        <ele>836.96</ele>
        <time>2024-11-24T12:51:58Z</time>
      </trkpt>
      <trkpt lat="45.25419" lon="3.97294">
        <ele>837.93</ele>
        <time>2024-11-24T12:52:16Z</time>
      </trkpt>
      <trkpt lat="45.25422" lon="3.97258">
        <ele>837.93</ele>
        <time>2024-11-24T12:52:35Z</time>
      </trkpt>
      <trkpt lat="45.25422" lon="3.97224">
        <ele>836.96</ele>
        <time>2024-11-24T12:52:53Z</time>
      </trkpt>
      <trkpt lat="45.25415" lon="3.97198">
        <ele>835.52</ele>
        <time>2024-11-24T12:53:09Z</time>
      </trkpt>
      <trkpt lat="45.25406" lon="3.97174">
        <ele>832.64</ele>
        <time>2024-11-24T12:53:24Z</time>
      </trkpt>
      <trkpt lat="45.25394" lon="3.97151">
        <ele>832.16</ele>
        <time>2024-11-24T12:53:40Z</time>
      </trkpt>
      <trkpt lat="45.25383" lon="3.97132">
        <ele>831.68</ele>
        <time>2024-11-24T12:53:55Z</time>
      </trkpt>
      <trkpt lat="45.25366" lon="3.97112">
        <ele>833.12</ele>
        <time>2024-11-24T12:54:12Z</time>
      </trkpt>
      <trkpt lat="45.2535" lon="3.97103">
        <ele>833.12</ele>
        <time>2024-11-24T12:54:25Z</time>
      </trkpt>
      <trkpt lat="45.25328" lon="3.97093">
        <ele>831.68</ele>
        <time>2024-11-24T12:54:42Z</time>
      </trkpt>
      <trkpt lat="45.25322" lon="3.97092">
        <ele>830.24</ele>
        <time>2024-11-24T12:54:47Z</time>
      </trkpt>
      <trkpt lat="45.25316" lon="3.97089">
        <ele>829.76</ele>
        <time>2024-11-24T12:54:52Z</time>
      </trkpt>
      <trkpt lat="45.25297" lon="3.97086">
        <ele>827.83</ele>
        <time>2024-11-24T12:55:08Z</time>
      </trkpt>
      <trkpt lat="45.25291" lon="3.97079">
        <ele>826.39</ele>
        <time>2024-11-24T12:55:16Z</time>
      </trkpt>
      <trkpt lat="45.25288" lon="3.97049">
        <ele>824.47</ele>
        <time>2024-11-24T12:55:34Z</time>
      </trkpt>
      <trkpt lat="45.25289" lon="3.97017">
        <ele>821.1</ele>
        <time>2024-11-24T12:55:51Z</time>
      </trkpt>
      <trkpt lat="45.25287" lon="3.96982">
        <ele>821.1</ele>
        <time>2024-11-24T12:56:10Z</time>
      </trkpt>
      <trkpt lat="45.25288" lon="3.96981">
        <ele>821.1</ele>
        <time>2024-11-24T12:56:11Z</time>
      </trkpt>
      <trkpt lat="45.25301" lon="3.96959">
        <ele>821.1</ele>
        <time>2024-11-24T12:56:27Z</time>
      </trkpt>
      <trkpt lat="45.25311" lon="3.96928">
        <ele>822.06</ele>
        <time>2024-11-24T12:56:46Z</time>
      </trkpt>
      <trkpt lat="45.25303" lon="3.96901">
        <ele>822.06</ele>
        <time>2024-11-24T12:57:03Z</time>
      </trkpt>
      <trkpt lat="45.25291" lon="3.96873">
        <ele>822.06</ele>
        <time>2024-11-24T12:57:19Z</time>
      </trkpt>
      <trkpt lat="45.25281" lon="3.96851">
        <ele>821.58</ele>
        <time>2024-11-24T12:57:33Z</time>
      </trkpt>
      <trkpt lat="45.25266" lon="3.96828">
        <ele>823.03</ele>
        <time>2024-11-24T12:57:49Z</time>
      </trkpt>
      <trkpt lat="45.25246" lon="3.96804">
        <ele>822.55</ele>
        <time>2024-11-24T12:58:08Z</time>
      </trkpt>
      <trkpt lat="45.25227" lon="3.96783">
        <ele>822.06</ele>
        <time>2024-11-24T12:58:26Z</time>
      </trkpt>
      <trkpt lat="45.25205" lon="3.96767">
        <ele>820.62</ele>
        <time>2024-11-24T12:58:43Z</time>
      </trkpt>
      <trkpt lat="45.25179" lon="3.9676">
        <ele>818.7</ele>
        <time>2024-11-24T12:59:03Z</time>
      </trkpt>
      <trkpt lat="45.25163" lon="3.96747">
        <ele>822.55</ele>
        <time>2024-11-24T12:59:18Z</time>
      </trkpt>
      <trkpt lat="45.25155" lon="3.96716">
        <ele>823.51</ele>
        <time>2024-11-24T12:59:35Z</time>
      </trkpt>
      <trkpt lat="45.25145" lon="3.9668">
        <ele>822.55</ele>
        <time>2024-11-24T12:59:55Z</time>
      </trkpt>
      <trkpt lat="45.25133" lon="3.96646">
        <ele>823.03</ele>
        <time>2024-11-24T13:00:16Z</time>
      </trkpt>
      <trkpt lat="45.25131" lon="3.96635">
        <ele>821.58</ele>
        <time>2024-11-24T13:00:28Z</time>
      </trkpt>
      <trkpt lat="45.2513" lon="3.96632">
        <ele>821.1</ele>
        <time>2024-11-24T13:00:38Z</time>
      </trkpt>
      <trkpt lat="45.2513" lon="3.96631">
        <ele>818.22</ele>
        <time>2024-11-24T13:00:56Z</time>
      </trkpt>
      <trkpt lat="45.2513" lon="3.9663">
        <ele>814.37</ele>
        <time>2024-11-24T13:01:16Z</time>
      </trkpt>
      <trkpt lat="45.25131" lon="3.96628">
        <ele>814.85</ele>
        <time>2024-11-24T13:01:35Z</time>
      </trkpt>
      <trkpt lat="45.2513" lon="3.96629">
        <ele>814.37</ele>
        <time>2024-11-24T13:01:55Z</time>
      </trkpt>
      <trkpt lat="45.2513" lon="3.96627">
        <ele>815.82</ele>
        <time>2024-11-24T13:02:15Z</time>
      </trkpt>
      <trkpt lat="45.25131" lon="3.96627">
        <ele>817.26</ele>
        <time>2024-11-24T13:02:34Z</time>
      </trkpt>
      <trkpt lat="45.25131" lon="3.96628">
        <ele>818.7</ele>
        <time>2024-11-24T13:02:54Z</time>
      </trkpt>
      <trkpt lat="45.25138" lon="3.9661">
        <ele>819.18</ele>
        <time>2024-11-24T13:03:08Z</time>
      </trkpt>
      <trkpt lat="45.25151" lon="3.96588">
        <ele>821.1</ele>
        <time>2024-11-24T13:03:25Z</time>
      </trkpt>
      <trkpt lat="45.2517" lon="3.96569">
        <ele>824.47</ele>
        <time>2024-11-24T13:03:43Z</time>
      </trkpt>
      <trkpt lat="45.25183" lon="3.96549">
        <ele>823.99</ele>
        <time>2024-11-24T13:03:59Z</time>
      </trkpt>
      <trkpt lat="45.25185" lon="3.96546">
        <ele>823.99</ele>
        <time>2024-11-24T13:04:01Z</time>
      </trkpt>
      <trkpt lat="45.25195" lon="3.96518">
        <ele>823.03</ele>
        <time>2024-11-24T13:04:19Z</time>
      </trkpt>
      <trkpt lat="45.252" lon="3.9649">
        <ele>823.99</ele>
        <time>2024-11-24T13:04:35Z</time>
      </trkpt>
      <trkpt lat="45.25202" lon="3.9646">
        <ele>824.95</ele>
        <time>2024-11-24T13:04:51Z</time>
      </trkpt>
      <trkpt lat="45.25204" lon="3.96434">
        <ele>826.87</ele>
        <time>2024-11-24T13:05:06Z</time>
      </trkpt>
      <trkpt lat="45.25206" lon="3.964">
        <ele>828.31</ele>
        <time>2024-11-24T13:05:25Z</time>
      </trkpt>
      <trkpt lat="45.25199" lon="3.96377">
        <ele>829.27</ele>
        <time>2024-11-24T13:05:39Z</time>
      </trkpt>
      <trkpt lat="45.25201" lon="3.96346">
        <ele>830.72</ele>
        <time>2024-11-24T13:05:58Z</time>
      </trkpt>
      <trkpt lat="45.25208" lon="3.96333">
        <ele>834.08</ele>
        <time>2024-11-24T13:06:11Z</time>
      </trkpt>
      <trkpt lat="45.25211" lon="3.96324">
        <ele>835.52</ele>
        <time>2024-11-24T13:06:25Z</time>
      </trkpt>
      <trkpt lat="45.25211" lon="3.9632">
        <ele>835.04</ele>
        <time>2024-11-24T13:06:37Z</time>
      </trkpt>
      <trkpt lat="45.2521" lon="3.96319">
        <ele>835.04</ele>
        <time>2024-11-24T13:06:39Z</time>
      </trkpt>
      <trkpt lat="45.25206" lon="3.96316">
        <ele>834.56</ele>
        <time>2024-11-24T13:06:53Z</time>
      </trkpt>
      <trkpt lat="45.25213" lon="3.96318">
        <ele>834.56</ele>
        <time>2024-11-24T13:07:03Z</time>
      </trkpt>
      <trkpt lat="45.25214" lon="3.96318">
        <ele>835.04</ele>
        <time>2024-11-24T13:07:14Z</time>
      </trkpt>
      <trkpt lat="45.25214" lon="3.96319">
        <ele>835.52</ele>
        <time>2024-11-24T13:07:18Z</time>
      </trkpt>
      <trkpt lat="45.252" lon="3.96303">
        <ele>836</ele>
        <time>2024-11-24T13:07:33Z</time>
      </trkpt>
      <trkpt lat="45.25195" lon="3.96284">
        <ele>838.41</ele>
        <time>2024-11-24T13:07:47Z</time>
      </trkpt>
      <trkpt lat="45.25194" lon="3.96277">
        <ele>839.37</ele>
        <time>2024-11-24T13:07:58Z</time>
      </trkpt>
      <trkpt lat="45.25195" lon="3.96273">
        <ele>839.37</ele>
        <time>2024-11-24T13:08:03Z</time>
      </trkpt>
      <trkpt lat="45.25198" lon="3.96269">
        <ele>839.37</ele>
        <time>2024-11-24T13:08:07Z</time>
      </trkpt>
      <trkpt lat="45.25202" lon="3.96244">
        <ele>839.85</ele>
        <time>2024-11-24T13:08:23Z</time>
      </trkpt>
      <trkpt lat="45.252" lon="3.96221">
        <ele>840.33</ele>
        <time>2024-11-24T13:08:40Z</time>
      </trkpt>
      <trkpt lat="45.252" lon="3.9622">
        <ele>840.33</ele>
        <time>2024-11-24T13:08:57Z</time>
      </trkpt>
      <trkpt lat="45.252" lon="3.96218">
        <ele>840.81</ele>
        <time>2024-11-24T13:09:09Z</time>
      </trkpt>
      <trkpt lat="45.252" lon="3.96214">
        <ele>840.33</ele>
        <time>2024-11-24T13:09:23Z</time>
      </trkpt>
      <trkpt lat="45.252" lon="3.96215">
        <ele>839.85</ele>
        <time>2024-11-24T13:09:38Z</time>
      </trkpt>
      <trkpt lat="45.25202" lon="3.96208">
        <ele>840.33</ele>
        <time>2024-11-24T13:09:49Z</time>
      </trkpt>
      <trkpt lat="45.25202" lon="3.96193">
        <ele>841.29</ele>
        <time>2024-11-24T13:10:01Z</time>
      </trkpt>
      <trkpt lat="45.25198" lon="3.96164">
        <ele>843.21</ele>
        <time>2024-11-24T13:10:18Z</time>
      </trkpt>
      <trkpt lat="45.25194" lon="3.9614">
        <ele>847.06</ele>
        <time>2024-11-24T13:10:33Z</time>
      </trkpt>
      <trkpt lat="45.25189" lon="3.96117">
        <ele>849.94</ele>
        <time>2024-11-24T13:10:49Z</time>
      </trkpt>
      <trkpt lat="45.25182" lon="3.96089">
        <ele>852.35</ele>
        <time>2024-11-24T13:11:08Z</time>
      </trkpt>
      <trkpt lat="45.25178" lon="3.96059">
        <ele>853.79</ele>
        <time>2024-11-24T13:11:25Z</time>
      </trkpt>
      <trkpt lat="45.25176" lon="3.9604">
        <ele>855.23</ele>
        <time>2024-11-24T13:11:38Z</time>
      </trkpt>
      <trkpt lat="45.25174" lon="3.96018">
        <ele>856.67</ele>
        <time>2024-11-24T13:11:53Z</time>
      </trkpt>
      <trkpt lat="45.25175" lon="3.95991">
        <ele>857.63</ele>
        <time>2024-11-24T13:12:09Z</time>
      </trkpt>
      <trkpt lat="45.25176" lon="3.95961">
        <ele>859.56</ele>
        <time>2024-11-24T13:12:26Z</time>
      </trkpt>
      <trkpt lat="45.25174" lon="3.95932">
        <ele>863.88</ele>
        <time>2024-11-24T13:12:43Z</time>
      </trkpt>
      <trkpt lat="45.25172" lon="3.95903">
        <ele>866.77</ele>
        <time>2024-11-24T13:13:00Z</time>
      </trkpt>
      <trkpt lat="45.25168" lon="3.95882">
        <ele>868.21</ele>
        <time>2024-11-24T13:13:13Z</time>
      </trkpt>
      <trkpt lat="45.25162" lon="3.95854">
        <ele>871.57</ele>
        <time>2024-11-24T13:13:30Z</time>
      </trkpt>
      <trkpt lat="45.25156" lon="3.95829">
        <ele>874.46</ele>
        <time>2024-11-24T13:13:46Z</time>
      </trkpt>
      <trkpt lat="45.25154" lon="3.95797">
        <ele>876.38</ele>
        <time>2024-11-24T13:14:05Z</time>
      </trkpt>
      <trkpt lat="45.25156" lon="3.95789">
        <ele>876.86</ele>
        <time>2024-11-24T13:14:10Z</time>
      </trkpt>
      <trkpt lat="45.25157" lon="3.95783">
        <ele>876.86</ele>
        <time>2024-11-24T13:14:14Z</time>
      </trkpt>
      <trkpt lat="45.25164" lon="3.95749">
        <ele>875.42</ele>
        <time>2024-11-24T13:14:34Z</time>
      </trkpt>
      <trkpt lat="45.25169" lon="3.95713">
        <ele>873.98</ele>
        <time>2024-11-24T13:14:53Z</time>
      </trkpt>
      <trkpt lat="45.25169" lon="3.95686">
        <ele>875.9</ele>
        <time>2024-11-24T13:15:09Z</time>
      </trkpt>
      <trkpt lat="45.2517" lon="3.95668">
        <ele>877.82</ele>
        <time>2024-11-24T13:15:23Z</time>
      </trkpt>
      <trkpt lat="45.25174" lon="3.95636">
        <ele>876.86</ele>
        <time>2024-11-24T13:15:42Z</time>
      </trkpt>
      <trkpt lat="45.25179" lon="3.95602">
        <ele>876.86</ele>
        <time>2024-11-24T13:16:02Z</time>
      </trkpt>
      <trkpt lat="45.25185" lon="3.9557">
        <ele>875.9</ele>
        <time>2024-11-24T13:16:20Z</time>
      </trkpt>
      <trkpt lat="45.2519" lon="3.95539">
        <ele>879.26</ele>
        <time>2024-11-24T13:16:37Z</time>
      </trkpt>
      <trkpt lat="45.25191" lon="3.95535">
        <ele>879.74</ele>
        <time>2024-11-24T13:16:40Z</time>
      </trkpt>
      <trkpt lat="45.25195" lon="3.95511">
        <ele>883.11</ele>
        <time>2024-11-24T13:16:56Z</time>
      </trkpt>
      <trkpt lat="45.25198" lon="3.95494">
        <ele>885.51</ele>
        <time>2024-11-24T13:17:08Z</time>
      </trkpt>
      <trkpt lat="45.25199" lon="3.95492">
        <ele>885.99</ele>
        <time>2024-11-24T13:17:10Z</time>
      </trkpt>
      <trkpt lat="45.25204" lon="3.95463">
        <ele>888.88</ele>
        <time>2024-11-24T13:17:26Z</time>
      </trkpt>
      <trkpt lat="45.25207" lon="3.95429">
        <ele>890.8</ele>
        <time>2024-11-24T13:17:43Z</time>
      </trkpt>
      <trkpt lat="45.25207" lon="3.95396">
        <ele>893.2</ele>
        <time>2024-11-24T13:18:00Z</time>
      </trkpt>
      <trkpt lat="45.25204" lon="3.95358">
        <ele>894.16</ele>
        <time>2024-11-24T13:18:21Z</time>
      </trkpt>
      <trkpt lat="45.252" lon="3.95328">
        <ele>895.61</ele>
        <time>2024-11-24T13:18:38Z</time>
      </trkpt>
      <trkpt lat="45.252" lon="3.95308">
        <ele>896.57</ele>
        <time>2024-11-24T13:18:55Z</time>
      </trkpt>
      <trkpt lat="45.25201" lon="3.95307">
        <ele>896.57</ele>
        <time>2024-11-24T13:19:05Z</time>
      </trkpt>
      <trkpt lat="45.25201" lon="3.95307">
        <ele>896.57</ele>
        <time>2024-11-24T13:19:15Z</time>
      </trkpt>
      <trkpt lat="45.25201" lon="3.95307">
        <ele>895.61</ele>
        <time>2024-11-24T13:19:28Z</time>
      </trkpt>
      <trkpt lat="45.25199" lon="3.95304">
        <ele>894.64</ele>
        <time>2024-11-24T13:19:42Z</time>
      </trkpt>
      <trkpt lat="45.25196" lon="3.95303">
        <ele>894.64</ele>
        <time>2024-11-24T13:19:46Z</time>
      </trkpt>
      <trkpt lat="45.25173" lon="3.9531">
        <ele>893.68</ele>
        <time>2024-11-24T13:20:05Z</time>
      </trkpt>
      <trkpt lat="45.25151" lon="3.95314">
        <ele>892.24</ele>
        <time>2024-11-24T13:20:22Z</time>
      </trkpt>
      <trkpt lat="45.25126" lon="3.95314">
        <ele>892.72</ele>
        <time>2024-11-24T13:20:41Z</time>
      </trkpt>
      <trkpt lat="45.25097" lon="3.95317">
        <ele>894.64</ele>
        <time>2024-11-24T13:21:02Z</time>
      </trkpt>
      <trkpt lat="45.25074" lon="3.95318">
        <ele>896.09</ele>
        <time>2024-11-24T13:21:19Z</time>
      </trkpt>
      <trkpt lat="45.25046" lon="3.95317">
        <ele>899.45</ele>
        <time>2024-11-24T13:21:40Z</time>
      </trkpt>
      <trkpt lat="45.25018" lon="3.95318">
        <ele>902.33</ele>
        <time>2024-11-24T13:22:00Z</time>
      </trkpt>
      <trkpt lat="45.24991" lon="3.9532">
        <ele>904.74</ele>
        <time>2024-11-24T13:22:19Z</time>
      </trkpt>
      <trkpt lat="45.24964" lon="3.95322">
        <ele>905.7</ele>
        <time>2024-11-24T13:22:39Z</time>
      </trkpt>
      <trkpt lat="45.24936" lon="3.95326">
        <ele>904.26</ele>
        <time>2024-11-24T13:22:59Z</time>
      </trkpt>
      <trkpt lat="45.24906" lon="3.95328">
        <ele>900.89</ele>
        <time>2024-11-24T13:23:20Z</time>
      </trkpt>
      <trkpt lat="45.2488" lon="3.95322">
        <ele>902.33</ele>
        <time>2024-11-24T13:23:40Z</time>
      </trkpt>
      <trkpt lat="45.24852" lon="3.95311">
        <ele>900.89</ele>
        <time>2024-11-24T13:24:00Z</time>
      </trkpt>
      <trkpt lat="45.24826" lon="3.95295">
        <ele>898.01</ele>
        <time>2024-11-24T13:24:20Z</time>
      </trkpt>
      <trkpt lat="45.24814" lon="3.95283">
        <ele>898.01</ele>
        <time>2024-11-24T13:24:34Z</time>
      </trkpt>
      <trkpt lat="45.24793" lon="3.9527">
        <ele>897.53</ele>
        <time>2024-11-24T13:24:53Z</time>
      </trkpt>
      <trkpt lat="45.24766" lon="3.95254">
        <ele>897.05</ele>
        <time>2024-11-24T13:25:13Z</time>
      </trkpt>
      <trkpt lat="45.2474" lon="3.95235">
        <ele>895.12</ele>
        <time>2024-11-24T13:25:33Z</time>
      </trkpt>
      <trkpt lat="45.24712" lon="3.95209">
        <ele>893.68</ele>
        <time>2024-11-24T13:25:56Z</time>
      </trkpt>
      <trkpt lat="45.24692" lon="3.95191">
        <ele>893.68</ele>
        <time>2024-11-24T13:26:13Z</time>
      </trkpt>
      <trkpt lat="45.24666" lon="3.95165">
        <ele>893.68</ele>
        <time>2024-11-24T13:26:35Z</time>
      </trkpt>
      <trkpt lat="45.2464" lon="3.9514">
        <ele>894.16</ele>
        <time>2024-11-24T13:26:57Z</time>
      </trkpt>
      <trkpt lat="45.24614" lon="3.95114">
        <ele>894.16</ele>
        <time>2024-11-24T13:27:19Z</time>
      </trkpt>
      <trkpt lat="45.24591" lon="3.95091">
        <ele>895.12</ele>
        <time>2024-11-24T13:27:39Z</time>
      </trkpt>
      <trkpt lat="45.24566" lon="3.95075">
        <ele>894.64</ele>
        <time>2024-11-24T13:27:58Z</time>
      </trkpt>
      <trkpt lat="45.2454" lon="3.95062">
        <ele>894.16</ele>
        <time>2024-11-24T13:28:17Z</time>
      </trkpt>
      <trkpt lat="45.24512" lon="3.9505">
        <ele>895.61</ele>
        <time>2024-11-24T13:28:37Z</time>
      </trkpt>
      <trkpt lat="45.24484" lon="3.95036">
        <ele>896.09</ele>
        <time>2024-11-24T13:28:58Z</time>
      </trkpt>
      <trkpt lat="45.24461" lon="3.95022">
        <ele>896.57</ele>
        <time>2024-11-24T13:29:17Z</time>
      </trkpt>
      <trkpt lat="45.24442" lon="3.9501">
        <ele>896.57</ele>
        <time>2024-11-24T13:29:32Z</time>
      </trkpt>
      <trkpt lat="45.24423" lon="3.94995">
        <ele>896.57</ele>
        <time>2024-11-24T13:29:50Z</time>
      </trkpt>
      <trkpt lat="45.244" lon="3.94979">
        <ele>894.64</ele>
        <time>2024-11-24T13:30:09Z</time>
      </trkpt>
      <trkpt lat="45.24386" lon="3.94968">
        <ele>894.64</ele>
        <time>2024-11-24T13:30:25Z</time>
      </trkpt>
      <trkpt lat="45.24384" lon="3.94965">
        <ele>894.64</ele>
        <time>2024-11-24T13:30:29Z</time>
      </trkpt>
      <trkpt lat="45.24384" lon="3.94965">
        <ele>894.64</ele>
        <time>2024-11-24T13:30:40Z</time>
      </trkpt>
      <trkpt lat="45.24384" lon="3.94965">
        <ele>894.16</ele>
        <time>2024-11-24T13:30:44Z</time>
      </trkpt>
      <trkpt lat="45.24375" lon="3.94949">
        <ele>894.16</ele>
        <time>2024-11-24T13:31:01Z</time>
      </trkpt>
      <trkpt lat="45.24376" lon="3.94944">
        <ele>894.16</ele>
        <time>2024-11-24T13:31:11Z</time>
      </trkpt>
      <trkpt lat="45.24376" lon="3.94944">
        <ele>892.72</ele>
        <time>2024-11-24T13:31:23Z</time>
      </trkpt>
      <trkpt lat="45.24372" lon="3.94935">
        <ele>892.72</ele>
        <time>2024-11-24T13:31:37Z</time>
      </trkpt>
      <trkpt lat="45.24373" lon="3.94933">
        <ele>892.72</ele>
        <time>2024-11-24T13:31:39Z</time>
      </trkpt>
      <trkpt lat="45.24372" lon="3.94919">
        <ele>893.2</ele>
        <time>2024-11-24T13:31:49Z</time>
      </trkpt>
      <trkpt lat="45.2437" lon="3.94892">
        <ele>896.09</ele>
        <time>2024-11-24T13:32:06Z</time>
      </trkpt>
      <trkpt lat="45.24369" lon="3.9486">
        <ele>898.01</ele>
        <time>2024-11-24T13:32:24Z</time>
      </trkpt>
      <trkpt lat="45.24369" lon="3.94825">
        <ele>897.05</ele>
        <time>2024-11-24T13:32:43Z</time>
      </trkpt>
      <trkpt lat="45.24366" lon="3.94785">
        <ele>898.97</ele>
        <time>2024-11-24T13:33:05Z</time>
      </trkpt>
      <trkpt lat="45.24365" lon="3.94754">
        <ele>900.41</ele>
        <time>2024-11-24T13:33:22Z</time>
      </trkpt>
      <trkpt lat="45.24365" lon="3.94724">
        <ele>902.33</ele>
        <time>2024-11-24T13:33:39Z</time>
      </trkpt>
      <trkpt lat="45.24369" lon="3.94661">
        <ele>916.4</ele>
      </trkpt>
      <trkpt lat="45.24366" lon="3.94662">
        <ele>916.8</ele>
      </trkpt>
      <trkpt lat="45.24293" lon="3.94683">
        <ele>919.6</ele>
      </trkpt>
      <trkpt lat="45.24277" lon="3.94687">
        <ele>919.1</ele>
      </trkpt>
      <trkpt lat="45.24258" lon="3.9469">
        <ele>919.2</ele>
      </trkpt>
      <trkpt lat="45.24231" lon="3.94677">
        <ele>921.3</ele>
      </trkpt>
      <trkpt lat="45.24193" lon="3.94663">
        <ele>922.6</ele>
      </trkpt>
      <trkpt lat="45.24151" lon="3.9464">
        <ele>927.4</ele>
      </trkpt>
      <trkpt lat="45.24082" lon="3.94622">
        <ele>932.4</ele>
      </trkpt>
      <trkpt lat="45.24043" lon="3.94624">
        <ele>930.8</ele>
      </trkpt>
      <trkpt lat="45.24038" lon="3.94622">
        <ele>930.8</ele>
      </trkpt>
      <trkpt lat="45.24034" lon="3.9462">
        <ele>930.8</ele>
      </trkpt>
      <trkpt lat="45.24023" lon="3.94605">
        <ele>932.3</ele>
      </trkpt>
      <trkpt lat="45.24015" lon="3.94569">
        <ele>935.6</ele>
      </trkpt>
      <trkpt lat="45.24006" lon="3.94537">
        <ele>936.4</ele>
      </trkpt>
      <trkpt lat="45.24005" lon="3.94488">
        <ele>939.8</ele>
      </trkpt>
      <trkpt lat="45.24009" lon="3.94476">
        <ele>942.3</ele>
      </trkpt>
      <trkpt lat="45.24028" lon="3.94453">
        <ele>950.8</ele>
      </trkpt>
      <trkpt lat="45.24069" lon="3.94449">
        <ele>959.9</ele>
      </trkpt>
      <trkpt lat="45.24073" lon="3.94447">
        <ele>960.5</ele>
      </trkpt>
      <trkpt lat="45.24072" lon="3.94435">
        <ele>959.9</ele>
      </trkpt>
      <trkpt lat="45.24067" lon="3.94417">
        <ele>958.1</ele>
      </trkpt>
      <trkpt lat="45.24068" lon="3.94408">
        <ele>957.1</ele>
      </trkpt>
      <trkpt lat="45.24077" lon="3.94385">
        <ele>956.4</ele>
      </trkpt>
      <trkpt lat="45.24083" lon="3.94353">
        <ele>952.7</ele>
      </trkpt>
      <trkpt lat="45.24085" lon="3.94319">
        <ele>947.6</ele>
      </trkpt>
      <trkpt lat="45.24082" lon="3.94302">
        <ele>944.5</ele>
      </trkpt>
      <trkpt lat="45.24079" lon="3.94278">
        <ele>942.5</ele>
      </trkpt>
      <trkpt lat="45.24061" lon="3.94254">
        <ele>938</ele>
      </trkpt>
      <trkpt lat="45.24039" lon="3.94236">
        <ele>933.7</ele>
      </trkpt>
      <trkpt lat="45.24022" lon="3.94209">
        <ele>930.4</ele>
      </trkpt>
      <trkpt lat="45.24008" lon="3.94177">
        <ele>927.1</ele>
      </trkpt>
      <trkpt lat="45.23993" lon="3.94148">
        <ele>924.7</ele>
      </trkpt>
      <trkpt lat="45.23994" lon="3.94143">
        <ele>924.5</ele>
      </trkpt>
      <trkpt lat="45.24005" lon="3.94124">
        <ele>924.3</ele>
      </trkpt>
      <trkpt lat="45.24005" lon="3.9412">
        <ele>924</ele>
      </trkpt>
      <trkpt lat="45.24004" lon="3.94117">
        <ele>923.7</ele>
      </trkpt>
      <trkpt lat="45.2399" lon="3.94101">
        <ele>922</ele>
      </trkpt>
      <trkpt lat="45.23984" lon="3.94083">
        <ele>921.4</ele>
      </trkpt>
      <trkpt lat="45.23979" lon="3.94055">
        <ele>920.2</ele>
      </trkpt>
      <trkpt lat="45.23974" lon="3.94025">
        <ele>919.1</ele>
      </trkpt>
      <trkpt lat="45.23971" lon="3.94002">
        <ele>919</ele>
      </trkpt>
      <trkpt lat="45.23966" lon="3.93978">
        <ele>918.8</ele>
      </trkpt>
      <trkpt lat="45.23916" lon="3.93981">
        <ele>917</ele>
      </trkpt>
      <trkpt lat="45.23912" lon="3.93982">
        <ele>916.7</ele>
      </trkpt>
      <trkpt lat="45.23888" lon="3.93985">
        <ele>914.9</ele>
      </trkpt>
      <trkpt lat="45.23882" lon="3.93984">
        <ele>914.4</ele>
      </trkpt>
      <trkpt lat="45.23897" lon="3.93955">
        <ele>916</ele>
      </trkpt>
      <trkpt lat="45.23903" lon="3.93946">
        <ele>916.5</ele>
      </trkpt>
      <trkpt lat="45.2391" lon="3.93936">
        <ele>913.39</ele>
        <time>2024-11-24T13:54:30Z</time>
      </trkpt>
      <trkpt lat="45.23911" lon="3.93913">
        <ele>915.31</ele>
        <time>2024-11-24T13:54:46Z</time>
      </trkpt>
      <trkpt lat="45.23906" lon="3.93883">
        <ele>915.79</ele>
        <time>2024-11-24T13:55:04Z</time>
      </trkpt>
      <trkpt lat="45.23899" lon="3.93855">
        <ele>916.75</ele>
        <time>2024-11-24T13:55:20Z</time>
      </trkpt>
      <trkpt lat="45.23895" lon="3.93819">
        <ele>918.2</ele>
        <time>2024-11-24T13:55:40Z</time>
      </trkpt>
      <trkpt lat="45.23893" lon="3.9379">
        <ele>918.2</ele>
        <time>2024-11-24T13:55:57Z</time>
      </trkpt>
      <trkpt lat="45.23893" lon="3.93786">
        <ele>918.2</ele>
        <time>2024-11-24T13:56:00Z</time>
      </trkpt>
      <trkpt lat="45.23894" lon="3.93755">
        <ele>919.64</ele>
        <time>2024-11-24T13:56:17Z</time>
      </trkpt>
      <trkpt lat="45.23895" lon="3.93729">
        <ele>920.12</ele>
        <time>2024-11-24T13:56:31Z</time>
      </trkpt>
      <trkpt lat="45.23896" lon="3.93717">
        <ele>920.6</ele>
        <time>2024-11-24T13:56:38Z</time>
      </trkpt>
      <trkpt lat="45.23898" lon="3.93686">
        <ele>922.04</ele>
        <time>2024-11-24T13:56:56Z</time>
      </trkpt>
      <trkpt lat="45.23899" lon="3.93655">
        <ele>923.48</ele>
        <time>2024-11-24T13:57:14Z</time>
      </trkpt>
      <trkpt lat="45.23899" lon="3.93633">
        <ele>924.45</ele>
        <time>2024-11-24T13:57:27Z</time>
      </trkpt>
      <trkpt lat="45.239" lon="3.936">
        <ele>925.41</ele>
        <time>2024-11-24T13:57:46Z</time>
      </trkpt>
      <trkpt lat="45.239" lon="3.93569">
        <ele>925.89</ele>
        <time>2024-11-24T13:58:03Z</time>
      </trkpt>
      <trkpt lat="45.239" lon="3.93535">
        <ele>926.37</ele>
        <time>2024-11-24T13:58:21Z</time>
      </trkpt>
      <trkpt lat="45.239" lon="3.93504">
        <ele>927.33</ele>
        <time>2024-11-24T13:58:38Z</time>
      </trkpt>
      <trkpt lat="45.239" lon="3.93473">
        <ele>927.81</ele>
        <time>2024-11-24T13:58:56Z</time>
      </trkpt>
      <trkpt lat="45.23899" lon="3.93441">
        <ele>928.29</ele>
        <time>2024-11-24T13:59:14Z</time>
      </trkpt>
      <trkpt lat="45.23899" lon="3.93431">
        <ele>928.77</ele>
        <time>2024-11-24T13:59:19Z</time>
      </trkpt>
      <trkpt lat="45.23897" lon="3.93401">
        <ele>928.29</ele>
        <time>2024-11-24T13:59:36Z</time>
      </trkpt>
      <trkpt lat="45.23897" lon="3.93363">
        <ele>929.25</ele>
        <time>2024-11-24T13:59:57Z</time>
      </trkpt>
      <trkpt lat="45.23898" lon="3.93334">
        <ele>930.21</ele>
        <time>2024-11-24T14:00:13Z</time>
      </trkpt>
      <trkpt lat="45.239" lon="3.93299">
        <ele>931.17</ele>
        <time>2024-11-24T14:00:32Z</time>
      </trkpt>
      <trkpt lat="45.23902" lon="3.9327">
        <ele>931.65</ele>
        <time>2024-11-24T14:00:48Z</time>
      </trkpt>
      <trkpt lat="45.23907" lon="3.93233">
        <ele>935.02</ele>
        <time>2024-11-24T14:01:07Z</time>
      </trkpt>
      <trkpt lat="45.2391" lon="3.932">
        <ele>935.5</ele>
        <time>2024-11-24T14:01:25Z</time>
      </trkpt>
      <trkpt lat="45.23912" lon="3.93164">
        <ele>934.54</ele>
        <time>2024-11-24T14:01:43Z</time>
      </trkpt>
      <trkpt lat="45.23916" lon="3.93134">
        <ele>937.9</ele>
        <time>2024-11-24T14:01:59Z</time>
      </trkpt>
      <trkpt lat="45.23916" lon="3.93117">
        <ele>941.75</ele>
        <time>2024-11-24T14:02:12Z</time>
      </trkpt>
      <trkpt lat="45.23916" lon="3.93102">
        <ele>942.23</ele>
        <time>2024-11-24T14:02:25Z</time>
      </trkpt>
      <trkpt lat="45.23916" lon="3.93073">
        <ele>942.71</ele>
        <time>2024-11-24T14:02:42Z</time>
      </trkpt>
      <trkpt lat="45.23915" lon="3.9304">
        <ele>943.19</ele>
        <time>2024-11-24T14:03:00Z</time>
      </trkpt>
      <trkpt lat="45.23914" lon="3.92999">
        <ele>943.67</ele>
        <time>2024-11-24T14:03:22Z</time>
      </trkpt>
      <trkpt lat="45.23912" lon="3.9296">
        <ele>944.15</ele>
        <time>2024-11-24T14:03:43Z</time>
      </trkpt>
      <trkpt lat="45.2391" lon="3.92926">
        <ele>945.59</ele>
        <time>2024-11-24T14:04:01Z</time>
      </trkpt>
      <trkpt lat="45.2391" lon="3.92884">
        <ele>945.59</ele>
        <time>2024-11-24T14:04:23Z</time>
      </trkpt>
      <trkpt lat="45.23911" lon="3.92853">
        <ele>946.07</ele>
        <time>2024-11-24T14:04:40Z</time>
      </trkpt>
      <trkpt lat="45.23914" lon="3.92821">
        <ele>942.71</ele>
        <time>2024-11-24T14:04:56Z</time>
      </trkpt>
      <trkpt lat="45.23917" lon="3.92795">
        <ele>945.59</ele>
        <time>2024-11-24T14:05:11Z</time>
      </trkpt>
      <trkpt lat="45.23919" lon="3.92787">
        <ele>946.56</ele>
        <time>2024-11-24T14:05:16Z</time>
      </trkpt>
      <trkpt lat="45.23926" lon="3.92772">
        <ele>946.07</ele>
        <time>2024-11-24T14:05:26Z</time>
      </trkpt>
      <trkpt lat="45.23926" lon="3.92769">
        <ele>946.56</ele>
        <time>2024-11-24T14:05:28Z</time>
      </trkpt>
      <trkpt lat="45.23934" lon="3.92746">
        <ele>949.92</ele>
        <time>2024-11-24T14:05:44Z</time>
      </trkpt>
      <trkpt lat="45.2394" lon="3.92721">
        <ele>953.28</ele>
        <time>2024-11-24T14:05:59Z</time>
      </trkpt>
      <trkpt lat="45.23949" lon="3.9269">
        <ele>956.65</ele>
        <time>2024-11-24T14:06:16Z</time>
      </trkpt>
      <trkpt lat="45.23956" lon="3.92669">
        <ele>960.98</ele>
        <time>2024-11-24T14:06:31Z</time>
      </trkpt>
      <trkpt lat="45.23967" lon="3.92641">
        <ele>960.98</ele>
        <time>2024-11-24T14:06:47Z</time>
      </trkpt>
      <trkpt lat="45.23978" lon="3.92616">
        <ele>958.57</ele>
        <time>2024-11-24T14:07:02Z</time>
      </trkpt>
      <trkpt lat="45.23989" lon="3.92586">
        <ele>956.65</ele>
        <time>2024-11-24T14:07:19Z</time>
      </trkpt>
      <trkpt lat="45.23992" lon="3.9258">
        <ele>956.65</ele>
        <time>2024-11-24T14:07:23Z</time>
      </trkpt>
      <trkpt lat="45.24001" lon="3.9255">
        <ele>957.61</ele>
        <time>2024-11-24T14:07:40Z</time>
      </trkpt>
      <trkpt lat="45.24011" lon="3.92524">
        <ele>958.57</ele>
        <time>2024-11-24T14:07:57Z</time>
      </trkpt>
      <trkpt lat="45.2402" lon="3.925">
        <ele>958.09</ele>
        <time>2024-11-24T14:08:11Z</time>
      </trkpt>
      <trkpt lat="45.24023" lon="3.92486">
        <ele>959.05</ele>
        <time>2024-11-24T14:08:24Z</time>
      </trkpt>
      <trkpt lat="45.24025" lon="3.92477">
        <ele>960.49</ele>
        <time>2024-11-24T14:08:34Z</time>
      </trkpt>
      <trkpt lat="45.24031" lon="3.92454">
        <ele>960.01</ele>
        <time>2024-11-24T14:08:49Z</time>
      </trkpt>
      <trkpt lat="45.24033" lon="3.92439">
        <ele>960.98</ele>
        <time>2024-11-24T14:08:59Z</time>
      </trkpt>
      <trkpt lat="45.24039" lon="3.92408">
        <ele>961.46</ele>
        <time>2024-11-24T14:09:17Z</time>
      </trkpt>
      <trkpt lat="45.24044" lon="3.92377">
        <ele>962.9</ele>
        <time>2024-11-24T14:09:35Z</time>
      </trkpt>
      <trkpt lat="45.24049" lon="3.92349">
        <ele>963.38</ele>
        <time>2024-11-24T14:09:51Z</time>
      </trkpt>
      <trkpt lat="45.24053" lon="3.92314">
        <ele>960.49</ele>
        <time>2024-11-24T14:10:09Z</time>
      </trkpt>
      <trkpt lat="45.24062" lon="3.9228">
        <ele>957.13</ele>
        <time>2024-11-24T14:10:28Z</time>
      </trkpt>
      <trkpt lat="45.24073" lon="3.92242">
        <ele>954.73</ele>
        <time>2024-11-24T14:10:49Z</time>
      </trkpt>
      <trkpt lat="45.24081" lon="3.92222">
        <ele>953.77</ele>
        <time>2024-11-24T14:11:04Z</time>
      </trkpt>
      <trkpt lat="45.24084" lon="3.92212">
        <ele>953.28</ele>
        <time>2024-11-24T14:11:16Z</time>
      </trkpt>
      <trkpt lat="45.24089" lon="3.92199">
        <ele>953.28</ele>
        <time>2024-11-24T14:11:30Z</time>
      </trkpt>
      <trkpt lat="45.24093" lon="3.92184">
        <ele>952.8</ele>
        <time>2024-11-24T14:11:43Z</time>
      </trkpt>
      <trkpt lat="45.24103" lon="3.92154">
        <ele>952.32</ele>
        <time>2024-11-24T14:12:02Z</time>
      </trkpt>
      <trkpt lat="45.24112" lon="3.92126">
        <ele>952.8</ele>
        <time>2024-11-24T14:12:20Z</time>
      </trkpt>
      <trkpt lat="45.24123" lon="3.92094">
        <ele>951.84</ele>
        <time>2024-11-24T14:12:41Z</time>
      </trkpt>
      <trkpt lat="45.2413" lon="3.92066">
        <ele>952.32</ele>
        <time>2024-11-24T14:12:59Z</time>
      </trkpt>
      <trkpt lat="45.24137" lon="3.92038">
        <ele>952.32</ele>
        <time>2024-11-24T14:13:17Z</time>
      </trkpt>
      <trkpt lat="45.24139" lon="3.92031">
        <ele>952.32</ele>
        <time>2024-11-24T14:13:22Z</time>
      </trkpt>
      <trkpt lat="45.24142" lon="3.92022">
        <ele>952.32</ele>
        <time>2024-11-24T14:13:28Z</time>
      </trkpt>
      <trkpt lat="45.24148" lon="3.91986">
        <ele>951.84</ele>
        <time>2024-11-24T14:13:48Z</time>
      </trkpt>
      <trkpt lat="45.2415" lon="3.91952">
        <ele>951.36</ele>
        <time>2024-11-24T14:14:07Z</time>
      </trkpt>
      <trkpt lat="45.24151" lon="3.9192">
        <ele>950.88</ele>
        <time>2024-11-24T14:14:25Z</time>
      </trkpt>
      <trkpt lat="45.24148" lon="3.91895">
        <ele>950.88</ele>
        <time>2024-11-24T14:14:41Z</time>
      </trkpt>
      <trkpt lat="45.24148" lon="3.91891">
        <ele>950.88</ele>
        <time>2024-11-24T14:14:45Z</time>
      </trkpt>
      <trkpt lat="45.24142" lon="3.91874">
        <ele>951.36</ele>
        <time>2024-11-24T14:14:56Z</time>
      </trkpt>
      <trkpt lat="45.2413" lon="3.91844">
        <ele>951.84</ele>
        <time>2024-11-24T14:15:17Z</time>
      </trkpt>
      <trkpt lat="45.2412" lon="3.91812">
        <ele>953.77</ele>
        <time>2024-11-24T14:15:37Z</time>
      </trkpt>
      <trkpt lat="45.24111" lon="3.91784">
        <ele>954.73</ele>
        <time>2024-11-24T14:15:55Z</time>
      </trkpt>
      <trkpt lat="45.24104" lon="3.91756">
        <ele>954.73</ele>
        <time>2024-11-24T14:16:12Z</time>
      </trkpt>
      <trkpt lat="45.24101" lon="3.9172">
        <ele>954.73</ele>
        <time>2024-11-24T14:16:31Z</time>
      </trkpt>
      <trkpt lat="45.24107" lon="3.91688">
        <ele>956.17</ele>
        <time>2024-11-24T14:16:48Z</time>
      </trkpt>
      <trkpt lat="45.2411" lon="3.91663">
        <ele>956.65</ele>
        <time>2024-11-24T14:17:03Z</time>
      </trkpt>
      <trkpt lat="45.24107" lon="3.9165">
        <ele>956.65</ele>
        <time>2024-11-24T14:17:12Z</time>
      </trkpt>
      <trkpt lat="45.24104" lon="3.91626">
        <ele>955.69</ele>
        <time>2024-11-24T14:17:26Z</time>
      </trkpt>
      <trkpt lat="45.24101" lon="3.9159">
        <ele>955.69</ele>
        <time>2024-11-24T14:17:46Z</time>
      </trkpt>
      <trkpt lat="45.24096" lon="3.91562">
        <ele>954.73</ele>
        <time>2024-11-24T14:18:02Z</time>
      </trkpt>
      <trkpt lat="45.24091" lon="3.91528">
        <ele>955.21</ele>
        <time>2024-11-24T14:18:21Z</time>
      </trkpt>
      <trkpt lat="45.24085" lon="3.91492">
        <ele>954.25</ele>
        <time>2024-11-24T14:18:42Z</time>
      </trkpt>
      <trkpt lat="45.24083" lon="3.9146">
        <ele>953.28</ele>
        <time>2024-11-24T14:19:00Z</time>
      </trkpt>
      <trkpt lat="45.24077" lon="3.9143">
        <ele>953.77</ele>
        <time>2024-11-24T14:19:18Z</time>
      </trkpt>
      <trkpt lat="45.24071" lon="3.91396">
        <ele>952.32</ele>
        <time>2024-11-24T14:19:37Z</time>
      </trkpt>
      <trkpt lat="45.24065" lon="3.91362">
        <ele>951.36</ele>
        <time>2024-11-24T14:19:56Z</time>
      </trkpt>
      <trkpt lat="45.24057" lon="3.9133">
        <ele>951.36</ele>
        <time>2024-11-24T14:20:15Z</time>
      </trkpt>
      <trkpt lat="45.24055" lon="3.91317">
        <ele>951.36</ele>
        <time>2024-11-24T14:20:22Z</time>
      </trkpt>
      <trkpt lat="45.24056" lon="3.91287">
        <ele>952.32</ele>
        <time>2024-11-24T14:20:37Z</time>
      </trkpt>
      <trkpt lat="45.24058" lon="3.91255">
        <ele>951.84</ele>
        <time>2024-11-24T14:20:55Z</time>
      </trkpt>
      <trkpt lat="45.24061" lon="3.91214">
        <ele>952.8</ele>
        <time>2024-11-24T14:21:17Z</time>
      </trkpt>
      <trkpt lat="45.24062" lon="3.91181">
        <ele>950.4</ele>
        <time>2024-11-24T14:21:36Z</time>
      </trkpt>
      <trkpt lat="45.24064" lon="3.91146">
        <ele>949.44</ele>
        <time>2024-11-24T14:21:55Z</time>
      </trkpt>
      <trkpt lat="45.24066" lon="3.91112">
        <ele>949.44</ele>
        <time>2024-11-24T14:22:14Z</time>
      </trkpt>
      <trkpt lat="45.24066" lon="3.91075">
        <ele>950.88</ele>
        <time>2024-11-24T14:22:33Z</time>
      </trkpt>
      <trkpt lat="45.24069" lon="3.91038">
        <ele>952.8</ele>
        <time>2024-11-24T14:22:53Z</time>
      </trkpt>
      <trkpt lat="45.24065" lon="3.91006">
        <ele>953.28</ele>
        <time>2024-11-24T14:23:12Z</time>
      </trkpt>
      <trkpt lat="45.2406" lon="3.90974">
        <ele>953.28</ele>
        <time>2024-11-24T14:23:30Z</time>
      </trkpt>
      <trkpt lat="45.24055" lon="3.90943">
        <ele>953.28</ele>
        <time>2024-11-24T14:23:48Z</time>
      </trkpt>
      <trkpt lat="45.2405" lon="3.90915">
        <ele>954.73</ele>
        <time>2024-11-24T14:24:04Z</time>
      </trkpt>
      <trkpt lat="45.24046" lon="3.90884">
        <ele>955.69</ele>
        <time>2024-11-24T14:24:22Z</time>
      </trkpt>
      <trkpt lat="45.24039" lon="3.90851">
        <ele>956.65</ele>
        <time>2024-11-24T14:24:41Z</time>
      </trkpt>
      <trkpt lat="45.24034" lon="3.90815">
        <ele>958.09</ele>
        <time>2024-11-24T14:25:00Z</time>
      </trkpt>
      <trkpt lat="45.24029" lon="3.90782">
        <ele>957.13</ele>
        <time>2024-11-24T14:25:18Z</time>
      </trkpt>
      <trkpt lat="45.24027" lon="3.90749">
        <ele>956.65</ele>
        <time>2024-11-24T14:25:35Z</time>
      </trkpt>
      <trkpt lat="45.24017" lon="3.90709">
        <ele>954.25</ele>
        <time>2024-11-24T14:25:56Z</time>
      </trkpt>
      <trkpt lat="45.2401" lon="3.90675">
        <ele>953.77</ele>
        <time>2024-11-24T14:26:14Z</time>
      </trkpt>
      <trkpt lat="45.24" lon="3.90642">
        <ele>953.77</ele>
        <time>2024-11-24T14:26:32Z</time>
      </trkpt>
      <trkpt lat="45.23991" lon="3.90621">
        <ele>955.69</ele>
        <time>2024-11-24T14:26:44Z</time>
      </trkpt>
      <trkpt lat="45.23989" lon="3.90614">
        <ele>956.65</ele>
        <time>2024-11-24T14:26:48Z</time>
      </trkpt>
      <trkpt lat="45.23971" lon="3.90581">
        <ele>957.61</ele>
        <time>2024-11-24T14:27:09Z</time>
      </trkpt>
      <trkpt lat="45.23959" lon="3.90552">
        <ele>958.09</ele>
        <time>2024-11-24T14:27:26Z</time>
      </trkpt>
      <trkpt lat="45.23942" lon="3.9051">
        <ele>957.13</ele>
        <time>2024-11-24T14:27:51Z</time>
      </trkpt>
      <trkpt lat="45.2393" lon="3.9048">
        <ele>958.09</ele>
        <time>2024-11-24T14:28:09Z</time>
      </trkpt>
      <trkpt lat="45.23916" lon="3.90447">
        <ele>959.05</ele>
        <time>2024-11-24T14:28:29Z</time>
      </trkpt>
      <trkpt lat="45.23905" lon="3.90422">
        <ele>958.09</ele>
        <time>2024-11-24T14:28:44Z</time>
      </trkpt>
      <trkpt lat="45.23889" lon="3.90387">
        <ele>956.17</ele>
        <time>2024-11-24T14:29:05Z</time>
      </trkpt>
      <trkpt lat="45.23873" lon="3.90357">
        <ele>955.69</ele>
        <time>2024-11-24T14:29:24Z</time>
      </trkpt>
      <trkpt lat="45.23857" lon="3.90333">
        <ele>954.25</ele>
        <time>2024-11-24T14:29:41Z</time>
      </trkpt>
      <trkpt lat="45.23841" lon="3.90301">
        <ele>951.36</ele>
        <time>2024-11-24T14:30:01Z</time>
      </trkpt>
      <trkpt lat="45.23825" lon="3.90266">
        <ele>947.04</ele>
        <time>2024-11-24T14:30:23Z</time>
      </trkpt>
      <trkpt lat="45.2381" lon="3.90232">
        <ele>946.56</ele>
        <time>2024-11-24T14:30:43Z</time>
      </trkpt>
      <trkpt lat="45.23795" lon="3.90196">
        <ele>946.07</ele>
        <time>2024-11-24T14:31:04Z</time>
      </trkpt>
      <trkpt lat="45.23786" lon="3.90166">
        <ele>946.56</ele>
        <time>2024-11-24T14:31:21Z</time>
      </trkpt>
      <trkpt lat="45.23781" lon="3.90132">
        <ele>946.56</ele>
        <time>2024-11-24T14:31:38Z</time>
      </trkpt>
      <trkpt lat="45.23782" lon="3.90102">
        <ele>948.96</ele>
        <time>2024-11-24T14:31:54Z</time>
      </trkpt>
      <trkpt lat="45.23786" lon="3.9007">
        <ele>948.96</ele>
        <time>2024-11-24T14:32:11Z</time>
      </trkpt>
      <trkpt lat="45.23793" lon="3.90038">
        <ele>948.96</ele>
        <time>2024-11-24T14:32:28Z</time>
      </trkpt>
      <trkpt lat="45.23794" lon="3.90025">
        <ele>948.48</ele>
        <time>2024-11-24T14:32:35Z</time>
      </trkpt>
      <trkpt lat="45.23805" lon="3.90013">
        <ele>947.52</ele>
        <time>2024-11-24T14:32:48Z</time>
      </trkpt>
      <trkpt lat="45.23809" lon="3.90014">
        <ele>948</ele>
        <time>2024-11-24T14:33:00Z</time>
      </trkpt>
      <trkpt lat="45.23813" lon="3.90018">
        <ele>948.48</ele>
        <time>2024-11-24T14:33:11Z</time>
      </trkpt>
      <trkpt lat="45.23814" lon="3.90019">
        <ele>948.48</ele>
        <time>2024-11-24T14:33:22Z</time>
      </trkpt>
      <trkpt lat="45.23815" lon="3.90023">
        <ele>949.44</ele>
        <time>2024-11-24T14:33:35Z</time>
      </trkpt>
      <trkpt lat="45.23819" lon="3.90027">
        <ele>948.48</ele>
        <time>2024-11-24T14:33:47Z</time>
      </trkpt>
      <trkpt lat="45.23821" lon="3.90027">
        <ele>948.48</ele>
        <time>2024-11-24T14:33:50Z</time>
      </trkpt>
      <trkpt lat="45.23836" lon="3.90036">
        <ele>947.04</ele>
        <time>2024-11-24T14:34:07Z</time>
      </trkpt>
      <trkpt lat="45.23853" lon="3.90044">
        <ele>946.07</ele>
        <time>2024-11-24T14:34:21Z</time>
      </trkpt>
      <trkpt lat="45.23873" lon="3.9005">
        <ele>945.11</ele>
        <time>2024-11-24T14:34:38Z</time>
      </trkpt>
      <trkpt lat="45.23897" lon="3.90053">
        <ele>943.67</ele>
        <time>2024-11-24T14:34:57Z</time>
      </trkpt>
      <trkpt lat="45.23921" lon="3.90058">
        <ele>942.71</ele>
        <time>2024-11-24T14:35:16Z</time>
      </trkpt>
      <trkpt lat="45.23945" lon="3.90058">
        <ele>943.67</ele>
        <time>2024-11-24T14:35:35Z</time>
      </trkpt>
      <trkpt lat="45.23952" lon="3.90058">
        <ele>944.15</ele>
        <time>2024-11-24T14:35:41Z</time>
      </trkpt>
      <trkpt lat="45.23975" lon="3.90058">
        <ele>944.15</ele>
        <time>2024-11-24T14:35:59Z</time>
      </trkpt>
      <trkpt lat="45.23984" lon="3.90061">
        <ele>944.63</ele>
        <time>2024-11-24T14:36:06Z</time>
      </trkpt>
      <trkpt lat="45.24009" lon="3.90063">
        <ele>944.63</ele>
        <time>2024-11-24T14:36:26Z</time>
      </trkpt>
      <trkpt lat="45.24032" lon="3.90065">
        <ele>944.15</ele>
        <time>2024-11-24T14:36:44Z</time>
      </trkpt>
      <trkpt lat="45.24055" lon="3.90069">
        <ele>942.71</ele>
        <time>2024-11-24T14:37:02Z</time>
      </trkpt>
      <trkpt lat="45.24074" lon="3.9007">
        <ele>943.19</ele>
        <time>2024-11-24T14:37:17Z</time>
      </trkpt>
      <trkpt lat="45.24085" lon="3.90066">
        <ele>942.23</ele>
        <time>2024-11-24T14:37:33Z</time>
      </trkpt>
      <trkpt lat="45.24085" lon="3.90065">
        <ele>941.75</ele>
        <time>2024-11-24T14:37:56Z</time>
      </trkpt>
      <trkpt lat="45.24088" lon="3.90067">
        <ele>942.23</ele>
        <time>2024-11-24T14:38:07Z</time>
      </trkpt>
      <trkpt lat="45.24116" lon="3.90068">
        <ele>943.19</ele>
        <time>2024-11-24T14:38:26Z</time>
      </trkpt>
      <trkpt lat="45.24151" lon="3.90065">
        <ele>943.67</ele>
        <time>2024-11-24T14:38:49Z</time>
      </trkpt>
      <trkpt lat="45.24182" lon="3.90062">
        <ele>942.71</ele>
        <time>2024-11-24T14:39:10Z</time>
      </trkpt>
      <trkpt lat="45.24208" lon="3.90059">
        <ele>941.75</ele>
        <time>2024-11-24T14:39:28Z</time>
      </trkpt>
      <trkpt lat="45.24236" lon="3.90055">
        <ele>939.83</ele>
        <time>2024-11-24T14:39:48Z</time>
      </trkpt>
      <trkpt lat="45.24264" lon="3.90059">
        <ele>938.38</ele>
        <time>2024-11-24T14:40:09Z</time>
      </trkpt>
      <trkpt lat="45.24289" lon="3.90057">
        <ele>937.9</ele>
        <time>2024-11-24T14:40:27Z</time>
      </trkpt>
      <trkpt lat="45.24314" lon="3.90049">
        <ele>939.35</ele>
        <time>2024-11-24T14:40:45Z</time>
      </trkpt>
      <trkpt lat="45.24339" lon="3.90043">
        <ele>941.27</ele>
        <time>2024-11-24T14:41:03Z</time>
      </trkpt>
      <trkpt lat="45.24366" lon="3.90042">
        <ele>942.71</ele>
        <time>2024-11-24T14:41:23Z</time>
      </trkpt>
      <trkpt lat="45.2439" lon="3.90044">
        <ele>942.71</ele>
        <time>2024-11-24T14:41:41Z</time>
      </trkpt>
      <trkpt lat="45.24416" lon="3.90048">
        <ele>943.67</ele>
        <time>2024-11-24T14:42:01Z</time>
      </trkpt>
      <trkpt lat="45.24441" lon="3.90055">
        <ele>944.63</ele>
        <time>2024-11-24T14:42:20Z</time>
      </trkpt>
      <trkpt lat="45.24465" lon="3.90068">
        <ele>944.63</ele>
        <time>2024-11-24T14:42:39Z</time>
      </trkpt>
      <trkpt lat="45.24491" lon="3.90083">
        <ele>943.19</ele>
        <time>2024-11-24T14:42:58Z</time>
      </trkpt>
      <trkpt lat="45.24521" lon="3.90087">
        <ele>945.11</ele>
        <time>2024-11-24T14:43:19Z</time>
      </trkpt>
      <trkpt lat="45.24557" lon="3.9008">
        <ele>946.56</ele>
        <time>2024-11-24T14:43:43Z</time>
      </trkpt>
      <trkpt lat="45.24591" lon="3.90083">
        <ele>949.44</ele>
        <time>2024-11-24T14:44:07Z</time>
      </trkpt>
      <trkpt lat="45.2462" lon="3.90091">
        <ele>950.4</ele>
        <time>2024-11-24T14:44:28Z</time>
      </trkpt>
      <trkpt lat="45.24648" lon="3.90098">
        <ele>952.32</ele>
        <time>2024-11-24T14:44:48Z</time>
      </trkpt>
      <trkpt lat="45.24673" lon="3.90095">
        <ele>954.25</ele>
        <time>2024-11-24T14:45:08Z</time>
      </trkpt>
      <trkpt lat="45.24686" lon="3.90073">
        <ele>955.21</ele>
        <time>2024-11-24T14:45:25Z</time>
      </trkpt>
      <trkpt lat="45.24693" lon="3.9006">
        <ele>955.21</ele>
        <time>2024-11-24T14:45:39Z</time>
      </trkpt>
      <trkpt lat="45.24695" lon="3.90052">
        <ele>955.21</ele>
        <time>2024-11-24T14:45:46Z</time>
      </trkpt>
      <trkpt lat="45.24697" lon="3.90047">
        <ele>955.21</ele>
        <time>2024-11-24T14:45:50Z</time>
      </trkpt>
      <trkpt lat="45.24709" lon="3.90021">
        <ele>955.69</ele>
        <time>2024-11-24T14:46:10Z</time>
      </trkpt>
      <trkpt lat="45.24713" lon="3.90011">
        <ele>955.69</ele>
        <time>2024-11-24T14:46:17Z</time>
      </trkpt>
      <trkpt lat="45.24717" lon="3.90005">
        <ele>955.69</ele>
        <time>2024-11-24T14:46:24Z</time>
      </trkpt>
      <trkpt lat="45.24723" lon="3.89979">
        <ele>956.65</ele>
        <time>2024-11-24T14:46:41Z</time>
      </trkpt>
      <trkpt lat="45.2473" lon="3.89955">
        <ele>959.53</ele>
        <time>2024-11-24T14:46:58Z</time>
      </trkpt>
      <trkpt lat="45.24731" lon="3.89953">
        <ele>959.53</ele>
        <time>2024-11-24T14:47:00Z</time>
      </trkpt>
      <trkpt lat="45.24733" lon="3.89944">
        <ele>960.01</ele>
        <time>2024-11-24T14:47:07Z</time>
      </trkpt>
      <trkpt lat="45.24734" lon="3.89937">
        <ele>960.01</ele>
        <time>2024-11-24T14:47:12Z</time>
      </trkpt>
      <trkpt lat="45.24738" lon="3.89925">
        <ele>959.05</ele>
        <time>2024-11-24T14:47:22Z</time>
      </trkpt>
      <trkpt lat="45.2474" lon="3.89923">
        <ele>958.57</ele>
        <time>2024-11-24T14:47:41Z</time>
      </trkpt>
    </trkseg>
  </trk>
</gpx>